Provisional Data: Sangerfield River near Poolville, NY


Please select a monitoring station.
Please select start date.
Please select start date.

Toggle Unit: C/F Toggle Unit: C/F
Sample Time Temperature (C) Temperature (F) Specific Conductivity (mS/cm) pH   Turbidity (NTU+) DO (mg/L)
5/4/2021 12:00:00 AM 11.72 53.096 0.202 7.94 11.35 9.81
5/4/2021 12:15:00 AM 11.7 53.06 0.195 7.94 11.36 9.8
5/4/2021 12:30:00 AM 11.68 53.024 0.209 7.93 10.5 9.8
5/4/2021 12:45:00 AM 11.66 52.988 0.213 7.92 14.12 9.8
5/4/2021 1:00:00 AM 11.65 52.97 0.208 7.93 12.54 9.79
5/4/2021 1:15:00 AM 11.64 52.952 0.206 7.93 13.09 9.78
5/4/2021 1:30:00 AM 11.64 52.952 0.211 7.92 10.71 9.77
5/4/2021 1:45:00 AM 11.64 52.952 0.214 7.92 11.86 9.77
5/4/2021 2:00:00 AM 11.64 52.952 0.2 7.91 11.78 9.75
5/4/2021 2:15:00 AM 11.64 52.952 0.199 7.91 13.09 9.75
5/4/2021 2:30:00 AM 11.65 52.97 0.185 7.9 11.52 9.73
5/4/2021 2:45:00 AM 11.67 53.006 0.195 7.9 14.25 9.72
5/4/2021 3:00:00 AM 11.68 53.024 0.214 7.9 14.08 9.71
5/4/2021 3:15:00 AM 11.7 53.06 0.197 7.89 13.94 9.7
5/4/2021 3:30:00 AM 11.72 53.096 0.195 7.89 13.61 9.69
5/4/2021 3:45:00 AM 11.74 53.132 0.193 7.89 14.85 9.68
5/4/2021 4:00:00 AM 11.76 53.168 0.201 7.89 13.13 9.67
5/4/2021 4:15:00 AM 11.78 53.204 0.273 7.88 30.48 9.66
5/4/2021 4:30:00 AM 11.8 53.24 0.195 7.88 13.63 9.66
5/4/2021 4:45:00 AM 11.81 53.258 0.201 7.89 14.57 9.65
5/4/2021 5:00:00 AM 11.83 53.294 0.209 7.88 14.26 9.65
5/4/2021 5:15:00 AM 11.84 53.312 0.203 7.88 16.05 9.65
5/4/2021 5:30:00 AM 11.84 53.312 0.206 7.88 11.92 9.65
5/4/2021 5:45:00 AM 11.85 53.33 0.192 7.88 15.82 9.64
5/4/2021 6:00:00 AM 11.85 53.33 0.201 7.87 15.05 9.64
5/4/2021 6:15:00 AM 11.86 53.348 0.204 7.88 13.25 9.64
5/4/2021 6:30:00 AM 11.86 53.348 0.176 7.88 14.09 9.65
5/4/2021 6:45:00 AM 11.86 53.348 0.192 7.87 14.8 9.65
5/4/2021 7:00:00 AM 11.87 53.366 0.207 7.89 14.02 9.66
5/4/2021 7:15:00 AM 11.87 53.366 0.207 7.88 14.62 9.66
5/4/2021 7:30:00 AM 11.87 53.366 0.186 7.88 12.11 9.69
5/4/2021 7:45:00 AM 11.88 53.384 0.197 7.89 10.99 9.7
5/4/2021 8:00:00 AM 11.9 53.42 0.179 7.89 11.88 9.74
5/4/2021 8:15:00 AM 11.92 53.456 0.259 7.9 11.2 9.78
5/4/2021 8:30:00 AM 11.93 53.474 0.197 7.91 13.57 9.81
5/4/2021 8:45:00 AM 11.94 53.492 0.184 7.9 13.79 9.83
5/4/2021 9:00:00 AM 11.96 53.528 0.182 7.91 11.73 9.84
5/4/2021 9:15:00 AM 11.96 53.528 0.191 7.91 12.28 9.86
5/4/2021 9:30:00 AM 11.98 53.564 0.186 7.92 10.22 9.88
5/4/2021 9:45:00 AM 11.99 53.582 0.192 7.92 10.69 9.91
5/4/2021 10:00:00 AM 11.99 53.582 0.193 7.93 11.64 9.92
5/4/2021 10:15:00 AM 12.01 53.618 0.181 7.93 9.5 9.94
5/4/2021 10:30:00 AM 12.02 53.636 0.193 7.95 10.5 9.97
5/4/2021 10:45:00 AM 12.08 53.744 0.192 7.95 8.23 10.05
5/4/2021 11:00:00 AM 12.14 53.852 0.189 7.97 9.64 10.12
5/4/2021 11:15:00 AM 12.19 53.942 0.188 7.98 13.41 10.15
5/4/2021 11:30:00 AM 12.23 54.014 0.199 7.99 11.07 10.19
5/4/2021 11:45:00 AM 12.28 54.104 0.2 8 10.68 10.22
5/4/2021 12:00:00 PM 12.35 54.23 0.191 8.02 8.18 10.26
5/4/2021 12:15:00 PM 12.45 54.41 0.181 8.03 7.72 10.3
5/4/2021 12:30:00 PM 12.47 54.446 0.201 8.04 7.89 10.3
5/4/2021 12:45:00 PM 12.5 54.5 0.198 8.03 7.96 10.28
5/4/2021 1:00:00 PM 12.56 54.608 0.174 8.04 8.37 10.31
5/4/2021 1:15:00 PM 12.64 54.752 0.194 8.05 8.68 10.33
5/4/2021 1:30:00 PM 12.78 55.004 0.184 8.06 8.45 10.39
5/4/2021 1:45:00 PM 12.9 55.22 0.256 8.08 7.57 10.4
5/4/2021 2:00:00 PM 13.07 55.526 0.213 8.1 8.17 10.46
5/4/2021 2:15:00 PM 13.27 55.886 0.2 8.11 9.01 10.48
5/4/2021 2:30:00 PM 13.49 56.282 0.197 8.13 9.09 10.5
5/4/2021 2:45:00 PM 13.59 56.462 0.192 8.13 9.84 10.49
5/4/2021 3:00:00 PM 13.7 56.66 0.21 8.15 7.56 10.49
5/4/2021 3:15:00 PM 13.75 56.75 0.208 8.15 7.69 10.47
5/4/2021 3:30:00 PM 13.85 56.93 0.208 8.15 8.54 10.45
5/4/2021 3:45:00 PM 13.9 57.02 0.211 8.15 8.4 10.4
5/4/2021 4:00:00 PM 13.97 57.146 0.201 8.15 7.86 10.4
5/4/2021 4:15:00 PM 14.13 57.434 0.204 8.15 10.49 10.4
5/4/2021 4:30:00 PM 14.22 57.596 0.21 8.15 8.96 10.37
5/4/2021 4:45:00 PM 14.34 57.812 0.222 8.16 9.8 10.34
5/4/2021 5:00:00 PM 14.37 57.866 0.198 8.15 11.68 10.29
5/4/2021 5:15:00 PM 14.36 57.848 0.217 8.14 9.13 10.18
5/4/2021 5:30:00 PM 14.36 57.848 0.213 8.12 9.4 10.1
5/4/2021 5:45:00 PM 14.36 57.848 0.197 8.11 9.36 10.03
5/4/2021 6:00:00 PM 14.35 57.83 0.218 8.09 9.79 9.95
5/4/2021 6:15:00 PM 14.33 57.794 0.196 8.07 11.28 9.86
5/4/2021 6:30:00 PM 14.32 57.776 0.206 8.06 8.54 9.83
5/4/2021 6:45:00 PM 14.28 57.704 0.198 8.05 8.58 9.78
5/4/2021 7:00:00 PM 14.24 57.632 0.254 8.04 9.4 9.73
5/4/2021 7:15:00 PM 14.21 57.578 0.196 8.03 9.23 9.68
5/4/2021 7:30:00 PM 14.17 57.506 0.195 8.01 10.03 9.63
5/4/2021 7:45:00 PM 14.13 57.434 0.207 7.99 10.19 9.56
5/4/2021 8:00:00 PM 14.09 57.362 0.196 7.97 12.68 9.49
5/4/2021 8:15:00 PM 14.05 57.29 0.189 7.96 26.27 9.44
5/4/2021 8:30:00 PM 14.02 57.236 0.208 7.94 12.41 9.4
5/4/2021 8:45:00 PM 13.98 57.164 0.188 7.93 9.3 9.38
5/4/2021 9:00:00 PM 13.96 57.128 0.195 7.94 11.46 9.36
5/4/2021 9:15:00 PM 13.93 57.074 0.2 7.92 11.89 9.33
5/4/2021 9:30:00 PM 13.91 57.038 0.2 7.92 10.36 9.31
5/4/2021 9:45:00 PM 13.89 57.002 0.206 7.9 10.69 9.29
5/4/2021 10:00:00 PM 13.92 57.056 0.191 7.9 11.1 9.3
5/4/2021 10:15:00 PM 13.9 57.02 0.184 7.9 12.77 9.28
5/4/2021 10:30:00 PM 13.91 57.038 0.251 7.89 14.58 9.26
5/4/2021 10:45:00 PM 13.9 57.02 0.182 7.88 16.41 9.25
5/4/2021 11:00:00 PM 13.89 57.002 0.202 7.88 21.91 9.24
5/4/2021 11:15:00 PM 13.89 57.002 0.196 7.88 23.96 9.22
5/4/2021 11:30:00 PM 13.87 56.966 0.205 7.87 24.34 9.2
5/4/2021 11:45:00 PM 13.85 56.93 0.193 7.86 27.08 9.18
5/5/2021 12:00:00 AM 13.83 56.894 0.185 7.85 29.12 9.16
5/5/2021 12:15:00 AM 13.81 56.858 0.193 7.84 36.23 9.13
5/5/2021 12:30:00 AM 13.81 56.858 0.202 7.82 49.35 9.12
5/5/2021 12:45:00 AM 13.82 56.876 0.191 7.81 55.09 9.09
5/5/2021 1:00:00 AM 13.82 56.876 0.184 7.79 69.45 9.07
5/5/2021 1:15:00 AM 13.81 56.858 0.2 7.8 63.97 9.05
5/5/2021 1:30:00 AM 13.8 56.84 0.203 7.79 68.72 9.04
5/5/2021 1:45:00 AM 13.79 56.822 0.182 7.78 58.14 9.05
5/5/2021 2:00:00 AM 13.78 56.804 0.179 7.78 52.26 9.05
5/5/2021 2:15:00 AM 13.77 56.786 0.187 7.77 40.73 9.06
5/5/2021 2:30:00 AM 13.76 56.768 0.185 7.77 37.92 9.07
5/5/2021 2:45:00 AM 13.75 56.75 0.179 7.76 41.92 9.07
5/5/2021 3:00:00 AM 13.74 56.732 0.169 7.75 39.08 9.07
5/5/2021 3:15:00 AM 13.74 56.732 0.165 7.76 35.26 9.06
5/5/2021 3:30:00 AM 13.75 56.75 0.179 7.75 42.24 9.06
5/5/2021 3:45:00 AM 13.75 56.75 0.183 7.77 38.79 9.06
5/5/2021 4:00:00 AM 13.75 56.75 0.171 7.75 41.88 9.06
5/5/2021 4:15:00 AM 13.75 56.75 0.18 7.76 34.27 9.06
5/5/2021 4:30:00 AM 13.74 56.732 0.162 7.75 27.44 9.06
5/5/2021 4:45:00 AM 13.74 56.732 0.183 7.75 31.16 9.07
5/5/2021 5:00:00 AM 13.73 56.714 0.175 7.75 32.68 9.07
5/5/2021 5:15:00 AM 13.73 56.714 0.183 7.75 49.37 9.08
5/5/2021 5:30:00 AM 13.72 56.696 0.166 7.75 27.15 9.08
5/5/2021 5:45:00 AM 13.7 56.66 0.157 7.76 24.69 9.08
5/5/2021 6:00:00 AM 13.69 56.642 0.176 7.77 21.35 9.08
5/5/2021 6:15:00 AM 13.68 56.624 0.177 7.76 33.45 9.09
5/5/2021 6:30:00 AM 13.67 56.606 0.177 7.75 24.97 9.09
5/5/2021 6:45:00 AM 13.65 56.57 0.164 7.76 21.12 9.1
5/5/2021 7:00:00 AM 13.64 56.552 0.179 7.77 24.73 9.1
5/5/2021 7:15:00 AM 13.62 56.516 0.17 7.76 22.83 9.11
5/5/2021 7:30:00 AM 13.61 56.498 0.162 7.77 22.83 9.12
5/5/2021 7:45:00 AM 13.6 56.48 0.18 7.78 19.17 9.15
5/5/2021 8:00:00 AM 13.57 56.426 0.172 7.78 19.49 9.16
5/5/2021 8:15:00 AM 13.55 56.39 0.163 7.79 17.15 9.17
5/5/2021 8:30:00 AM 13.52 56.336 0.182 7.79 16.1 9.17
5/5/2021 8:45:00 AM 13.5 56.3 0.164 7.79 16.55 9.18
5/5/2021 9:00:00 AM 13.47 56.246 0.183 7.8 16.51 9.2
5/5/2021 9:15:00 AM 13.45 56.21 0.172 7.8 14.27 9.22
5/5/2021 9:30:00 AM 13.42 56.156 0.186 7.8 15.93 9.23
5/5/2021 9:45:00 AM 13.4 56.12 0.181 7.8 13.11 9.27
5/5/2021 10:00:00 AM 13.38 56.084 0.179 7.8 13.7 9.28
5/5/2021 10:15:00 AM 13.36 56.048 0.177 7.81 14.25 9.31
5/5/2021 10:30:00 AM 13.33 55.994 0.177 7.81 13.9 9.31
5/5/2021 10:45:00 AM 13.31 55.958 0.174 7.81 14.1 9.32
5/5/2021 11:00:00 AM 13.28 55.904 0.19 7.81 13.37 9.33
5/5/2021 11:15:00 AM 13.26 55.868 0.179 7.82 12.5 9.35
5/5/2021 11:30:00 AM 13.25 55.85 0.165 7.82 12.25 9.39
5/5/2021 11:45:00 AM 13.23 55.814 0.174 7.83 14.85 9.42
5/5/2021 12:00:00 PM 13.22 55.796 0.178 7.84 12.99 9.45
5/5/2021 12:15:00 PM 13.22 55.796 0.178 7.84 12.99 9.5
5/5/2021 12:30:00 PM 13.21 55.778 0.182 7.84 12.79 9.49
5/5/2021 12:45:00 PM 13.2 55.76 0.166 7.84 12.48 9.5
5/5/2021 1:00:00 PM 13.18 55.724 0.168 7.85 11.47 9.52
5/5/2021 1:15:00 PM 13.16 55.688 0.167 7.85 12.03 9.53
5/5/2021 1:30:00 PM 13.13 55.634 0.187 7.85 11.31 9.55
5/5/2021 1:45:00 PM 13.1 55.58 0.169 7.85 11.38 9.54
5/5/2021 2:00:00 PM 13.08 55.544 0.181 7.86 10.95 9.55
5/5/2021 2:15:00 PM 13.09 55.562 0.182 7.86 11.94 9.6
5/5/2021 2:30:00 PM 13.08 55.544 0.174 7.86 11.33 9.61
5/5/2021 2:45:00 PM 13.08 55.544 0.157 7.86 10.12 9.64
5/5/2021 3:00:00 PM 13.07 55.526 0.179 7.88 10.12 9.65
5/5/2021 3:15:00 PM 13.02 55.436 0.175 7.87 11.68 9.62
5/5/2021 3:30:00 PM 12.99 55.382 0.169 7.86 12.89 9.61
5/5/2021 3:45:00 PM 12.96 55.328 0.161 7.86 19.22 9.59
5/5/2021 4:00:00 PM 12.92 55.256 0.182 7.85 11.33 9.58
5/5/2021 4:15:00 PM 12.89 55.202 0.172 7.86 8.81 9.58
5/5/2021 4:30:00 PM 12.9 55.22 0.169 7.87 11.34 9.63
5/5/2021 4:45:00 PM 12.87 55.166 0.177 7.86 11.14 9.63
5/5/2021 5:00:00 PM 12.84 55.112 0.165 7.85 469.82 9.61
5/5/2021 5:15:00 PM 12.81 55.058 0.153 7.86 11.16 9.61
5/5/2021 5:30:00 PM 12.78 55.004 0.171 7.85 10.82 9.58
5/5/2021 5:45:00 PM 12.74 54.932 0.173 7.85 12.3 9.57
5/5/2021 6:00:00 PM 12.71 54.878 0.175 7.85 11.36 9.56
5/5/2021 6:15:00 PM 12.67 54.806 0.166 7.83 11.38 9.55
5/5/2021 6:30:00 PM 12.63 54.734 0.155 7.83 11.38 9.54
5/5/2021 6:45:00 PM 12.58 54.644 0.171 7.83 11.31 9.53
5/5/2021 7:00:00 PM 12.54 54.572 0.163 7.82 12.46 9.52
5/5/2021 7:15:00 PM 12.49 54.482 0.174 7.82 11.85 9.51
5/5/2021 7:30:00 PM 12.44 54.392 0.16 7.81 11.06 9.5
5/5/2021 7:45:00 PM 12.39 54.302 0.174 7.81 11.89 9.5
5/5/2021 8:00:00 PM 12.34 54.212 0.16 7.8 12.08 9.48
5/5/2021 8:15:00 PM 12.29 54.122 0.169 7.81 13.96 9.48
5/5/2021 8:30:00 PM 12.24 54.032 0.168 7.79 12.64 9.47
5/5/2021 8:45:00 PM 12.19 53.942 0.173 7.79 9.6 9.47
5/5/2021 9:00:00 PM 12.14 53.852 0.176 7.81 12.44 9.47
5/5/2021 9:15:00 PM 12.09 53.762 0.156 7.79 12.55 9.46
5/5/2021 9:30:00 PM 12.04 53.672 0.161 7.78 14.12 9.46
5/5/2021 9:45:00 PM 11.99 53.582 0.165 7.79 13.19 9.47
5/5/2021 10:00:00 PM 11.94 53.492 0.236 7.78 14.12 9.48
5/5/2021 10:15:00 PM 11.9 53.42 0.173 7.78 14.52 9.48
5/5/2021 10:30:00 PM 11.85 53.33 0.159 7.78 14.24 9.48
5/5/2021 10:45:00 PM 11.81 53.258 0.153 7.77 14.26 9.48
5/5/2021 11:00:00 PM 11.77 53.186 0.16 7.77 14.41 9.49
5/5/2021 11:15:00 PM 11.73 53.114 0.165 7.78 14.42 9.5
5/5/2021 11:30:00 PM 11.68 53.024 0.172 7.77 14.4 9.51
5/5/2021 11:45:00 PM 11.64 52.952 0.156 7.77 13.38 9.51
5/6/2021 12:00:00 AM 11.6 52.88 0.164 7.78 14.66 9.52
5/6/2021 12:15:00 AM 11.56 52.808 0.175 7.77 13.74 9.53
5/6/2021 12:30:00 AM 11.51 52.718 0.176 7.77 15.56 9.54
5/6/2021 12:45:00 AM 11.47 52.646 0.151 7.76 14.56 9.55
5/6/2021 1:00:00 AM 11.43 52.574 0.171 7.78 14.09 9.55
5/6/2021 1:15:00 AM 11.39 52.502 0.161 7.76 14.46 9.57
5/6/2021 1:30:00 AM 11.35 52.43 0.159 7.76 15.23 9.58
5/6/2021 1:45:00 AM 11.31 52.358 0.154 7.75 13.18 9.59
5/6/2021 2:00:00 AM 11.27 52.286 0.167 7.76 14.73 9.6
5/6/2021 2:15:00 AM 11.23 52.214 0.167 7.77 13.91 9.61
5/6/2021 2:30:00 AM 11.2 52.16 0.163 7.78 14.23 9.62
5/6/2021 2:45:00 AM 11.16 52.088 0.175 7.77 13.67 9.63
5/6/2021 3:00:00 AM 11.12 52.016 0.173 7.76 14.57 9.64
5/6/2021 3:15:00 AM 11.08 51.944 0.157 7.76 15.14 9.65
5/6/2021 3:30:00 AM 11.03 51.854 0.163 7.77 14.54 9.66
5/6/2021 3:45:00 AM 10.99 51.782 0.152 7.76 14.74 9.67
5/6/2021 4:00:00 AM 10.95 51.71 0.156 7.76 16.9 9.68
5/6/2021 4:15:00 AM 10.9 51.62 0.156 7.75 14.17 9.7
5/6/2021 4:30:00 AM 10.86 51.548 0.158 7.76 13.68 9.7
5/6/2021 4:45:00 AM 10.82 51.476 0.158 7.75 14.3 9.72
5/6/2021 5:00:00 AM 10.77 51.386 0.161 7.75 15.6 9.72
5/6/2021 5:15:00 AM 10.72 51.296 0.167 7.76 14.52 9.74
5/6/2021 5:30:00 AM 10.68 51.224 0.162 7.76 10.74 9.74
5/6/2021 5:45:00 AM 10.64 51.152 0.169 7.76 13.62 9.75
5/6/2021 6:00:00 AM 10.59 51.062 0.156 7.76 13.46 9.77
5/6/2021 6:15:00 AM 10.54 50.972 0.173 7.76 13.22 9.79
5/6/2021 6:30:00 AM 10.49 50.882 0.154 7.76 14.32 9.81
5/6/2021 6:45:00 AM 10.45 50.81 0.165 7.77 13.56 9.81
5/6/2021 7:00:00 AM 10.41 50.738 0.172 7.77 11.92 9.84
5/6/2021 7:15:00 AM 10.38 50.684 0.162 7.77 12.86 9.88
5/6/2021 7:30:00 AM 10.35 50.63 0.154 7.77 12.08 9.9
5/6/2021 7:45:00 AM 10.31 50.558 0.147 7.79 11.71 9.94
5/6/2021 8:00:00 AM 10.29 50.522 0.165 7.78 11.19 9.99
5/6/2021 8:15:00 AM 10.27 50.486 0.148 7.78 12.31 10.03
5/6/2021 8:30:00 AM 10.27 50.486 0.163 7.8 12.63 10.08
5/6/2021 8:45:00 AM 10.28 50.504 0.15 7.8 12.62 10.13
5/6/2021 9:00:00 AM 10.29 50.522 0.15 7.82 10.93 10.18
5/6/2021 9:15:00 AM 10.37 50.666 0.157 7.82 11.27 10.25
5/6/2021 9:30:00 AM 10.37 50.666 0.173 7.83 9.46 10.25
5/6/2021 9:45:00 AM 10.42 50.756 0.153 7.83 10.76 10.31
5/6/2021 10:00:00 AM 10.49 50.882 0.165 7.83 9.87 10.34
5/6/2021 10:15:00 AM 10.57 51.026 0.179 7.85 11.02 10.37
5/6/2021 10:30:00 AM 10.7 51.26 0.177 7.85 10.81 10.4
5/6/2021 10:45:00 AM 10.77 51.386 0.171 7.85 9.85 10.41
5/6/2021 11:00:00 AM 10.9 51.62 0.168 7.86 11.08 10.44
5/6/2021 11:15:00 AM 11.06 51.908 0.17 7.87 9.72 10.46
5/6/2021 11:30:00 AM 11.24 52.232 0.163 7.87 9.68 10.47
5/6/2021 11:45:00 AM 11.41 52.538 0.172 7.88 9.33 10.5
5/6/2021 12:00:00 PM 11.54 52.772 0.159 7.89 9.58 10.49
5/6/2021 12:15:00 PM 11.63 52.934 0.167 7.89 9.38 10.49
5/6/2021 12:30:00 PM 11.8 53.24 0.174 7.91 9.36 10.51
5/6/2021 12:45:00 PM 11.99 53.582 0.184 7.91 10.02 10.51
5/6/2021 1:00:00 PM 12.19 53.942 0.179 7.94 10.92 10.52
5/6/2021 1:15:00 PM 12.37 54.266 0.181 7.94 8.57 10.52
5/6/2021 1:30:00 PM 12.55 54.59 0.183 7.94 9.18 10.51
5/6/2021 1:45:00 PM 12.74 54.932 0.185 7.95 10.04 10.51
5/6/2021 2:00:00 PM 12.89 55.202 0.189 7.96 8.09 10.5
5/6/2021 2:15:00 PM 13.02 55.436 0.187 7.97 8.1 10.49
5/6/2021 2:30:00 PM 13.14 55.652 0.188 7.97 10.46 10.49
5/6/2021 2:45:00 PM 13.23 55.814 0.241 7.97 9.19 10.47
5/6/2021 3:00:00 PM 13.33 55.994 0.19 7.98 9.65 10.46
5/6/2021 3:15:00 PM 13.42 56.156 0.196 7.98 9.21 10.44
5/6/2021 3:30:00 PM 13.49 56.282 0.186 7.98 9.83 10.41
5/6/2021 3:45:00 PM 13.55 56.39 0.243 7.98 10.22 10.38
5/6/2021 4:00:00 PM 13.6 56.48 0.186 7.98 8.71 10.37
5/6/2021 4:15:00 PM 13.62 56.516 0.2 7.99 9.65 10.34
5/6/2021 4:30:00 PM 13.63 56.534 0.18 7.98 10.44 10.31
5/6/2021 4:45:00 PM 13.63 56.534 0.197 7.99 9.78 10.28
5/6/2021 5:00:00 PM 13.62 56.516 0.195 7.99 9.62 10.24
5/6/2021 5:15:00 PM 13.58 56.444 0.171 7.97 8.43 10.2
5/6/2021 5:30:00 PM 13.5 56.3 0.189 7.97 10.62 10.16
5/6/2021 5:45:00 PM 13.4 56.12 0.18 7.96 10.01 10.11
5/6/2021 6:00:00 PM 13.31 55.958 0.183 7.94 8.35 10.07
5/6/2021 6:15:00 PM 13.22 55.796 0.181 7.94 8.35 10.03
5/6/2021 6:30:00 PM 13.12 55.616 0.185 7.93 9.31 9.99
5/6/2021 6:45:00 PM 13.05 55.49 0.19 7.92 10.25 9.96
5/6/2021 7:00:00 PM 12.96 55.328 0.241 7.91 8.52 9.92
5/6/2021 7:15:00 PM 12.88 55.184 0.181 7.91 9.02 9.9
5/6/2021 7:30:00 PM 12.79 55.022 0.173 7.89 10.17 9.85
5/6/2021 7:45:00 PM 12.7 54.86 0.17 7.88 13.2 9.82
5/6/2021 8:00:00 PM 12.61 54.698 0.169 7.87 9.07 9.78
5/6/2021 8:15:00 PM 12.52 54.536 0.164 7.86 9.27 9.76
5/6/2021 8:30:00 PM 12.43 54.374 0.182 7.85 10.71 9.74
5/6/2021 8:45:00 PM 12.35 54.23 0.166 7.85 10.76 9.72
5/6/2021 9:00:00 PM 12.27 54.086 0.188 7.85 13.13 9.7
5/6/2021 9:15:00 PM 12.2 53.96 0.241 7.83 11.47 9.69
5/6/2021 9:30:00 PM 12.13 53.834 0.173 7.84 11.54 9.68
5/6/2021 9:45:00 PM 12.07 53.726 0.175 7.82 10.72 9.68
5/6/2021 10:00:00 PM 12.01 53.618 0.175 7.82 10.45 9.67
5/6/2021 10:15:00 PM 11.95 53.51 0.173 7.82 10.4 9.66
5/6/2021 10:30:00 PM 11.9 53.42 0.17 7.81 10.16 9.67
5/6/2021 10:45:00 PM 11.86 53.348 0.171 7.82 10.73 9.66
5/6/2021 11:00:00 PM 11.81 53.258 0.175 7.81 11.24 9.66
5/6/2021 11:15:00 PM 11.76 53.168 0.166 7.81 10.84 9.66
5/6/2021 11:30:00 PM 11.72 53.096 0.17 7.8 12.78 9.67
5/6/2021 11:45:00 PM 11.68 53.024 0.244 7.81 11.75 9.67
5/7/2021 12:00:00 AM 11.63 52.934 0.183 7.8 13.63 9.68
5/7/2021 12:15:00 AM 11.59 52.862 0.18 7.82 10.82 9.68
5/7/2021 12:30:00 AM 11.55 52.79 0.173 7.8 11.28 9.69
5/7/2021 12:45:00 AM 11.51 52.718 0.174 7.82 14.39 9.69
5/7/2021 1:00:00 AM 11.47 52.646 0.168 7.8 10.9 9.7
5/7/2021 1:15:00 AM 11.43 52.574 0.174 7.8 11.13 9.71
5/7/2021 1:30:00 AM 11.39 52.502 0.178 7.81 12.02 9.72
5/7/2021 1:45:00 AM 11.34 52.412 0.17 7.8 10.97 9.73
5/7/2021 2:00:00 AM 11.29 52.322 0.173 7.81 12.85 9.74
5/7/2021 2:15:00 AM 11.24 52.232 0.166 7.8 11.5 9.75
5/7/2021 2:30:00 AM 11.19 52.142 0.178 7.8 12.01 9.77
5/7/2021 2:45:00 AM 11.13 52.034 0.165 7.8 12.56 9.78
5/7/2021 3:00:00 AM 11.08 51.944 0.168 7.8 17.28 9.79
5/7/2021 3:15:00 AM 11.03 51.854 0.168 7.8 11.7 9.8
5/7/2021 3:30:00 AM 10.98 51.764 0.165 7.8 12.31 9.81
5/7/2021 3:45:00 AM 10.92 51.656 0.181 7.8 11.26 9.82
5/7/2021 4:00:00 AM 10.86 51.548 0.157 7.81 14.4 9.84
5/7/2021 4:15:00 AM 10.81 51.458 0.172 7.8 10.82 9.85
5/7/2021 4:30:00 AM 10.75 51.35 0.185 7.81 11.11 9.87
5/7/2021 4:45:00 AM 10.69 51.242 0.168 7.81 14.69 9.88
5/7/2021 5:00:00 AM 10.62 51.116 0.171 7.8 12.53 9.87
5/7/2021 5:15:00 AM 10.56 51.008 0.16 7.79 12.39 9.91
5/7/2021 5:30:00 AM 10.5 50.9 0.186 7.8 11.83 9.93
5/7/2021 5:45:00 AM 10.44 50.792 0.173 7.81 12.09 9.94
5/7/2021 6:00:00 AM 10.38 50.684 0.156 7.81 14.82 9.95
5/7/2021 6:15:00 AM 10.31 50.558 0.245 7.8 13.33 9.98
5/7/2021 6:30:00 AM 10.25 50.45 0.169 7.8 11.46 10
5/7/2021 6:45:00 AM 10.19 50.342 0.173 7.81 10.99 10.04
5/7/2021 7:00:00 AM 10.13 50.234 0.175 7.81 10.1 10.07
5/7/2021 7:15:00 AM 10.08 50.144 0.175 7.81 10.74 10.11
5/7/2021 7:30:00 AM 10.04 50.072 0.164 7.82 10.4 10.15
5/7/2021 7:45:00 AM 10 50 0.17 7.82 12.84 10.2
5/7/2021 8:00:00 AM 9.98 49.964 0.171 7.82 11.5 10.25
5/7/2021 8:15:00 AM 9.97 49.946 0.171 7.84 11 10.3
5/7/2021 8:30:00 AM 9.98 49.964 0.169 7.84 9.87 10.36
5/7/2021 8:45:00 AM 10 50 0.172 7.86 9.16 10.41
5/7/2021 9:00:00 AM 10.04 50.072 0.17 7.85 9.67 10.46
5/7/2021 9:15:00 AM 10.1 50.18 0.172 7.86 8.56 10.51
5/7/2021 9:30:00 AM 10.16 50.288 0.166 7.88 8.88 10.56
5/7/2021 9:45:00 AM 10.24 50.432 0.16 7.89 8.54 10.6
5/7/2021 10:00:00 AM 10.32 50.576 0.186 7.91 7.96 10.66
5/7/2021 10:15:00 AM 10.38 50.684 0.166 7.91 7.98 10.68
5/7/2021 10:30:00 AM 10.52 50.936 0.247 7.93 7.64 10.75
5/7/2021 10:45:00 AM 10.66 51.188 0.188 7.96 7.69 10.77
5/7/2021 11:00:00 AM 10.78 51.404 0.182 7.96 7.21 10.79
5/7/2021 11:15:00 AM 10.92 51.656 0.182 7.95 6.98 10.8
5/7/2021 11:30:00 AM 11.08 51.944 0.179 7.95 10.31 10.8
5/7/2021 11:45:00 AM 11.24 52.232 0.179 7.95 7.49 10.82
5/7/2021 12:00:00 PM 11.44 52.592 0.17 7.96 7.41 10.83
5/7/2021 12:15:00 PM 11.59 52.862 0.189 7.99 7.81 10.84
5/7/2021 12:30:00 PM 11.68 53.024 0.176 7.99 7.43 10.82
5/7/2021 12:45:00 PM 11.78 53.204 0.19 8.02 7.29 10.83
5/7/2021 1:00:00 PM 11.84 53.312 0.196 8.03 7.63 10.83
5/7/2021 1:15:00 PM 11.91 53.438 0.179 8.02 7.49 10.83
5/7/2021 1:30:00 PM 11.99 53.582 0.193 8.05 8.02 10.82
5/7/2021 1:45:00 PM 12.04 53.672 0.192 8.06 11.38 10.82
5/7/2021 2:00:00 PM 12.12 53.816 0.195 8.05 7.92 10.82
5/7/2021 2:15:00 PM 12.19 53.942 0.19 8.04 7.12 10.81
5/7/2021 2:30:00 PM 12.2 53.96 0.248 8.04 7.19 10.78
5/7/2021 2:45:00 PM 12.2 53.96 0.186 8.04 6.96 10.75
5/7/2021 3:00:00 PM 12.18 53.924 0.181 8.05 6.36 10.71
5/7/2021 3:15:00 PM 12.14 53.852 0.184 8.04 7.33 10.65
5/7/2021 3:30:00 PM 12.09 53.762 0.183 8.04 6.41 10.6
5/7/2021 3:45:00 PM 12.06 53.708 0.188 8.03 6.36 10.59
5/7/2021 4:00:00 PM 12.05 53.69 0.194 8.04 8.75 10.61
5/7/2021 4:15:00 PM 12.04 53.672 0.179 8.04 8.19 10.61
5/7/2021 4:30:00 PM 11.99 53.582 0.176 8.04 7.09 10.58
5/7/2021 4:45:00 PM 11.92 53.456 0.188 8.04 7.23 10.53
5/7/2021 5:00:00 PM 11.88 53.384 0.187 8.02 6.88 10.5
5/7/2021 5:15:00 PM 11.84 53.312 0.179 8.01 6.33 10.48
5/7/2021 5:30:00 PM 11.79 53.222 0.191 8.02 7.03 10.46
5/7/2021 5:45:00 PM 11.74 53.132 0.183 8 6.49 10.45
5/7/2021 6:00:00 PM 11.69 53.042 0.183 8 8.17 10.41
5/7/2021 6:15:00 PM 11.64 52.952 0.18 8 7.44 10.42
5/7/2021 6:30:00 PM 11.58 52.844 0.177 7.99 7.09 10.42
5/7/2021 6:45:00 PM 11.52 52.736 0.172 7.99 7.26 10.41
5/7/2021 7:00:00 PM 11.46 52.628 0.168 7.99 6.82 10.41
5/7/2021 7:15:00 PM 11.4 52.52 0.181 7.98 7.26 10.38
5/7/2021 7:30:00 PM 11.35 52.43 0.182 7.97 7.36 10.35
5/7/2021 7:45:00 PM 11.29 52.322 0.179 7.96 8.32 10.3
5/7/2021 8:00:00 PM 11.23 52.214 0.187 7.95 6.7 10.25
5/7/2021 8:15:00 PM 11.17 52.106 0.187 7.94 7.33 10.21
5/7/2021 8:30:00 PM 11.12 52.016 0.192 7.93 7.17 10.18
5/7/2021 8:45:00 PM 11.08 51.944 0.169 7.93 8.06 10.14
5/7/2021 9:00:00 PM 11.03 51.854 0.178 7.92 40.29 10.12
5/7/2021 9:15:00 PM 10.99 51.782 0.181 7.91 9.46 10.1
5/7/2021 9:30:00 PM 10.94 51.692 0.187 7.9 8.56 10.08
5/7/2021 9:45:00 PM 10.9 51.62 0.172 7.9 7.89 10.07
5/7/2021 10:00:00 PM 10.86 51.548 0.185 7.9 8.52 10.06
5/7/2021 10:15:00 PM 10.83 51.494 0.187 7.89 8.28 10.05
5/7/2021 10:30:00 PM 10.79 51.422 0.176 7.89 8.73 10.04
5/7/2021 10:45:00 PM 10.76 51.368 0.181 7.89 8 10.04
5/7/2021 11:00:00 PM 10.74 51.332 0.18 7.88 8.32 10.03
5/7/2021 11:15:00 PM 10.73 51.314 0.186 7.88 8.13 10.03
5/7/2021 11:30:00 PM 10.71 51.278 0.185 7.88 9.33 10.03
5/7/2021 11:45:00 PM 10.69 51.242 0.188 7.88 10.21 10.03
5/8/2021 12:00:00 AM 10.67 51.206 0.181 7.87 8.35 10.02
5/8/2021 12:15:00 AM 10.65 51.17 0.184 7.88 8.47 10.03
5/8/2021 12:30:00 AM 10.63 51.134 0.186 7.87 8.65 10.02
5/8/2021 12:45:00 AM 10.62 51.116 0.186 7.87 8.45 10.03
5/8/2021 1:00:00 AM 10.62 51.116 0.173 7.87 8.72 10.03
5/8/2021 1:15:00 AM 10.6 51.08 0.165 7.87 7.82 10.01
5/8/2021 1:30:00 AM 10.59 51.062 0.184 7.88 8.83 10.02
5/8/2021 1:45:00 AM 10.58 51.044 0.171 7.88 8.71 10.02
5/8/2021 2:00:00 AM 10.58 51.044 0.191 7.87 8.98 10.02
5/8/2021 2:15:00 AM 10.56 51.008 0.178 7.88 8.9 10.02
5/8/2021 2:30:00 AM 10.55 50.99 0.188 7.88 8.71 10.03
5/8/2021 2:45:00 AM 10.54 50.972 0.185 7.87 9.31 10.03
5/8/2021 3:00:00 AM 10.53 50.954 0.175 7.87 11.49 10.03
5/8/2021 3:15:00 AM 10.51 50.918 0.18 7.87 9.99 10.03
5/8/2021 3:30:00 AM 10.49 50.882 0.252 7.87 9.33 10.04
5/8/2021 3:45:00 AM 10.48 50.864 0.189 7.87 8.51 10.04
5/8/2021 4:00:00 AM 10.47 50.846 0.175 7.87 9.32 10.04
5/8/2021 4:15:00 AM 10.45 50.81 0.243 7.88 9.22 10.05
5/8/2021 4:30:00 AM 10.44 50.792 0.172 7.87 9.39 10.05
5/8/2021 4:45:00 AM 10.41 50.738 0.193 7.87 8.86 10.06
5/8/2021 5:00:00 AM 10.39 50.702 0.164 7.87 11.43 10.06
5/8/2021 5:15:00 AM 10.36 50.648 0.18 7.87 10.25 10.07
5/8/2021 5:30:00 AM 10.34 50.612 0.177 7.87 9.68 10.07
5/8/2021 5:45:00 AM 10.3 50.54 0.178 7.87 9.34 10.09
5/8/2021 6:00:00 AM 10.27 50.486 0.187 7.87 8.95 10.1
5/8/2021 6:15:00 AM 10.23 50.414 0.189 7.88 9.64 10.11
5/8/2021 6:30:00 AM 10.2 50.36 0.172 7.88 10.19 10.12
5/8/2021 6:45:00 AM 10.16 50.288 0.186 7.88 8.83 10.15
5/8/2021 7:00:00 AM 10.12 50.216 0.187 7.88 8.62 10.16
5/8/2021 7:15:00 AM 10.08 50.144 0.197 7.89 8.61 10.19
5/8/2021 7:30:00 AM 10.04 50.072 0.186 7.88 8.14 10.21
5/8/2021 7:45:00 AM 10 50 0.181 7.88 9.13 10.25
5/8/2021 8:00:00 AM 9.96 49.928 0.171 7.89 8.42 10.3
5/8/2021 8:15:00 AM 9.92 49.856 0.251 7.9 8.35 10.36
5/8/2021 8:30:00 AM 9.89 49.802 0.187 7.91 7.59 10.42
5/8/2021 8:45:00 AM 9.87 49.766 0.179 7.92 7.04 10.46
5/8/2021 9:00:00 AM 9.84 49.712 0.19 7.93 6.87 10.51
5/8/2021 9:15:00 AM 9.81 49.658 0.193 7.93 6.83 10.55
5/8/2021 9:30:00 AM 9.8 49.64 0.192 7.94 7.38 10.6
5/8/2021 9:45:00 AM 9.81 49.658 0.184 7.95 6.86 10.68
5/8/2021 10:00:00 AM 9.82 49.676 0.186 7.97 6.93 10.75
5/8/2021 10:15:00 AM 9.84 49.712 0.189 7.97 6.6 10.81
5/8/2021 10:30:00 AM 9.88 49.784 0.173 7.99 6.76 10.87
5/8/2021 10:45:00 AM 9.89 49.802 0.25 7.99 6.75 10.9
5/8/2021 11:00:00 AM 9.87 49.766 0.19 7.99 6.92 10.92
5/8/2021 11:15:00 AM 9.84 49.712 0.178 7.98 7.22 10.9
5/8/2021 11:30:00 AM 9.82 49.676 0.19 7.99 6.04 10.92
5/8/2021 11:45:00 AM 9.81 49.658 0.169 8.01 6.45 10.93
5/8/2021 12:00:00 PM 9.81 49.658 0.183 8.02 6.43 10.95
5/8/2021 12:15:00 PM 9.8 49.64 0.185 8.01 6.35 10.96
5/8/2021 12:30:00 PM 9.78 49.604 0.176 8 6.42 10.97
5/8/2021 12:45:00 PM 9.78 49.604 0.177 8 6.91 11
5/8/2021 1:00:00 PM 9.78 49.604 0.181 8.01 6.73 11.02
5/8/2021 1:15:00 PM 9.79 49.622 0.183 8.02 6.7 11.06
5/8/2021 1:30:00 PM 9.8 49.64 0.181 8.04 6.19 11.09
5/8/2021 1:45:00 PM 9.81 49.658 0.182 8.03 6.18 11.11
5/8/2021 2:00:00 PM 9.8 49.64 0.178 8.05 6.41 11.12
5/8/2021 2:15:00 PM 9.81 49.658 0.172 8.04 5.97 11.14
5/8/2021 2:30:00 PM 9.81 49.658 0.175 8.04 5.73 11.14
5/8/2021 2:45:00 PM 9.82 49.676 0.171 8.05 6.64 11.14
5/8/2021 3:00:00 PM 9.84 49.712 0.173 8.06 5.89 11.15
5/8/2021 3:15:00 PM 9.84 49.712 0.17 8.06 5.88 11.12
5/8/2021 3:30:00 PM 9.82 49.676 0.179 8.05 6.12 11.08
5/8/2021 3:45:00 PM 9.81 49.658 0.174 8.04 6.93 11.05
5/8/2021 4:00:00 PM 9.77 49.586 0.176 8.03 5.98 10.98
5/8/2021 4:15:00 PM 9.75 49.55 0.175 8.03 6.2 10.99
5/8/2021 4:30:00 PM 9.71 49.478 0.174 8.01 6.34 10.95
5/8/2021 4:45:00 PM 9.68 49.424 0.176 8.02 6.89 10.95
5/8/2021 5:00:00 PM 9.67 49.406 0.171 8.01 5.83 10.95
5/8/2021 5:15:00 PM 9.66 49.388 0.172 8 6.5 10.95
5/8/2021 5:30:00 PM 9.63 49.334 0.189 8 6.28 10.92
5/8/2021 5:45:00 PM 9.63 49.334 0.174 8 6.44 10.94
5/8/2021 6:00:00 PM 9.61 49.298 0.189 8 7.29 10.92
5/8/2021 6:15:00 PM 9.59 49.262 0.178 8.01 7.03 10.88
5/8/2021 6:30:00 PM 9.55 49.19 0.181 7.99 6.06 10.85
5/8/2021 6:45:00 PM 9.52 49.136 0.174 7.97 6.54 10.81
5/8/2021 7:00:00 PM 9.49 49.082 0.163 7.96 7.18 10.78
5/8/2021 7:15:00 PM 9.46 49.028 0.18 7.96 6.69 10.76
5/8/2021 7:30:00 PM 9.43 48.974 0.171 7.95 6.45 10.73
5/8/2021 7:45:00 PM 9.39 48.902 0.176 7.94 8.11 10.7
5/8/2021 8:00:00 PM 9.36 48.848 0.24 7.92 7.81 10.67
5/8/2021 8:15:00 PM 9.33 48.794 0.174 7.92 7.38 10.65
5/8/2021 8:30:00 PM 9.3 48.74 0.163 7.91 6.77 10.64
5/8/2021 8:45:00 PM 9.27 48.686 0.156 7.91 8.29 10.62
5/8/2021 9:00:00 PM 9.23 48.614 0.163 7.9 7.22 10.61
5/8/2021 9:15:00 PM 9.2 48.56 0.239 7.9 9.35 10.6
5/8/2021 9:30:00 PM 9.17 48.506 0.17 7.89 9.21 10.59
5/8/2021 9:45:00 PM 9.14 48.452 0.182 7.9 8.94 10.59
5/8/2021 10:00:00 PM 9.11 48.398 0.172 7.88 7.75 10.58
5/8/2021 10:15:00 PM 9.07 48.326 0.18 7.89 8.27 10.59
5/8/2021 10:30:00 PM 9.04 48.272 0.174 7.88 8.36 10.58
5/8/2021 10:45:00 PM 9 48.2 0.232 7.87 7.06 10.59
5/8/2021 11:00:00 PM 8.98 48.164 0.24 7.88 8.53 10.59
5/8/2021 11:15:00 PM 8.95 48.11 0.185 7.87 7.95 10.59
5/8/2021 11:30:00 PM 8.93 48.074 0.171 7.87 8.11 10.59
5/8/2021 11:45:00 PM 8.89 48.002 0.184 7.88 8.63 10.6
5/9/2021 12:00:00 AM 8.86 47.948 0.182 7.87 9.68 10.6
5/9/2021 12:15:00 AM 8.82 47.876 0.17 7.86 8.56 10.61
5/9/2021 12:30:00 AM 8.79 47.822 0.163 7.86 8.29 10.61
5/9/2021 12:45:00 AM 8.75 47.75 0.173 7.85 8.82 10.62
5/9/2021 1:00:00 AM 8.71 47.678 0.183 7.86 8.34 10.63
5/9/2021 1:15:00 AM 8.66 47.588 0.168 7.86 8.28 10.64
5/9/2021 1:30:00 AM 8.61 47.498 0.176 7.87 8.67 10.65
5/9/2021 1:45:00 AM 8.56 47.408 0.18 7.86 8.19 10.67
5/9/2021 2:00:00 AM 8.52 47.336 0.165 7.85 8.97 10.67
5/9/2021 2:15:00 AM 8.47 47.246 0.165 7.86 8.4 10.69
5/9/2021 2:30:00 AM 8.42 47.156 0.172 7.86 8.28 10.69
5/9/2021 2:45:00 AM 8.38 47.084 0.178 7.85 8.55 10.71
5/9/2021 3:00:00 AM 8.33 46.994 0.187 7.86 8.72 10.72
5/9/2021 3:15:00 AM 8.29 46.922 0.181 7.86 8.55 10.73
5/9/2021 3:30:00 AM 8.24 46.832 0.175 7.85 8.13 10.74
5/9/2021 3:45:00 AM 8.2 46.76 0.171 7.85 8 10.76
5/9/2021 4:00:00 AM 8.15 46.67 0.166 7.85 9.19 10.77
5/9/2021 4:15:00 AM 8.11 46.598 0.238 7.85 8.53 10.78
5/9/2021 4:30:00 AM 8.06 46.508 0.169 7.85 7.96 10.79
5/9/2021 4:45:00 AM 8.02 46.436 0.161 7.84 8.26 10.81
5/9/2021 5:00:00 AM 7.97 46.346 0.172 7.85 8.3 10.82
5/9/2021 5:15:00 AM 7.93 46.274 0.169 7.85 7.99 10.82
5/9/2021 5:30:00 AM 7.88 46.184 0.173 7.87 8.17 10.84
5/9/2021 5:45:00 AM 7.83 46.094 0.169 7.84 8.32 10.85
5/9/2021 6:00:00 AM 7.79 46.022 0.182 7.85 8.15 10.86
5/9/2021 6:15:00 AM 7.76 45.968 0.174 7.85 8.15 10.89
5/9/2021 6:30:00 AM 7.73 45.914 0.166 7.86 8.35 10.91
5/9/2021 6:45:00 AM 7.71 45.878 0.165 7.86 8.06 10.94
5/9/2021 7:00:00 AM 7.68 45.824 0.178 7.86 7.26 10.97
5/9/2021 7:15:00 AM 7.66 45.788 0.183 7.87 8.01 11.01
5/9/2021 7:30:00 AM 7.65 45.77 0.17 7.87 7.24 11.04
5/9/2021 7:45:00 AM 7.65 45.77 0.168 7.88 7.45 11.08
5/9/2021 8:00:00 AM 7.66 45.788 0.179 7.89 7.14 11.12
5/9/2021 8:15:00 AM 7.7 45.86 0.173 7.89 6.52 11.17
5/9/2021 8:30:00 AM 7.74 45.932 0.175 7.9 6.69 11.21
5/9/2021 8:45:00 AM 7.81 46.058 0.178 7.9 6.74 11.25
5/9/2021 9:00:00 AM 7.89 46.202 0.175 7.92 6.57 11.29
5/9/2021 9:15:00 AM 7.98 46.364 0.176 7.93 6.74 11.33
5/9/2021 9:30:00 AM 8.08 46.544 0.163 7.93 6.29 11.36
5/9/2021 9:45:00 AM 8.19 46.742 0.175 7.95 6.33 11.39
5/9/2021 10:00:00 AM 8.35 47.03 0.178 7.95 6.19 11.41
5/9/2021 10:15:00 AM 8.5 47.3 0.178 7.96 6.47 11.43
5/9/2021 10:30:00 AM 8.68 47.624 0.178 7.97 6.28 11.44
5/9/2021 10:45:00 AM 8.82 47.876 0.178 7.98 5.6 11.45
5/9/2021 11:00:00 AM 8.97 48.146 0.168 7.99 5.86 11.45
5/9/2021 11:15:00 AM 9.22 48.596 0.167 8 5.7 11.47
5/9/2021 11:30:00 AM 9.41 48.938 0.178 8.01 5.57 11.48
5/9/2021 11:45:00 AM 9.55 49.19 0.183 8.03 5.59 11.48
5/9/2021 12:00:00 PM 9.52 49.136 0.177 8.02 5.64 11.43
5/9/2021 12:15:00 PM 9.61 49.298 0.193 8.03 5.6 11.44
5/9/2021 12:30:00 PM 9.66 49.388 0.182 8.02 5.74 11.4
5/9/2021 12:45:00 PM 9.73 49.514 0.181 8.04 6.19 11.41
5/9/2021 1:00:00 PM 9.77 49.586 0.181 8.03 5.68 11.4
5/9/2021 1:15:00 PM 9.81 49.658 0.185 8.04 5.86 11.39
5/9/2021 1:30:00 PM 9.86 49.748 0.188 8.05 6.8 11.39
5/9/2021 1:45:00 PM 9.9 49.82 0.24 8.05 6.66 11.37
5/9/2021 2:00:00 PM 9.94 49.892 0.243 8.06 5.72 11.35
5/9/2021 2:15:00 PM 10 50 0.228 8.06 5.52 11.35
5/9/2021 2:30:00 PM 10.06 50.108 0.176 8.06 5.83 11.35
5/9/2021 2:45:00 PM 10.12 50.216 0.243 8.06 5.41 11.34
5/9/2021 3:00:00 PM 10.15 50.27 0.175 8.06 6.09 11.33
5/9/2021 3:15:00 PM 10.15 50.27 0.176 8.06 5.78 11.3
5/9/2021 3:30:00 PM 10.17 50.306 0.182 8.06 7.04 11.29
5/9/2021 3:45:00 PM 10.16 50.288 0.189 8.06 5.9 11.26
5/9/2021 4:00:00 PM 10.14 50.252 0.168 8.05 5.72 11.21
5/9/2021 4:15:00 PM 10.12 50.216 0.185 8.05 5.81 11.17
5/9/2021 4:30:00 PM 10.07 50.126 0.172 8.03 6.07 11.12
5/9/2021 4:45:00 PM 10.04 50.072 0.18 8.02 5.67 11.11
5/9/2021 5:00:00 PM 10.01 50.018 0.182 8.03 6.07 11.08
5/9/2021 5:15:00 PM 9.97 49.946 0.189 8.02 5.92 11.05
5/9/2021 5:30:00 PM 9.93 49.874 0.179 8.02 6.04 11.02
5/9/2021 5:45:00 PM 9.89 49.802 0.18 8 6.04 10.99
5/9/2021 6:00:00 PM 9.85 49.73 0.189 7.99 5.59 10.96
5/9/2021 6:15:00 PM 9.81 49.658 0.187 7.98 5.57 10.91
5/9/2021 6:30:00 PM 9.76 49.568 0.177 7.96 6.81 10.87
5/9/2021 6:45:00 PM 9.72 49.496 0.179 7.96 6.38 10.83
5/9/2021 7:00:00 PM 9.69 49.442 0.171 7.95 5.98 10.8
5/9/2021 7:15:00 PM 9.66 49.388 0.179 7.95 6.92 10.76
5/9/2021 7:30:00 PM 9.63 49.334 0.182 7.93 5.62 10.72
5/9/2021 7:45:00 PM 9.6 49.28 0.183 7.93 5.94 10.68
5/9/2021 8:00:00 PM 9.58 49.244 0.172 7.91 5.93 10.65
5/9/2021 8:15:00 PM 9.55 49.19 0.172 7.9 6.68 10.62
5/9/2021 8:30:00 PM 9.53 49.154 0.174 7.9 6.09 10.59
5/9/2021 8:45:00 PM 9.52 49.136 0.181 7.9 6.51 10.56
5/9/2021 9:00:00 PM 9.51 49.118 0.169 7.88 7.1 10.54
5/9/2021 9:15:00 PM 9.5 49.1 0.179 7.89 9.92 10.52
5/9/2021 9:30:00 PM 9.49 49.082 0.185 7.88 7.27 10.5
5/9/2021 9:45:00 PM 9.48 49.064 0.189 7.88 7.49 10.49
5/9/2021 10:00:00 PM 9.48 49.064 0.167 7.87 7.52 10.47
5/9/2021 10:15:00 PM 9.48 49.064 0.176 7.87 7.7 10.46
5/9/2021 10:30:00 PM 9.48 49.064 0.188 7.86 7.9 10.45
5/9/2021 10:45:00 PM 9.49 49.082 0.175 7.86 7.92 10.44
5/9/2021 11:00:00 PM 9.49 49.082 0.186 7.86 7.85 10.43
5/9/2021 11:15:00 PM 9.5 49.1 0.166 7.87 8.38 10.43
5/9/2021 11:30:00 PM 9.5 49.1 0.189 7.87 7.85 10.42
5/9/2021 11:45:00 PM 9.5 49.1 0.17 7.86 7.72 10.41
5/10/2021 12:00:00 AM 9.51 49.118 0.166 7.86 7.99 10.4
5/10/2021 12:15:00 AM 9.51 49.118 0.187 7.86 7.98 10.4
5/10/2021 12:30:00 AM 9.51 49.118 0.175 7.86 8.93 10.39
5/10/2021 12:45:00 AM 9.51 49.118 0.192 7.86 8.6 10.39
5/10/2021 1:00:00 AM 9.51 49.118 0.178 7.86 8.19 10.39
5/10/2021 1:15:00 AM 9.51 49.118 0.179 7.86 9.01 10.39
5/10/2021 1:30:00 AM 9.51 49.118 0.177 7.85 9.29 10.38
5/10/2021 1:45:00 AM 9.51 49.118 0.185 7.85 10.16 10.39
5/10/2021 2:00:00 AM 9.51 49.118 0.181 7.84 9.17 10.39
5/10/2021 2:15:00 AM 9.5 49.1 0.182 7.85 9.56 10.39
5/10/2021 2:30:00 AM 9.49 49.082 0.181 7.85 9.61 10.38
5/10/2021 2:45:00 AM 9.48 49.064 0.171 7.84 9.63 10.39
5/10/2021 3:00:00 AM 9.47 49.046 0.169 7.85 9.9 10.38
5/10/2021 3:15:00 AM 9.45 49.01 0.183 7.85 9.44 10.39
5/10/2021 3:30:00 AM 9.44 48.992 0.177 7.85 9.62 10.39
5/10/2021 3:45:00 AM 9.42 48.956 0.165 7.85 9.83 10.39
5/10/2021 4:00:00 AM 9.4 48.92 0.179 7.85 10.83 10.4
5/10/2021 4:15:00 AM 9.38 48.884 0.167 7.84 9.62 10.4
5/10/2021 4:30:00 AM 9.36 48.848 0.169 7.84 10.13 10.4
5/10/2021 4:45:00 AM 9.34 48.812 0.174 7.84 9.65 10.4
5/10/2021 5:00:00 AM 9.31 48.758 0.177 7.84 10.29 10.41
5/10/2021 5:15:00 AM 9.29 48.722 0.186 7.84 13.2 10.42
5/10/2021 5:30:00 AM 9.26 48.668 0.184 7.84 10.62 10.43
5/10/2021 5:45:00 AM 9.23 48.614 0.173 7.84 10.97 10.43
5/10/2021 6:00:00 AM 9.2 48.56 0.164 7.83 10.09 10.43
5/10/2021 6:15:00 AM 9.17 48.506 0.239 7.84 10.05 10.44
5/10/2021 6:30:00 AM 9.14 48.452 0.171 7.83 10.58 10.46
5/10/2021 6:45:00 AM 9.11 48.398 0.168 7.84 9.45 10.48
5/10/2021 7:00:00 AM 9.09 48.362 0.238 7.84 9.9 10.5
5/10/2021 7:15:00 AM 9.07 48.326 0.187 7.84 9.35 10.54
5/10/2021 7:30:00 AM 9.06 48.308 0.169 7.86 9.21 10.55
5/10/2021 7:45:00 AM 9.05 48.29 0.18 7.85 9.35 10.59
5/10/2021 8:00:00 AM 9.05 48.29 0.17 7.86 7.07 10.64
5/10/2021 8:15:00 AM 9.03 48.254 0.173 7.86 8.81 10.65
5/10/2021 8:30:00 AM 9.01 48.218 0.169 7.86 7.77 10.66
5/10/2021 8:45:00 AM 8.98 48.164 0.175 7.87 8.03 10.65
5/10/2021 9:00:00 AM 8.96 48.128 0.173 7.86 7.56 10.66
5/10/2021 9:15:00 AM 8.95 48.11 0.17 7.86 7.13 10.69
5/10/2021 9:30:00 AM 8.94 48.092 0.17 7.87 6.8 10.72
5/10/2021 9:45:00 AM 8.94 48.092 0.176 7.87 6.49 10.77
5/10/2021 10:00:00 AM 8.97 48.146 0.186 7.9 7.1 10.84
5/10/2021 10:15:00 AM 8.99 48.182 0.173 7.89 6.69 10.88
5/10/2021 10:30:00 AM 9.01 48.218 0.18 7.9 6.75 10.93
5/10/2021 10:45:00 AM 9.03 48.254 0.177 7.92 6.25 10.97
5/10/2021 11:00:00 AM 9.06 48.308 0.184 7.93 5.98 11
5/10/2021 11:15:00 AM 9.09 48.362 0.177 7.94 6.2 11.02
5/10/2021 11:30:00 AM 9.11 48.398 0.17 7.94 5.66 11.06
5/10/2021 11:45:00 AM 9.12 48.416 0.184 7.96 5.87 11.06
5/10/2021 12:00:00 PM 9.14 48.452 0.163 7.95 5.66 11.07
5/10/2021 12:15:00 PM 9.16 48.488 0.169 7.96 5.53 11.07
5/10/2021 12:30:00 PM 9.21 48.578 0.16 7.97 5.44 11.12
5/10/2021 12:45:00 PM 9.25 48.65 0.173 7.98 5.3 11.16
5/10/2021 1:00:00 PM 9.3 48.74 0.166 7.98 6.09 11.18
5/10/2021 1:15:00 PM 9.46 49.028 0.178 8 5.32 11.24
5/10/2021 1:30:00 PM 9.59 49.262 0.182 8.01 5.6 11.27
5/10/2021 1:45:00 PM 9.62 49.316 0.239 8.02 5.83 11.26
5/10/2021 2:00:00 PM 9.64 49.352 0.171 8.02 5.39 11.26
5/10/2021 2:15:00 PM 9.64 49.352 0.176 8.03 5.36 11.25
5/10/2021 2:30:00 PM 9.71 49.478 0.174 8.03 5.02 11.27
5/10/2021 2:45:00 PM 9.81 49.658 0.18 8.05 5.51 11.3
5/10/2021 3:00:00 PM 9.96 49.928 0.18 8.05 5.56 11.33
5/10/2021 3:15:00 PM 10.04 50.072 0.182 8.07 5.81 11.33
5/10/2021 3:30:00 PM 10.11 50.198 0.177 8.07 5.13 11.32
5/10/2021 3:45:00 PM 10.15 50.27 0.173 8.07 4.94 11.27
5/10/2021 4:00:00 PM 10.25 50.45 0.182 8.08 5.46 11.29
5/10/2021 4:15:00 PM 10.32 50.576 0.182 8.07 4.99 11.27
5/10/2021 4:30:00 PM 10.4 50.72 0.176 8.09 5.56 11.27
5/10/2021 4:45:00 PM 10.44 50.792 0.191 8.1 5.15 11.27
5/10/2021 5:00:00 PM 10.45 50.81 0.189 8.09 4.97 11.24
5/10/2021 5:15:00 PM 10.42 50.756 0.24 8.07 5.27 11.18
5/10/2021 5:30:00 PM 10.4 50.72 0.182 8.06 5.62 11.12
5/10/2021 5:45:00 PM 10.38 50.684 0.182 8.05 5.25 11.05
5/10/2021 6:00:00 PM 10.37 50.666 0.178 8.06 5.3 11.02
5/10/2021 6:15:00 PM 10.37 50.666 0.182 8.05 5.34 11.01
5/10/2021 6:30:00 PM 10.34 50.612 0.179 8.03 5.93 10.96
5/10/2021 6:45:00 PM 10.31 50.558 0.241 8.04 4.92 10.93
5/10/2021 7:00:00 PM 10.29 50.522 0.188 8.01 5.84 10.88
5/10/2021 7:15:00 PM 10.26 50.468 0.177 8 5.62 10.83
5/10/2021 7:30:00 PM 10.22 50.396 0.171 7.99 5.31 10.77
5/10/2021 7:45:00 PM 10.18 50.324 0.169 7.98 5.76 10.72
5/10/2021 8:00:00 PM 10.14 50.252 0.181 7.97 5.88 10.68
5/10/2021 8:15:00 PM 10.09 50.162 0.174 7.95 7.58 10.63
5/10/2021 8:30:00 PM 10.04 50.072 0.178 7.94 6.37 10.59
5/10/2021 8:45:00 PM 9.99 49.982 0.18 7.93 6.89 10.56
5/10/2021 9:00:00 PM 9.95 49.91 0.182 7.92 6.19 10.53
5/10/2021 9:15:00 PM 9.89 49.802 0.182 7.91 6.55 10.51
5/10/2021 9:30:00 PM 9.84 49.712 0.184 7.9 7.15 10.49
5/10/2021 9:45:00 PM 9.78 49.604 0.176 7.9 6.47 10.47
5/10/2021 10:00:00 PM 9.72 49.496 0.167 7.89 7.3 10.46
5/10/2021 10:15:00 PM 9.66 49.388 0.178 7.89 7.3 10.46
5/10/2021 10:30:00 PM 9.6 49.28 0.171 7.88 7.33 10.46
5/10/2021 10:45:00 PM 9.55 49.19 0.179 7.88 6.97 10.46
5/10/2021 11:00:00 PM 9.49 49.082 0.175 7.88 6.9 10.46
5/10/2021 11:15:00 PM 9.43 48.974 0.189 7.87 7.29 10.46
5/10/2021 11:30:00 PM 9.39 48.902 0.179 7.87 7.48 10.46
5/10/2021 11:45:00 PM 9.34 48.812 0.173 7.86 7.11 10.47
5/11/2021 12:00:00 AM 9.29 48.722 0.187 7.87 6.83 10.47
5/11/2021 12:15:00 AM 9.25 48.65 0.169 7.86 7.35 10.47
5/11/2021 12:30:00 AM 9.2 48.56 0.182 7.85 7.48 10.48
5/11/2021 12:45:00 AM 9.15 48.47 0.185 7.85 7.06 10.49
5/11/2021 1:00:00 AM 9.11 48.398 0.169 7.85 7.22 10.5
5/11/2021 1:15:00 AM 9.06 48.308 0.17 7.85 7.79 10.5
5/11/2021 1:30:00 AM 9.01 48.218 0.18 7.85 7.35 10.51
5/11/2021 1:45:00 AM 8.96 48.128 0.183 7.85 7.82 10.52
5/11/2021 2:00:00 AM 8.92 48.056 0.192 7.85 7.52 10.54
5/11/2021 2:15:00 AM 8.87 47.966 0.177 7.85 9.08 10.54
5/11/2021 2:30:00 AM 8.83 47.894 0.181 7.85 8.13 10.56
5/11/2021 2:45:00 AM 8.8 47.84 0.189 7.85 7.67 10.57
5/11/2021 3:00:00 AM 8.76 47.768 0.185 7.86 7.81 10.58
5/11/2021 3:15:00 AM 8.73 47.714 0.178 7.85 8.49 10.59
5/11/2021 3:30:00 AM 8.68 47.624 0.176 7.85 8.14 10.6
5/11/2021 3:45:00 AM 8.64 47.552 0.174 7.85 8.41 10.61
5/11/2021 4:00:00 AM 8.6 47.48 0.183 7.86 7.39 10.63
5/11/2021 4:15:00 AM 8.56 47.408 0.179 7.86 7.85 10.64
5/11/2021 4:30:00 AM 8.51 47.318 0.171 7.85 7.33 10.65
5/11/2021 4:45:00 AM 8.47 47.246 0.18 7.86 7.52 10.66
5/11/2021 5:00:00 AM 8.42 47.156 0.175 7.86 7.23 10.68
5/11/2021 5:15:00 AM 8.37 47.066 0.243 7.85 6.83 10.69
5/11/2021 5:30:00 AM 8.33 46.994 0.251 7.85 7.56 10.7
5/11/2021 5:45:00 AM 8.28 46.904 0.157 7.87 7.54 10.71
5/11/2021 6:00:00 AM 8.24 46.832 0.191 7.86 7.69 10.73
5/11/2021 6:15:00 AM 8.19 46.742 0.174 7.86 7.04 10.75
5/11/2021 6:30:00 AM 8.16 46.688 0.177 7.86 7.12 10.78
5/11/2021 6:45:00 AM 8.13 46.634 0.171 7.87 7.27 10.81
5/11/2021 7:00:00 AM 8.11 46.598 0.183 7.87 6.72 10.84
5/11/2021 7:15:00 AM 8.1 46.58 0.188 7.88 7.23 10.88
5/11/2021 7:30:00 AM 8.09 46.562 0.18 7.89 6.5 10.92
5/11/2021 7:45:00 AM 8.09 46.562 0.178 7.89 6.29 10.96
5/11/2021 8:00:00 AM 8.1 46.58 0.177 7.88 6.05 11.01
5/11/2021 8:15:00 AM 8.12 46.616 0.171 7.9 5.97 11.06
5/11/2021 8:30:00 AM 8.15 46.67 0.182 7.92 5.94 11.11
5/11/2021 8:45:00 AM 8.2 46.76 0.179 7.93 6.49 11.16
5/11/2021 9:00:00 AM 8.26 46.868 0.177 7.94 5.9 11.21
5/11/2021 9:15:00 AM 8.33 46.994 0.189 7.96 5.87 11.26
5/11/2021 9:30:00 AM 8.43 47.174 0.167 7.95 5.98 11.3
5/11/2021 9:45:00 AM 8.53 47.354 0.188 7.97 5.86 11.34
5/11/2021 10:00:00 AM 8.65 47.57 0.184 7.98 5.53 11.37
5/11/2021 10:15:00 AM 8.8 47.84 0.181 8 5.6 11.41
5/11/2021 10:30:00 AM 8.93 48.074 0.192 8 5.38 11.42
5/11/2021 10:45:00 AM 9.09 48.362 0.177 8.02 5.6 11.43
5/11/2021 11:00:00 AM 9.3 48.74 0.182 8.03 5.46 11.47
5/11/2021 11:15:00 AM 9.51 49.118 0.195 8.04 5.27 11.49
5/11/2021 11:30:00 AM 9.65 49.37 0.184 8.05 5.29 11.49
5/11/2021 11:45:00 AM 9.67 49.406 0.198 8.06 5.61 11.48
5/11/2021 12:00:00 PM 9.74 49.532 0.196 8.07 5.52 11.49
5/11/2021 12:15:00 PM 9.88 49.784 0.197 8.08 5.4 11.5
5/11/2021 12:30:00 PM 9.92 49.856 0.192 8.08 4.95 11.5
5/11/2021 12:45:00 PM 9.93 49.874 0.195 8.08 5.15 11.49
5/11/2021 1:00:00 PM 9.87 49.766 0.193 8.05 5.2 11.45
5/11/2021 1:15:00 PM 10 50 0.185 8.07 4.82 11.47
5/11/2021 1:30:00 PM 10.03 50.054 0.182 8.07 4.94 11.43
5/11/2021 1:45:00 PM 10.18 50.324 0.184 8.1 4.95 11.45
5/11/2021 2:00:00 PM 10.17 50.306 0.193 8.12 4.77 11.45
5/11/2021 2:15:00 PM 10.27 50.486 0.191 8.12 4.9 11.46
5/11/2021 2:30:00 PM 10.46 50.828 0.251 8.13 4.71 11.47
5/11/2021 2:45:00 PM 10.52 50.936 0.186 8.13 4.62 11.45
5/11/2021 3:00:00 PM 10.4 50.72 0.199 8.13 5.32 11.38
5/11/2021 3:15:00 PM 10.58 51.044 0.192 8.13 5 11.4
5/11/2021 3:30:00 PM 10.53 50.954 0.183 8.13 5.03 11.36
5/11/2021 3:45:00 PM 10.78 51.404 0.206 8.15 4.98 11.39
5/11/2021 4:00:00 PM 10.85 51.53 0.202 8.15 6.23 11.38
5/11/2021 4:15:00 PM 11 51.8 0.194 8.15 4.7 11.38
5/11/2021 4:30:00 PM 11.07 51.926 0.208 8.17 4.65 11.35
5/11/2021 4:45:00 PM 11.03 51.854 0.2 8.15 5.77 11.32
5/11/2021 5:00:00 PM 10.99 51.782 0.194 8.15 4.84 11.29
5/11/2021 5:15:00 PM 10.93 51.674 0.194 8.13 5.11 11.24
5/11/2021 5:30:00 PM 10.88 51.584 0.186 8.13 5.2 11.22
5/11/2021 5:45:00 PM 10.77 51.386 0.191 8.13 4.99 11.16
5/11/2021 6:00:00 PM 10.68 51.224 0.191 8.11 4.85 11.14
5/11/2021 6:15:00 PM 10.59 51.062 0.197 8.1 5.02 11.09
5/11/2021 6:30:00 PM 10.47 50.846 0.196 8.08 6.94 11.01
5/11/2021 6:45:00 PM 10.34 50.612 0.188 8.06 5.02 10.94
5/11/2021 7:00:00 PM 10.25 50.45 0.202 8.06 5.61 10.92
5/11/2021 7:15:00 PM 10.14 50.252 0.19 8.03 5.44 10.87
5/11/2021 7:30:00 PM 10.06 50.108 0.188 8.03 5.09 10.87
5/11/2021 7:45:00 PM 9.96 49.928 0.181 8.01 5.23 10.81
5/11/2021 8:00:00 PM 9.86 49.748 0.183 8 5.29 10.78
5/11/2021 8:15:00 PM 9.78 49.604 0.197 7.99 5.44 10.73
5/11/2021 8:30:00 PM 9.71 49.478 0.184 7.97 6.04 10.71
5/11/2021 8:45:00 PM 9.64 49.352 0.191 7.97 5.43 10.68
5/11/2021 9:00:00 PM 9.57 49.226 0.19 7.96 6.15 10.66
5/11/2021 9:15:00 PM 9.51 49.118 0.187 7.95 6.19 10.65
5/11/2021 9:30:00 PM 9.44 48.992 0.192 7.94 5.61 10.63
5/11/2021 9:45:00 PM 9.38 48.884 0.188 7.94 6.37 10.63
5/11/2021 10:00:00 PM 9.32 48.776 0.193 7.93 8.87 10.63
5/11/2021 10:15:00 PM 9.26 48.668 0.187 7.93 6.46 10.62
5/11/2021 10:30:00 PM 9.2 48.56 0.19 7.94 7.99 10.62
5/11/2021 10:45:00 PM 9.14 48.452 0.199 7.92 6.43 10.62
5/11/2021 11:00:00 PM 9.09 48.362 0.184 7.92 6.36 10.62
5/11/2021 11:15:00 PM 9.03 48.254 0.185 7.92 7.25 10.62
5/11/2021 11:30:00 PM 8.98 48.164 0.183 7.91 6.63 10.63
5/11/2021 11:45:00 PM 8.94 48.092 0.184 7.91 6.83 10.63
5/12/2021 12:00:00 AM 8.91 48.038 0.19 7.91 6.72 10.64
5/12/2021 12:15:00 AM 8.89 48.002 0.191 7.91 7.54 10.64
5/12/2021 12:30:00 AM 8.86 47.948 0.191 7.91 7.74 10.64
5/12/2021 12:45:00 AM 8.85 47.93 0.18 7.91 8.22 10.65
5/12/2021 1:00:00 AM 8.83 47.894 0.176 7.91 7.46 10.65
5/12/2021 1:15:00 AM 8.82 47.876 0.187 7.89 7.31 10.66
5/12/2021 1:30:00 AM 8.81 47.858 0.191 7.91 7.5 10.66
5/12/2021 1:45:00 AM 8.8 47.84 0.194 7.91 7.56 10.67
5/12/2021 2:00:00 AM 8.79 47.822 0.19 7.9 7.2 10.67
5/12/2021 2:15:00 AM 8.78 47.804 0.187 7.9 7.32 10.67
5/12/2021 2:30:00 AM 8.78 47.804 0.195 7.9 7.71 10.67
5/12/2021 2:45:00 AM 8.77 47.786 0.185 7.9 7.94 10.68
5/12/2021 3:00:00 AM 8.76 47.768 0.193 7.92 8.42 10.68
5/12/2021 3:15:00 AM 8.76 47.768 0.19 7.91 7.59 10.68
5/12/2021 3:30:00 AM 8.75 47.75 0.195 7.91 7.7 10.69
5/12/2021 3:45:00 AM 8.74 47.732 0.186 7.92 6.92 10.69
5/12/2021 4:00:00 AM 8.73 47.714 0.179 7.9 8.58 10.7
5/12/2021 4:15:00 AM 8.72 47.696 0.191 7.9 8.31 10.7
5/12/2021 4:30:00 AM 8.71 47.678 0.188 7.9 13.06 10.7
5/12/2021 4:45:00 AM 8.7 47.66 0.185 7.91 7.35 10.7
5/12/2021 5:00:00 AM 8.68 47.624 0.189 7.91 7.33 10.71
5/12/2021 5:15:00 AM 8.67 47.606 0.18 7.91 7.2 10.72
5/12/2021 5:30:00 AM 8.66 47.588 0.186 7.91 6.89 10.73
5/12/2021 5:45:00 AM 8.65 47.57 0.19 7.92 6.65 10.73
5/12/2021 6:00:00 AM 8.64 47.552 0.196 7.92 7.02 10.74
5/12/2021 6:15:00 AM 8.62 47.516 0.185 7.92 6.77 10.75
5/12/2021 6:30:00 AM 8.61 47.498 0.193 7.9 6.92 10.76
5/12/2021 6:45:00 AM 8.6 47.48 0.196 7.9 6.47 10.78
5/12/2021 7:00:00 AM 8.59 47.462 0.191 7.9 6.31 10.81
5/12/2021 7:15:00 AM 8.58 47.444 0.18 7.93 6.17 10.83
5/12/2021 7:30:00 AM 8.58 47.444 0.174 7.93 6.14 10.87
5/12/2021 7:45:00 AM 8.58 47.444 0.2 7.93 5.74 10.91
5/12/2021 8:00:00 AM 8.58 47.444 0.181 7.93 5.47 10.95
5/12/2021 8:15:00 AM 8.58 47.444 0.19 7.95 5.5 11
5/12/2021 8:30:00 AM 8.58 47.444 0.193 7.95 5.56 11.05
5/12/2021 8:45:00 AM 8.59 47.462 0.194 7.98 5.33 11.1
5/12/2021 9:00:00 AM 8.6 47.48 0.19 7.98 5.05 11.17
5/12/2021 9:15:00 AM 8.62 47.516 0.199 7.99 5.23 11.22
5/12/2021 9:30:00 AM 8.65 47.57 0.195 8.01 6.35 11.29
5/12/2021 9:45:00 AM 8.7 47.66 0.199 8.03 5.23 11.36
5/12/2021 10:00:00 AM 8.75 47.75 0.193 8.03 5.21 11.42
5/12/2021 10:15:00 AM 8.84 47.912 0.198 8.06 5.47 11.46
5/12/2021 10:30:00 AM 8.98 48.164 0.2 8.06 4.89 11.52
5/12/2021 10:45:00 AM 9.13 48.434 0.201 8.08 4.58 11.56
5/12/2021 11:00:00 AM 9.3 48.74 0.189 8.09 4.62 11.59
5/12/2021 11:15:00 AM 9.47 49.046 0.203 8.1 4.73 11.62
5/12/2021 11:30:00 AM 9.68 49.424 0.202 8.12 4.78 11.63
5/12/2021 11:45:00 AM 9.95 49.91 0.201 8.13 4.23 11.64
5/12/2021 12:00:00 PM 10.19 50.342 0.194 8.15 4.65 11.63
5/12/2021 12:15:00 PM 10.48 50.864 0.215 8.17 4.46 11.62
5/12/2021 12:30:00 PM 10.79 51.422 0.258 8.18 4.18 11.62
5/12/2021 12:45:00 PM 11.09 51.962 0.207 8.19 4.41 11.62
5/12/2021 1:00:00 PM 11.34 52.412 0.21 8.22 4.5 11.6
5/12/2021 1:15:00 PM 11.56 52.808 0.201 8.22 5.14 11.57
5/12/2021 1:30:00 PM 11.74 53.132 0.196 8.23 5.38 11.56
5/12/2021 1:45:00 PM 11.89 53.402 0.211 8.23 5.39 11.52
5/12/2021 2:00:00 PM 12.14 53.852 0.217 8.25 4.58 11.52
5/12/2021 2:15:00 PM 12.36 54.248 0.262 8.27 3.28 11.49
5/12/2021 2:30:00 PM 12.45 54.41 0.262 8.25 3.27 11.43
5/12/2021 2:45:00 PM 12.54 54.572 0.262 8.27 3.22 11.4
5/12/2021 3:00:00 PM 12.68 54.824 0.263 8.28 3.28 11.37
5/12/2021 3:15:00 PM 12.85 55.13 0.263 8.29 3.13 11.37
5/12/2021 3:30:00 PM 12.96 55.328 0.263 8.29 3.32 11.33
5/12/2021 3:45:00 PM 13.06 55.508 0.263 8.3 3.71 11.31
5/12/2021 4:00:00 PM 13.15 55.67 0.263 8.3 3.24 11.27
5/12/2021 4:15:00 PM 13.19 55.742 0.263 8.3 3.54 11.24
5/12/2021 4:30:00 PM 13.22 55.796 0.263 8.29 5.37 11.2
5/12/2021 4:45:00 PM 13.23 55.814 0.263 8.3 3.28 11.15
5/12/2021 5:00:00 PM 13.24 55.832 0.263 8.3 3.35 11.12
5/12/2021 5:15:00 PM 13.23 55.814 0.264 8.3 3.33 11.07
5/12/2021 5:30:00 PM 13.16 55.688 0.264 8.28 3.38 11.01
5/12/2021 5:45:00 PM 13.09 55.562 0.264 8.26 5.47 10.95
5/12/2021 6:00:00 PM 13 55.4 0.264 8.26 3.55 10.89
5/12/2021 6:15:00 PM 12.93 55.274 0.264 8.24 3.51 10.83
5/12/2021 6:30:00 PM 12.83 55.094 0.265 8.23 3.56 10.75
5/12/2021 6:45:00 PM 12.72 54.896 0.265 8.21 3.55 10.66
5/12/2021 7:00:00 PM 12.61 54.698 0.265 8.19 3.73 10.6
5/12/2021 7:15:00 PM 12.49 54.482 0.265 8.17 3.91 10.53
5/12/2021 7:30:00 PM 12.38 54.284 0.265 8.14 5.45 10.46
5/12/2021 7:45:00 PM 12.29 54.122 0.266 8.13 3.67 10.42
5/12/2021 8:00:00 PM 12.19 53.942 0.266 8.12 4.05 10.39
5/12/2021 8:15:00 PM 12.08 53.744 0.266 8.11 3.78 10.35
5/12/2021 8:30:00 PM 11.96 53.528 0.266 8.08 3.84 10.31
5/12/2021 8:45:00 PM 11.85 53.33 0.267 8.06 6.04 10.27
5/12/2021 9:00:00 PM 11.73 53.114 0.267 8.05 4.2 10.24
5/12/2021 9:15:00 PM 11.61 52.898 0.267 8.04 7.47 10.23
5/12/2021 9:30:00 PM 11.5 52.7 0.267 8.02 4.67 10.21
5/12/2021 9:45:00 PM 11.39 52.502 0.267 8.02 4.69 10.21
5/12/2021 10:00:00 PM 11.28 52.304 0.267 7.99 6.33 10.2
5/12/2021 10:15:00 PM 11.18 52.124 0.268 7.99 4.72 10.19
5/12/2021 10:30:00 PM 11.07 51.926 0.268 7.99 6.4 10.2
5/12/2021 10:45:00 PM 10.97 51.746 0.268 7.97 6.46 10.21
5/12/2021 11:00:00 PM 10.87 51.566 0.268 7.97 7.13 10.22
5/12/2021 11:15:00 PM 10.77 51.386 0.268 7.96 6.58 10.22
5/12/2021 11:30:00 PM 10.68 51.224 0.268 7.97 4.83 10.24
5/12/2021 11:45:00 PM 10.59 51.062 0.268 7.96 6.97 10.25
5/13/2021 12:00:00 AM 10.5 50.9 0.269 7.95 6.06 10.26
5/13/2021 12:15:00 AM 10.41 50.738 0.269 7.94 6 10.27
5/13/2021 12:30:00 AM 10.33 50.594 0.269 7.94 4.89 10.28
5/13/2021 12:45:00 AM 10.25 50.45 0.269 7.95 4.98 10.29
5/13/2021 1:00:00 AM 10.18 50.324 0.269 7.95 5.03 10.3
5/13/2021 1:15:00 AM 10.11 50.198 0.269 7.95 4.87 10.32
5/13/2021 1:30:00 AM 10.03 50.054 0.27 7.94 4.93 10.33
5/13/2021 1:45:00 AM 9.96 49.928 0.27 7.93 6.75 10.34
5/13/2021 2:00:00 AM 9.89 49.802 0.27 7.94 5.09 10.35
5/13/2021 2:15:00 AM 9.83 49.694 0.27 7.94 4.9 10.37
5/13/2021 2:30:00 AM 9.77 49.586 0.27 7.93 6.3 10.37
5/13/2021 2:45:00 AM 9.71 49.478 0.27 7.93 4.66 10.38
5/13/2021 3:00:00 AM 9.65 49.37 0.27 7.94 9 10.4
5/13/2021 3:15:00 AM 9.59 49.262 0.27 7.93 4.86 10.41
5/13/2021 3:30:00 AM 9.53 49.154 0.27 7.93 5.2 10.43
5/13/2021 3:45:00 AM 9.47 49.046 0.27 7.93 9.18 10.44
5/13/2021 4:00:00 AM 9.42 48.956 0.271 7.93 5.03 10.46
5/13/2021 4:15:00 AM 9.37 48.866 0.27 7.92 6.82 10.47
5/13/2021 4:30:00 AM 9.32 48.776 0.271 7.93 5.84 10.49
5/13/2021 4:45:00 AM 9.28 48.704 0.27 7.93 5.61 10.5
5/13/2021 5:00:00 AM 9.23 48.614 0.271 7.91 7.5 10.51
5/13/2021 5:15:00 AM 9.19 48.542 0.271 7.93 4.94 10.51
5/13/2021 5:30:00 AM 9.15 48.47 0.271 7.91 7.22 10.52
5/13/2021 5:45:00 AM 9.11 48.398 0.27 7.93 5.3 10.54
5/13/2021 6:00:00 AM 9.07 48.326 0.27 7.93 5.19 10.56
5/13/2021 6:15:00 AM 9.04 48.272 0.271 7.94 4.46 10.6
5/13/2021 6:30:00 AM 9.01 48.218 0.271 7.92 6.32 10.64
5/13/2021 6:45:00 AM 8.98 48.164 0.271 7.95 4.48 10.68
5/13/2021 7:00:00 AM 8.97 48.146 0.271 7.95 4.51 10.72
5/13/2021 7:15:00 AM 8.97 48.146 0.271 7.94 5.84 10.77
5/13/2021 7:30:00 AM 8.97 48.146 0.271 7.97 4.27 10.82
5/13/2021 7:45:00 AM 8.99 48.182 0.271 7.98 3.86 10.88
5/13/2021 8:00:00 AM 9.03 48.254 0.271 7.99 3.77 10.95
5/13/2021 8:15:00 AM 9.08 48.344 0.271 7.99 5.29 11.01
5/13/2021 8:30:00 AM 9.15 48.47 0.271 8.02 3.66 11.07
5/13/2021 8:45:00 AM 9.24 48.632 0.271 8.02 5.25 11.13
5/13/2021 9:00:00 AM 9.34 48.812 0.271 8.04 4.99 11.19
5/13/2021 9:15:00 AM 9.47 49.046 0.271 8.07 3.5 11.25
5/13/2021 9:30:00 AM 9.62 49.316 0.271 8.07 4.8 11.29
5/13/2021 9:45:00 AM 9.79 49.622 0.271 8.09 5.25 11.34
5/13/2021 10:00:00 AM 9.97 49.946 0.271 8.12 3.22 11.39
5/13/2021 10:15:00 AM 10.18 50.324 0.271 8.13 4.76 11.42
5/13/2021 10:30:00 AM 10.39 50.702 0.272 8.15 4.92 11.44
5/13/2021 10:45:00 AM 10.62 51.116 0.272 8.17 4.89 11.47
5/13/2021 11:00:00 AM 10.87 51.566 0.272 8.19 4.75 11.48
5/13/2021 11:15:00 AM 11.09 51.962 0.272 8.2 3.23 11.47
5/13/2021 11:30:00 AM 11.33 52.394 0.272 8.23 3.16 11.47
5/13/2021 11:45:00 AM 11.6 52.88 0.272 8.24 3.29 11.48
5/13/2021 12:00:00 PM 11.65 52.97 0.272 8.25 3.27 11.45
5/13/2021 12:15:00 PM 11.82 53.276 0.272 8.27 3.18 11.45
5/13/2021 12:30:00 PM 12 53.6 0.272 8.28 3.32 11.47
5/13/2021 12:45:00 PM 12.29 54.122 0.272 8.28 5.02 11.48
5/13/2021 1:00:00 PM 12.4 54.32 0.272 8.29 4.7 11.45
5/13/2021 1:15:00 PM 12.49 54.482 0.272 8.31 5.3 11.42
5/13/2021 1:30:00 PM 12.48 54.464 0.272 8.32 3.26 11.39
5/13/2021 1:45:00 PM 12.58 54.644 0.272 8.33 3.29 11.4
5/13/2021 2:00:00 PM 12.6 54.68 0.272 8.34 3.2 11.38
5/13/2021 2:15:00 PM 12.69 54.842 0.272 8.34 3.2 11.34
5/13/2021 2:30:00 PM 12.81 55.058 0.272 8.35 2.94 11.3
5/13/2021 2:45:00 PM 12.83 55.094 0.272 8.34 3.16 11.27
5/13/2021 3:00:00 PM 12.87 55.166 0.272 8.34 5.13 11.23
5/13/2021 3:15:00 PM 13.19 55.742 0.272 8.36 3.27 11.28
5/13/2021 3:30:00 PM 13.27 55.886 0.273 8.37 3.18 11.24
5/13/2021 3:45:00 PM 13.49 56.282 0.273 8.37 3.09 11.24
5/13/2021 4:00:00 PM 13.57 56.426 0.273 8.38 3.26 11.2
5/13/2021 4:15:00 PM 13.7 56.66 0.273 8.39 3.27 11.2
5/13/2021 4:30:00 PM 13.79 56.822 0.273 8.38 3.06 11.16
5/13/2021 4:45:00 PM 13.86 56.948 0.273 8.38 3.29 11.14
5/13/2021 5:00:00 PM 13.92 57.056 0.273 8.39 3.19 11.09
5/13/2021 5:15:00 PM 13.9 57.02 0.273 8.38 3.31 11.04
5/13/2021 5:30:00 PM 13.87 56.966 0.274 8.38 3.54 10.97
5/13/2021 5:45:00 PM 13.83 56.894 0.274 8.36 3.22 10.91
5/13/2021 6:00:00 PM 13.76 56.768 0.274 8.35 3.26 10.85
5/13/2021 6:15:00 PM 13.67 56.606 0.274 8.33 3.36 10.77
5/13/2021 6:30:00 PM 13.56 56.408 0.275 8.31 3.35 10.68
5/13/2021 6:45:00 PM 13.45 56.21 0.275 8.29 3.38 10.58
5/13/2021 7:00:00 PM 13.34 56.012 0.275 8.26 3.63 10.49
5/13/2021 7:15:00 PM 13.25 55.85 0.275 8.23 5.23 10.42
5/13/2021 7:30:00 PM 13.17 55.706 0.276 8.21 3.3 10.34
5/13/2021 7:45:00 PM 13.1 55.58 0.276 8.2 3.82 10.29
5/13/2021 8:00:00 PM 13.01 55.418 0.276 8.19 3.62 10.24
5/13/2021 8:15:00 PM 12.91 55.238 0.276 8.17 3.88 10.19
5/13/2021 8:30:00 PM 12.81 55.058 0.276 8.15 3.54 10.13
5/13/2021 8:45:00 PM 12.7 54.86 0.277 8.12 3.91 10.08
5/13/2021 9:00:00 PM 12.58 54.644 0.277 8.11 7.93 10.04
5/13/2021 9:15:00 PM 12.47 54.446 0.277 8.09 4.22 10.02
5/13/2021 9:30:00 PM 12.35 54.23 0.277 8.08 4.41 10.02
5/13/2021 9:45:00 PM 12.24 54.032 0.278 8.05 5.95 9.99
5/13/2021 10:00:00 PM 12.12 53.816 0.278 8.05 4.72 9.99
5/13/2021 10:15:00 PM 12.01 53.618 0.278 8.04 4.85 9.99
5/13/2021 10:30:00 PM 11.89 53.402 0.278 8.03 4.37 10
5/13/2021 10:45:00 PM 11.78 53.204 0.279 8.02 4.78 10
5/13/2021 11:00:00 PM 11.67 53.006 0.279 8.01 6.63 10.01
5/13/2021 11:15:00 PM 11.56 52.808 0.279 8.01 4.34 10.02
5/13/2021 11:30:00 PM 11.46 52.628 0.279 8 4.35 10.03
5/13/2021 11:45:00 PM 11.36 52.448 0.279 7.99 6.26 10.05
5/14/2021 12:00:00 AM 11.26 52.268 0.279 7.98 6.21 10.06
5/14/2021 12:15:00 AM 11.16 52.088 0.279 7.99 4.44 10.06
5/14/2021 12:30:00 AM 11.06 51.908 0.28 7.98 4.63 10.08
5/14/2021 12:45:00 AM 10.96 51.728 0.28 7.98 4.53 10.1
5/14/2021 1:00:00 AM 10.86 51.548 0.28 7.98 4.72 10.12
5/14/2021 1:15:00 AM 10.76 51.368 0.28 7.96 6.44 10.14
5/14/2021 1:30:00 AM 10.67 51.206 0.28 7.97 4.39 10.16
5/14/2021 1:45:00 AM 10.57 51.026 0.28 7.97 4.78 10.18
5/14/2021 2:00:00 AM 10.48 50.864 0.28 7.97 4.67 10.2
5/14/2021 2:15:00 AM 10.38 50.684 0.28 7.95 6.39 10.21
5/14/2021 2:30:00 AM 10.3 50.54 0.28 7.96 6.41 10.24
5/14/2021 2:45:00 AM 10.21 50.378 0.28 7.95 6.34 10.26
5/14/2021 3:00:00 AM 10.13 50.234 0.281 7.96 4.54 10.27
5/14/2021 3:15:00 AM 10.04 50.072 0.281 7.95 6.77 10.3
5/14/2021 3:30:00 AM 9.97 49.946 0.281 7.94 4.74 10.31
5/14/2021 3:45:00 AM 9.89 49.802 0.281 7.95 4.57 10.33
5/14/2021 4:00:00 AM 9.82 49.676 0.281 7.94 4.9 10.35
5/14/2021 4:15:00 AM 9.75 49.55 0.281 7.95 4.55 10.37
5/14/2021 4:30:00 AM 9.68 49.424 0.281 7.95 4.93 10.38
5/14/2021 4:45:00 AM 9.62 49.316 0.281 7.95 5.09 10.39
5/14/2021 5:00:00 AM 9.56 49.208 0.281 7.95 5.03 10.41
5/14/2021 5:15:00 AM 9.5 49.1 0.281 7.95 4.84 10.43
5/14/2021 5:30:00 AM 9.44 48.992 0.28 7.95 5.31 10.45
5/14/2021 5:45:00 AM 9.39 48.902 0.281 7.95 4.95 10.46
5/14/2021 6:00:00 AM 9.34 48.812 0.281 7.95 4.66 10.49
5/14/2021 6:15:00 AM 9.29 48.722 0.281 7.95 4.61 10.53
5/14/2021 6:30:00 AM 9.26 48.668 0.281 7.96 5.19 10.57
5/14/2021 6:45:00 AM 9.23 48.614 0.281 7.96 3.96 10.63
5/14/2021 7:00:00 AM 9.21 48.578 0.281 7.96 4.01 10.69
5/14/2021 7:15:00 AM 9.21 48.578 0.281 7.98 3.94 10.74
5/14/2021 7:30:00 AM 9.21 48.578 0.28 7.98 5.82 10.8
5/14/2021 7:45:00 AM 9.24 48.632 0.28 8 3.58 10.86
5/14/2021 8:00:00 AM 9.28 48.704 0.28 8.01 3.61 10.93
5/14/2021 8:15:00 AM 9.35 48.83 0.28 8.02 5.09 10.99
5/14/2021 8:30:00 AM 9.43 48.974 0.28 8.03 6.21 11.05
5/14/2021 8:45:00 AM 9.53 49.154 0.28 8.05 5.08 11.12
5/14/2021 9:00:00 AM 9.65 49.37 0.28 8.08 3.27 11.17
5/14/2021 9:15:00 AM 9.79 49.622 0.28 8.1 3.34 11.23
5/14/2021 9:30:00 AM 9.96 49.928 0.279 8.12 3.09 11.28
5/14/2021 9:45:00 AM 10.15 50.27 0.279 8.13 3.12 11.33
5/14/2021 10:00:00 AM 10.35 50.63 0.279 8.15 2.99 11.36
5/14/2021 10:15:00 AM 10.58 51.044 0.279 8.17 3.13 11.39
5/14/2021 10:30:00 AM 10.84 51.512 0.279 8.18 4.83 11.42
5/14/2021 10:45:00 AM 11.1 51.98 0.279 8.21 3.02 11.44
5/14/2021 11:00:00 AM 11.38 52.484 0.279 8.23 3.01 11.44
5/14/2021 11:15:00 AM 11.68 53.024 0.279 8.24 4.84 11.45
5/14/2021 11:30:00 AM 11.97 53.546 0.279 8.27 2.96 11.45
5/14/2021 11:45:00 AM 12.28 54.104 0.278 8.29 3.15 11.45
5/14/2021 12:00:00 PM 12.59 54.662 0.278 8.31 2.84 11.43
5/14/2021 12:15:00 PM 12.89 55.202 0.278 8.32 2.98 11.43
5/14/2021 12:30:00 PM 13.2 55.76 0.278 8.34 3.03 11.42
5/14/2021 12:45:00 PM 13.51 56.318 0.278 8.36 3.25 11.4
5/14/2021 1:00:00 PM 13.81 56.858 0.278 8.37 2.89 11.38
5/14/2021 1:15:00 PM 14.1 57.38 0.278 8.39 3.22 11.37
5/14/2021 1:30:00 PM 14.39 57.902 0.278 8.4 3.07 11.33
5/14/2021 1:45:00 PM 14.65 58.37 0.278 8.41 3.04 11.31
5/14/2021 2:00:00 PM 14.91 58.838 0.278 8.42 3.31 11.27
5/14/2021 2:15:00 PM 15.15 59.27 0.278 8.43 3.16 11.26
5/14/2021 2:30:00 PM 15.37 59.666 0.278 8.44 3.02 11.2
5/14/2021 2:45:00 PM 15.38 59.684 0.278 8.43 3.21 11.09
5/14/2021 3:00:00 PM 15.45 59.81 0.278 8.44 3.03 11.03
5/14/2021 3:15:00 PM 15.59 60.062 0.278 8.44 3.21 11
5/14/2021 3:30:00 PM 15.76 60.368 0.278 8.45 3.07 11
5/14/2021 3:45:00 PM 15.89 60.602 0.278 8.46 3.31 10.97
5/14/2021 4:00:00 PM 16 60.8 0.278 8.46 3.15 10.93
5/14/2021 4:15:00 PM 16.06 60.908 0.278 8.47 3.34 10.9
5/14/2021 4:30:00 PM 16.16 61.088 0.278 8.47 3.2 10.86
5/14/2021 4:45:00 PM 16.23 61.214 0.278 8.47 3.45 10.79
5/14/2021 5:00:00 PM 16.3 61.34 0.278 8.47 3.57 10.74
5/14/2021 5:15:00 PM 16.29 61.322 0.279 8.47 3.27 10.67
5/14/2021 5:30:00 PM 16.21 61.178 0.279 8.45 3.11 10.59
5/14/2021 5:45:00 PM 16.11 60.998 0.279 8.44 3.19 10.5
5/14/2021 6:00:00 PM 16.02 60.836 0.279 8.42 3.26 10.42
5/14/2021 6:15:00 PM 15.92 60.656 0.28 8.4 3.29 10.33
5/14/2021 6:30:00 PM 15.81 60.458 0.28 8.38 3.37 10.24
5/14/2021 6:45:00 PM 15.67 60.206 0.28 8.36 3.4 10.13
5/14/2021 7:00:00 PM 15.55 59.99 0.28 8.33 3.19 10.02
5/14/2021 7:15:00 PM 15.42 59.756 0.281 8.3 3.57 9.93
5/14/2021 7:30:00 PM 15.31 59.558 0.281 8.28 3.51 9.85
5/14/2021 7:45:00 PM 15.21 59.378 0.281 8.26 3.73 9.79
5/14/2021 8:00:00 PM 15.12 59.216 0.282 8.24 3.63 9.71
5/14/2021 8:15:00 PM 15 59 0.282 8.22 3.8 9.69
5/14/2021 8:30:00 PM 14.88 58.784 0.282 8.19 4.06 9.62
5/14/2021 8:45:00 PM 14.76 58.568 0.283 8.17 3.97 9.57
5/14/2021 9:00:00 PM 14.64 58.352 0.283 8.15 4.26 9.53
5/14/2021 9:15:00 PM 14.51 58.118 0.283 8.13 4.19 9.51
5/14/2021 9:30:00 PM 14.38 57.884 0.283 8.12 4.46 9.49
5/14/2021 9:45:00 PM 14.25 57.65 0.283 8.1 4.33 9.48
5/14/2021 10:00:00 PM 14.13 57.434 0.284 8.09 4.5 9.46
5/14/2021 10:15:00 PM 13.99 57.182 0.284 8.07 4.35 9.47
5/14/2021 10:30:00 PM 13.85 56.93 0.284 8.06 4.66 9.48
5/14/2021 10:45:00 PM 13.72 56.696 0.285 8.06 4.23 9.47
5/14/2021 11:00:00 PM 13.58 56.444 0.285 8.05 4.68 9.49
5/14/2021 11:15:00 PM 13.44 56.192 0.285 8.02 6.94 9.51
5/14/2021 11:30:00 PM 13.3 55.94 0.285 8.03 4.41 9.51
5/14/2021 11:45:00 PM 13.17 55.706 0.286 8.02 4.51 9.53
5/15/2021 12:00:00 AM 13.04 55.472 0.286 8.02 4.53 9.55
5/15/2021 12:15:00 AM 12.91 55.238 0.286 7.99 6.99 9.57
5/15/2021 12:30:00 AM 12.78 55.004 0.286 8 6.34 9.59
5/15/2021 12:45:00 AM 12.65 54.77 0.286 8 4.64 9.61
5/15/2021 1:00:00 AM 12.53 54.554 0.287 7.99 7.08 9.64
5/15/2021 1:15:00 AM 12.4 54.32 0.287 7.98 6.56 9.65
5/15/2021 1:30:00 AM 12.28 54.104 0.287 7.99 4.5 9.68
5/15/2021 1:45:00 AM 12.15 53.87 0.287 7.97 6.76 9.7
5/15/2021 2:00:00 AM 12.04 53.672 0.287 7.99 5 9.73
5/15/2021 2:15:00 AM 11.92 53.456 0.287 7.98 6.75 9.76
5/15/2021 2:30:00 AM 11.81 53.258 0.287 7.96 6.34 9.78
5/15/2021 2:45:00 AM 11.7 53.06 0.288 7.96 6.38 9.81
5/15/2021 3:00:00 AM 11.59 52.862 0.288 7.97 4.64 9.83
5/15/2021 3:15:00 AM 11.48 52.664 0.288 7.97 4.73 9.86
5/15/2021 3:30:00 AM 11.38 52.484 0.288 7.97 4.74 9.89
5/15/2021 3:45:00 AM 11.28 52.304 0.288 7.95 6.64 9.91
5/15/2021 4:00:00 AM 11.18 52.124 0.288 7.97 4.62 9.94
5/15/2021 4:15:00 AM 11.08 51.944 0.288 7.96 7.13 9.97
5/15/2021 4:30:00 AM 10.99 51.782 0.288 7.97 4.58 9.97
5/15/2021 4:45:00 AM 10.9 51.62 0.289 7.95 6.49 10
5/15/2021 5:00:00 AM 10.81 51.458 0.288 7.95 6.77 10.02
5/15/2021 5:15:00 AM 10.72 51.296 0.289 7.95 6.55 10.05
5/15/2021 5:30:00 AM 10.63 51.134 0.289 7.96 4.62 10.07
5/15/2021 5:45:00 AM 10.55 50.99 0.289 7.96 4.58 10.1
5/15/2021 6:00:00 AM 10.47 50.846 0.289 7.96 4.42 10.14
5/15/2021 6:15:00 AM 10.4 50.72 0.289 7.95 6.03 10.2
5/15/2021 6:30:00 AM 10.33 50.594 0.289 7.97 4.47 10.24
5/15/2021 6:45:00 AM 10.28 50.504 0.289 7.98 4.11 10.3
5/15/2021 7:00:00 AM 10.24 50.432 0.289 7.97 5.85 10.37
5/15/2021 7:15:00 AM 10.21 50.378 0.289 8 4 10.44
5/15/2021 7:30:00 AM 10.2 50.36 0.288 7.99 5.82 10.51
5/15/2021 7:45:00 AM 10.2 50.36 0.288 8.01 5.66 10.59
5/15/2021 8:00:00 AM 10.22 50.396 0.288 8.02 5.56 10.68
5/15/2021 8:15:00 AM 10.27 50.486 0.288 8.05 5.76 10.76
5/15/2021 8:30:00 AM 10.33 50.594 0.288 8.07 3.26 10.84
5/15/2021 8:45:00 AM 10.41 50.738 0.288 8.07 5.16 10.91
5/15/2021 9:00:00 AM 10.52 50.936 0.288 8.1 5.53 10.97
5/15/2021 9:15:00 AM 10.65 51.17 0.288 8.12 3.24 11.05
5/15/2021 9:30:00 AM 10.81 51.458 0.288 8.14 5.04 11.11
5/15/2021 9:45:00 AM 10.99 51.782 0.288 8.17 3.34 11.15
5/15/2021 10:00:00 AM 11.18 52.124 0.288 8.19 3.23 11.21
5/15/2021 10:15:00 AM 11.41 52.538 0.287 8.21 3.17 11.24
5/15/2021 10:30:00 AM 11.64 52.952 0.287 8.23 3.09 11.27
5/15/2021 10:45:00 AM 11.91 53.438 0.287 8.24 4.95 11.31
5/15/2021 11:00:00 AM 12.2 53.96 0.287 8.27 3.03 11.33
5/15/2021 11:15:00 AM 12.5 54.5 0.287 8.29 2.98 11.32
5/15/2021 11:30:00 AM 12.81 55.058 0.286 8.31 3.03 11.34
5/15/2021 11:45:00 AM 13.03 55.454 0.286 8.31 5.49 11.3
5/15/2021 12:00:00 PM 13.36 56.048 0.286 8.35 2.85 11.31
5/15/2021 12:15:00 PM 13.42 56.156 0.286 8.35 3.35 11.24
5/15/2021 12:30:00 PM 13.53 56.354 0.286 8.36 3.21 11.21
5/15/2021 12:45:00 PM 13.65 56.57 0.286 8.35 2.93 11.2
5/15/2021 1:00:00 PM 13.75 56.75 0.286 8.38 3.02 11.15
5/15/2021 1:15:00 PM 13.79 56.822 0.286 8.38 3.3 11.1
5/15/2021 1:30:00 PM 13.88 56.984 0.286 8.4 3.09 11.09
5/15/2021 1:45:00 PM 13.93 57.074 0.286 8.39 5 11.11
5/15/2021 2:00:00 PM 14.06 57.308 0.286 8.41 3.18 11.15
5/15/2021 2:15:00 PM 14.37 57.866 0.285 8.44 3 11.2
5/15/2021 2:30:00 PM 14.67 58.406 0.285 8.45 3.12 11.24
5/15/2021 2:45:00 PM 14.99 58.982 0.285 8.48 3 11.24
5/15/2021 3:00:00 PM 15.03 59.054 0.285 8.48 3.15 11.15
5/15/2021 3:15:00 PM 15.13 59.234 0.285 8.48 3.11 11.13
5/15/2021 3:30:00 PM 15.22 59.396 0.285 8.5 2.98 11.14
5/15/2021 3:45:00 PM 15.3 59.54 0.285 8.5 3.36 11.13
5/15/2021 4:00:00 PM 15.37 59.666 0.285 8.5 2.94 11.12
5/15/2021 4:15:00 PM 15.46 59.828 0.285 8.52 2.94 11.07
5/15/2021 4:30:00 PM 15.62 60.116 0.285 8.52 3.07 11.07
5/15/2021 4:45:00 PM 15.67 60.206 0.285 8.53 3.24 11.01
5/15/2021 5:00:00 PM 15.66 60.188 0.285 8.53 3.25 10.94
5/15/2021 5:15:00 PM 15.65 60.17 0.285 8.52 3.07 10.86
5/15/2021 5:30:00 PM 15.61 60.098 0.285 8.51 3.18 10.78
5/15/2021 5:45:00 PM 15.59 60.062 0.285 8.51 3.33 10.73
5/15/2021 6:00:00 PM 15.55 59.99 0.286 8.5 3.12 10.67
5/15/2021 6:15:00 PM 15.51 59.918 0.286 8.48 3.35 10.57
5/15/2021 6:30:00 PM 15.47 59.846 0.286 8.46 3.18 10.46
5/15/2021 6:45:00 PM 15.43 59.774 0.287 8.45 3.19 10.37
5/15/2021 7:00:00 PM 15.37 59.666 0.287 8.42 3.41 10.28
5/15/2021 7:15:00 PM 15.32 59.576 0.287 8.4 3.52 10.2
5/15/2021 7:30:00 PM 15.26 59.468 0.288 8.38 3.03 10.12
5/15/2021 7:45:00 PM 15.17 59.306 0.288 8.35 3.37 10.02
5/15/2021 8:00:00 PM 15.07 59.126 0.288 8.33 3.96 9.92
5/15/2021 8:15:00 PM 14.96 58.928 0.289 8.29 3.57 9.84
5/15/2021 8:30:00 PM 14.85 58.73 0.289 8.27 3.85 9.75
5/15/2021 8:45:00 PM 14.74 58.532 0.29 8.24 4.01 9.67
5/15/2021 9:00:00 PM 14.65 58.37 0.29 8.21 3.65 9.63
5/15/2021 9:15:00 PM 14.56 58.208 0.29 8.2 3.74 9.59
5/15/2021 9:30:00 PM 14.46 58.028 0.291 8.17 3.9 9.56
5/15/2021 9:45:00 PM 14.35 57.83 0.291 8.15 3.97 9.53
5/15/2021 10:00:00 PM 14.24 57.632 0.291 8.12 4.05 9.51
5/15/2021 10:15:00 PM 14.14 57.452 0.292 8.12 4.12 9.5
5/15/2021 10:30:00 PM 14.03 57.254 0.292 8.1 4.47 9.49
5/15/2021 10:45:00 PM 13.93 57.074 0.292 8.09 4.27 9.48
5/15/2021 11:00:00 PM 13.82 56.876 0.292 8.06 6.58 9.49
5/15/2021 11:15:00 PM 13.71 56.678 0.293 8.07 4.5 9.49
5/15/2021 11:30:00 PM 13.62 56.516 0.293 8.06 4.45 9.49
5/15/2021 11:45:00 PM 13.51 56.318 0.293 8.05 4.23 9.49
5/16/2021 12:00:00 AM 13.41 56.138 0.293 8.04 4.38 9.5
5/16/2021 12:15:00 AM 13.31 55.958 0.293 8.02 6.25 9.51
5/16/2021 12:30:00 AM 13.21 55.778 0.294 8.03 4.53 9.52
5/16/2021 12:45:00 AM 13.1 55.58 0.294 8.02 4.33 9.53
5/16/2021 1:00:00 AM 13 55.4 0.294 8 6.61 9.55
5/16/2021 1:15:00 AM 12.89 55.202 0.294 8.02 4.49 9.56
5/16/2021 1:30:00 AM 12.78 55.004 0.295 8 4.51 9.58
5/16/2021 1:45:00 AM 12.67 54.806 0.295 8 4.4 9.59
5/16/2021 2:00:00 AM 12.56 54.608 0.295 8 4.55 9.6
5/16/2021 2:15:00 AM 12.45 54.41 0.295 8 4.84 9.62
5/16/2021 2:30:00 AM 12.34 54.212 0.295 7.99 6.59 9.66
5/16/2021 2:45:00 AM 12.23 54.014 0.295 7.99 4.87 9.67
5/16/2021 3:00:00 AM 12.12 53.816 0.296 7.98 6.61 9.69
5/16/2021 3:15:00 AM 12.01 53.618 0.296 7.98 6.76 9.72
5/16/2021 3:30:00 AM 11.91 53.438 0.296 7.98 4.64 9.74
5/16/2021 3:45:00 AM 11.8 53.24 0.296 7.98 4.55 9.76
5/16/2021 4:00:00 AM 11.7 53.06 0.296 7.97 6.47 9.78
5/16/2021 4:15:00 AM 11.6 52.88 0.296 7.97 16.24 9.81
5/16/2021 4:30:00 AM 11.5 52.7 0.296 7.96 6.79 9.8
5/16/2021 4:45:00 AM 11.41 52.538 0.296 7.97 4.63 9.84
5/16/2021 5:00:00 AM 11.31 52.358 0.296 7.97 4.69 9.86
5/16/2021 5:15:00 AM 11.22 52.196 0.297 7.97 6.98 9.9
5/16/2021 5:30:00 AM 11.13 52.034 0.297 7.98 5.08 9.92
5/16/2021 5:45:00 AM 11.04 51.872 0.297 7.96 6.39 9.96
5/16/2021 6:00:00 AM 10.95 51.71 0.297 7.97 4.1 9.99
5/16/2021 6:15:00 AM 10.87 51.566 0.297 7.98 4.04 10.05
5/16/2021 6:30:00 AM 10.79 51.422 0.297 7.98 4.02 10.1
5/16/2021 6:45:00 AM 10.73 51.314 0.297 7.98 6.06 10.16
5/16/2021 7:00:00 AM 10.68 51.224 0.297 8 3.71 10.24
5/16/2021 7:15:00 AM 10.64 51.152 0.297 8 6.2 10.33
5/16/2021 7:30:00 AM 10.62 51.116 0.297 8.02 3.67 10.41
5/16/2021 7:45:00 AM 10.62 51.116 0.297 8.03 5.32 10.5
5/16/2021 8:00:00 AM 10.64 51.152 0.297 8.04 5.62 10.58
5/16/2021 8:15:00 AM 10.67 51.206 0.297 8.06 5.55 10.67
5/16/2021 8:30:00 AM 10.73 51.314 0.297 8.08 3.35 10.75
5/16/2021 8:45:00 AM 10.8 51.44 0.297 8.11 3.67 10.82
5/16/2021 9:00:00 AM 10.91 51.638 0.297 8.11 5.66 10.9
5/16/2021 9:15:00 AM 11.04 51.872 0.297 8.13 5.31 10.96
5/16/2021 9:30:00 AM 11.19 52.142 0.297 8.16 5.99 11
5/16/2021 9:45:00 AM 11.37 52.466 0.297 8.17 5.31 11.08
5/16/2021 10:00:00 AM 11.56 52.808 0.297 8.2 3.15 11.13
5/16/2021 10:15:00 AM 11.78 53.204 0.296 8.21 4.97 11.17
5/16/2021 10:30:00 AM 12.01 53.618 0.296 8.25 2.91 11.19
5/16/2021 10:45:00 AM 12.27 54.086 0.296 8.26 3 11.22
5/16/2021 11:00:00 AM 12.55 54.59 0.296 8.29 3.04 11.24
5/16/2021 11:15:00 AM 12.85 55.13 0.296 8.31 3.05 11.27
5/16/2021 11:30:00 AM 13.17 55.706 0.296 8.33 2.9 11.29
5/16/2021 11:45:00 AM 13.5 56.3 0.295 8.35 3.01 11.3
5/16/2021 12:00:00 PM 13.82 56.876 0.295 8.37 2.92 11.3
5/16/2021 12:15:00 PM 14.16 57.488 0.295 8.38 2.93 11.3
5/16/2021 12:30:00 PM 14.33 57.794 0.295 8.4 3.89 11.26
5/16/2021 12:45:00 PM 14.72 58.496 0.294 8.42 2.98 11.29
5/16/2021 1:00:00 PM 14.94 58.892 0.294 8.43 2.86 11.26
5/16/2021 1:15:00 PM 15.08 59.144 0.294 8.45 3.12 11.24
5/16/2021 1:30:00 PM 15.4 59.72 0.294 8.47 3.12 11.25
5/16/2021 1:45:00 PM 15.68 60.224 0.293 8.48 2.98 11.24
5/16/2021 2:00:00 PM 15.88 60.584 0.293 8.49 10.65 11.2
5/16/2021 2:15:00 PM 16.13 61.034 0.293 8.5 2.89 11.2
5/16/2021 2:30:00 PM 16.47 61.646 0.293 8.52 3.04 11.17
5/16/2021 2:45:00 PM 16.7 62.06 0.293 8.53 7.29 11.12
5/16/2021 3:00:00 PM 16.87 62.366 0.293 8.54 12.48 11.08
5/16/2021 3:15:00 PM 17.07 62.726 0.292 8.54 2.96 11.05
5/16/2021 3:30:00 PM 17.01 62.618 0.292 8.54 2.85 10.95
5/16/2021 3:45:00 PM 17.09 62.762 0.292 8.55 2.93 10.92
5/16/2021 4:00:00 PM 17.09 62.762 0.292 8.54 3.92 10.84
5/16/2021 4:15:00 PM 17.02 62.636 0.292 8.54 10.25 10.76
5/16/2021 4:30:00 PM 16.98 62.564 0.292 8.54 11.34 10.68
5/16/2021 4:45:00 PM 16.93 62.474 0.292 8.54 16.03 10.64
5/16/2021 5:00:00 PM 16.97 62.546 0.292 8.54 3.07 10.61
5/16/2021 5:15:00 PM 17.07 62.726 0.292 8.55 3.93 10.61
5/16/2021 5:30:00 PM 17.02 62.636 0.292 8.54 27.97 10.51
5/16/2021 5:45:00 PM 17.01 62.618 0.292 8.53 3.18 10.41
5/16/2021 6:00:00 PM 16.97 62.546 0.293 8.51 3.21 10.3
5/16/2021 6:15:00 PM 16.86 62.348 0.293 8.49 3.1 10.14
5/16/2021 6:30:00 PM 16.71 62.078 0.293 8.46 3.65 10.01
5/16/2021 6:45:00 PM 16.59 61.862 0.294 8.44 3.31 9.94
5/16/2021 7:00:00 PM 16.48 61.664 0.294 8.42 3.06 9.87
5/16/2021 7:15:00 PM 16.36 61.448 0.294 8.39 3.32 9.79
5/16/2021 7:30:00 PM 16.26 61.268 0.295 8.37 3.31 9.71
5/16/2021 7:45:00 PM 16.17 61.106 0.295 8.34 3.29 9.6
5/16/2021 8:00:00 PM 16.06 60.908 0.295 8.31 3.45 9.51
5/16/2021 8:15:00 PM 15.96 60.728 0.296 8.28 3.37 9.44
5/16/2021 8:30:00 PM 15.85 60.53 0.296 8.25 4.08 9.36
5/16/2021 8:45:00 PM 15.73 60.314 0.296 8.22 3.68 9.31
5/16/2021 9:00:00 PM 15.61 60.098 0.297 8.21 3.85 9.27
5/16/2021 9:15:00 PM 15.48 59.864 0.296 8.19 4.07 9.26
5/16/2021 9:30:00 PM 15.38 59.684 0.297 8.17 4.15 9.25
5/16/2021 9:45:00 PM 15.26 59.468 0.298 8.16 4.07 9.23
5/16/2021 10:00:00 PM 15.16 59.288 0.298 8.14 4.15 9.22
5/16/2021 10:15:00 PM 15.05 59.09 0.298 8.13 4.05 9.2
5/16/2021 10:30:00 PM 14.95 58.91 0.299 8.12 3.93 9.19
5/16/2021 10:45:00 PM 14.84 58.712 0.299 8.1 4.02 9.19
5/16/2021 11:00:00 PM 14.74 58.532 0.299 8.1 3.85 9.19
5/16/2021 11:15:00 PM 14.65 58.37 0.3 8.08 4.08 9.2
5/16/2021 11:30:00 PM 14.55 58.19 0.3 8.08 4.07 9.21
5/16/2021 11:45:00 PM 14.45 58.01 0.3 8.07 3.89 9.21
5/17/2021 12:00:00 AM 14.35 57.83 0.3 8.06 4.29 9.21
5/17/2021 12:15:00 AM 14.25 57.65 0.3 8.04 6.04 9.23
5/17/2021 12:30:00 AM 14.14 57.452 0.301 8.04 6.77 9.24
5/17/2021 12:45:00 AM 14.03 57.254 0.301 8.04 4.43 9.26
5/17/2021 1:00:00 AM 13.92 57.056 0.302 8.04 4.66 9.27
5/17/2021 1:15:00 AM 13.81 56.858 0.302 8.03 4.35 9.28
5/17/2021 1:30:00 AM 13.72 56.696 0.302 8.03 4.09 9.3
5/17/2021 1:45:00 AM 13.61 56.498 0.303 8.02 3.85 9.33
5/17/2021 2:00:00 AM 13.51 56.318 0.303 8.01 6.12 9.36
5/17/2021 2:15:00 AM 13.41 56.138 0.303 8 4.18 9.37
5/17/2021 2:30:00 AM 13.31 55.958 0.304 8.02 4.44 9.39
5/17/2021 2:45:00 AM 13.21 55.778 0.304 8.01 4.65 9.42
5/17/2021 3:00:00 AM 13.1 55.58 0.304 8 7.09 9.44
5/17/2021 3:15:00 AM 13 55.4 0.304 8.01 4.25 9.46
5/17/2021 3:30:00 AM 12.9 55.22 0.305 8 4.5 9.48
5/17/2021 3:45:00 AM 12.8 55.04 0.305 7.99 6.32 9.51
5/17/2021 4:00:00 AM 12.7 54.86 0.305 8 4.01 9.51
5/17/2021 4:15:00 AM 12.6 54.68 0.305 8 4.46 9.55
5/17/2021 4:30:00 AM 12.5 54.5 0.305 8 4.4 9.53
5/17/2021 4:45:00 AM 12.42 54.356 0.306 7.99 5.22 9.55
5/17/2021 5:00:00 AM 12.33 54.194 0.306 7.99 4.59 9.54
5/17/2021 5:15:00 AM 12.24 54.032 0.306 7.98 7.19 9.57
5/17/2021 5:30:00 AM 12.15 53.87 0.306 7.98 5.26 9.6
5/17/2021 5:45:00 AM 12.06 53.708 0.306 7.99 4.07 9.66
5/17/2021 6:00:00 AM 11.99 53.582 0.306 7.98 6.84 9.66
5/17/2021 6:15:00 AM 11.91 53.438 0.307 7.99 4.55 9.71
5/17/2021 6:30:00 AM 11.85 53.33 0.307 7.99 6.84 9.77
5/17/2021 6:45:00 AM 11.8 53.24 0.307 8.01 3.71 9.85
5/17/2021 7:00:00 AM 11.76 53.168 0.307 8.02 3.46 9.88
5/17/2021 7:15:00 AM 11.73 53.114 0.307 8.01 5.79 10.01
5/17/2021 7:30:00 AM 11.72 53.096 0.307 8.03 5.41 10.11
5/17/2021 7:45:00 AM 11.71 53.078 0.307 8.04 5.29 10.15
5/17/2021 8:00:00 AM 11.73 53.114 0.307 8.06 5.61 10.27
5/17/2021 8:15:00 AM 11.77 53.186 0.307 8.09 3.45 10.37
5/17/2021 8:30:00 AM 11.82 53.276 0.307 8.11 3.21 10.44
5/17/2021 8:45:00 AM 11.9 53.42 0.307 8.13 3.68 10.53
5/17/2021 9:00:00 AM 12 53.6 0.307 8.15 3.23 10.61
5/17/2021 9:15:00 AM 12.12 53.816 0.306 8.17 3.08 10.71
5/17/2021 9:30:00 AM 12.26 54.068 0.306 8.17 5.84 10.76
5/17/2021 9:45:00 AM 12.42 54.356 0.306 8.2 5.18 10.81
5/17/2021 10:00:00 AM 12.61 54.698 0.306 8.23 2.98 10.88
5/17/2021 10:15:00 AM 12.82 55.076 0.306 8.25 5.22 10.94
5/17/2021 10:30:00 AM 13.06 55.508 0.305 8.26 6.81 10.99
5/17/2021 10:45:00 AM 13.31 55.958 0.305 8.29 4.37 11.03
5/17/2021 11:00:00 AM 13.59 56.462 0.305 8.31 2.97 11.04
5/17/2021 11:15:00 AM 13.89 57.002 0.305 8.34 4.17 11.08
5/17/2021 11:30:00 AM 14.2 57.56 0.305 8.36 10.63 11.09
5/17/2021 11:45:00 AM 14.52 58.136 0.304 8.38 8.45 11.07
5/17/2021 12:00:00 PM 14.85 58.73 0.304 8.4 4 11.1
5/17/2021 12:15:00 PM 15.17 59.306 0.304 8.41 4.25 11.15
5/17/2021 12:30:00 PM 15.5 59.9 0.304 8.44 4.63 11.15
5/17/2021 12:45:00 PM 15.71 60.278 0.304 8.44 3.74 11.07
5/17/2021 1:00:00 PM 15.9 60.62 0.303 8.46 2.89 11.08
5/17/2021 1:15:00 PM 16.11 60.998 0.303 8.47 3.44 11.06
5/17/2021 1:30:00 PM 16.45 61.61 0.303 8.49 24.79 11.05
5/17/2021 1:45:00 PM 16.57 61.826 0.303 8.48 2.99 11.02
5/17/2021 2:00:00 PM 16.93 62.474 0.303 8.52 2.83 11
5/17/2021 2:15:00 PM 17.33 63.194 0.302 8.53 2.95 11.07
5/17/2021 2:30:00 PM 17.61 63.698 0.302 8.55 2.89 11.04
5/17/2021 2:45:00 PM 17.73 63.914 0.302 8.55 2.94 10.99
5/17/2021 3:00:00 PM 18 64.4 0.302 8.56 2.93 10.93
5/17/2021 3:15:00 PM 18.21 64.778 0.302 8.57 3.01 10.96
5/17/2021 3:30:00 PM 18.37 65.066 0.302 8.58 3.03 10.91
5/17/2021 3:45:00 PM 18.43 65.174 0.302 8.59 3.23 10.88
5/17/2021 4:00:00 PM 18.42 65.156 0.302 8.57 3.11 10.77
5/17/2021 4:15:00 PM 18.43 65.174 0.302 8.58 2.99 10.6
5/17/2021 4:30:00 PM 18.26 64.868 0.302 8.56 2.96 10.61
5/17/2021 4:45:00 PM 18.31 64.958 0.302 8.57 3.28 10.5
5/17/2021 5:00:00 PM 18.32 64.976 0.302 8.57 2.9 10.47
5/17/2021 5:15:00 PM 18.24 64.832 0.302 8.56 3.3 10.38
5/17/2021 5:30:00 PM 18.16 64.688 0.302 8.56 3.22 10.3
5/17/2021 5:45:00 PM 18.12 64.616 0.303 8.55 3.17 10.27
5/17/2021 6:00:00 PM 18.03 64.454 0.303 8.54 3.1 10.19
5/17/2021 6:15:00 PM 17.87 64.166 0.303 8.52 3.11 10.04
5/17/2021 6:30:00 PM 17.76 63.968 0.303 8.5 3.06 9.96
5/17/2021 6:45:00 PM 17.64 63.752 0.303 8.48 3.15 9.82
5/17/2021 7:00:00 PM 17.53 63.554 0.303 8.45 3.08 9.7
5/17/2021 7:15:00 PM 17.42 63.356 0.304 8.43 3.11 9.58
5/17/2021 7:30:00 PM 17.29 63.122 0.304 8.39 4.41 9.48
5/17/2021 7:45:00 PM 17.17 62.906 0.304 8.37 3.94 9.38
5/17/2021 8:00:00 PM 17.05 62.69 0.304 8.34 3.22 9.32
5/17/2021 8:15:00 PM 16.94 62.492 0.304 8.32 3.46 9.24
5/17/2021 8:30:00 PM 16.82 62.276 0.305 8.29 3.32 9.17
5/17/2021 8:45:00 PM 16.7 62.06 0.305 8.27 3.7 9.12
5/17/2021 9:00:00 PM 16.58 61.844 0.305 8.24 5.43 9.1
5/17/2021 9:15:00 PM 16.48 61.664 0.305 8.23 3.61 9.07
5/17/2021 9:30:00 PM 16.37 61.466 0.306 8.2 3.72 9.03
5/17/2021 9:45:00 PM 16.27 61.286 0.306 8.19 3.54 8.98
5/17/2021 10:00:00 PM 16.17 61.106 0.306 8.17 3.64 8.98
5/17/2021 10:15:00 PM 16.07 60.926 0.306 8.16 4.2 8.93
5/17/2021 10:30:00 PM 15.97 60.746 0.306 8.14 3.94 8.95
5/17/2021 10:45:00 PM 15.87 60.566 0.307 8.11 6.05 8.95
5/17/2021 11:00:00 PM 15.76 60.368 0.307 8.1 4.12 8.94
5/17/2021 11:15:00 PM 15.66 60.188 0.307 8.1 3.68 8.95
5/17/2021 11:30:00 PM 15.56 60.008 0.308 8.1 4.38 8.94
5/17/2021 11:45:00 PM 15.45 59.81 0.308 8.09 4.36 8.95
5/18/2021 12:00:00 AM 15.34 59.612 0.308 8.07 4.22 8.95
5/18/2021 12:15:00 AM 15.23 59.414 0.309 8.07 4.01 8.98
5/18/2021 12:30:00 AM 15.11 59.198 0.309 8.06 4.14 8.99
5/18/2021 12:45:00 AM 14.99 58.982 0.309 8.05 3.97 9
5/18/2021 1:00:00 AM 14.87 58.766 0.31 8.05 4.4 9.02
5/18/2021 1:15:00 AM 14.76 58.568 0.31 8.04 4.47 9.05
5/18/2021 1:30:00 AM 14.65 58.37 0.31 8.04 4.19 9.06
5/18/2021 1:45:00 AM 14.52 58.136 0.311 8.04 4.05 9.1
5/18/2021 2:00:00 AM 14.4 57.92 0.311 8.03 3.99 9.11
5/18/2021 2:15:00 AM 14.27 57.686 0.311 8.03 4.37 9.13
5/18/2021 2:30:00 AM 14.15 57.47 0.311 8.02 4.53 9.16
5/18/2021 2:45:00 AM 14.03 57.254 0.311 8.01 6.81 9.2
5/18/2021 3:00:00 AM 13.92 57.056 0.312 8.02 4.47 9.21
5/18/2021 3:15:00 AM 13.8 56.84 0.312 8.02 4.36 9.2
5/18/2021 3:30:00 AM 13.69 56.642 0.312 8.01 4.28 9.26
5/18/2021 3:45:00 AM 13.58 56.444 0.312 8.01 4.17 9.29
5/18/2021 4:00:00 AM 13.48 56.264 0.312 8.01 4.16 9.3
5/18/2021 4:15:00 AM 13.38 56.084 0.313 8 4.11 9.33
5/18/2021 4:30:00 AM 13.28 55.904 0.313 7.99 6.53 9.35
5/18/2021 4:45:00 AM 13.18 55.724 0.313 7.99 6.37 9.37
5/18/2021 5:00:00 AM 13.09 55.562 0.313 8 4.72 9.4
5/18/2021 5:15:00 AM 12.99 55.382 0.313 7.98 7.07 9.42
5/18/2021 5:30:00 AM 12.9 55.22 0.314 8 4.31 9.43
5/18/2021 5:45:00 AM 12.81 55.058 0.314 8 5.62 9.44
5/18/2021 6:00:00 AM 12.72 54.896 0.314 8 5.03 9.49
5/18/2021 6:15:00 AM 12.65 54.77 0.314 7.99 6.09 9.55
5/18/2021 6:30:00 AM 12.59 54.662 0.314 7.99 6.39 9.61
5/18/2021 6:45:00 AM 12.54 54.572 0.314 8.02 11.54 9.72
5/18/2021 7:00:00 AM 12.49 54.482 0.314 8.02 7.06 9.8
5/18/2021 7:15:00 AM 12.46 54.428 0.314 8.03 6.24 9.88
5/18/2021 7:30:00 AM 12.45 54.41 0.314 8.04 6.1 9.97
5/18/2021 7:45:00 AM 12.45 54.41 0.314 8.06 5.84 10.04
5/18/2021 8:00:00 AM 12.46 54.428 0.314 8.09 3.48 10.14
5/18/2021 8:15:00 AM 12.5 54.5 0.314 8.1 3.29 10.2
5/18/2021 8:30:00 AM 12.55 54.59 0.314 8.12 3.27 10.29
5/18/2021 8:45:00 AM 12.63 54.734 0.314 8.14 3.28 10.4
5/18/2021 9:00:00 AM 12.73 54.914 0.314 8.16 3.45 10.47
5/18/2021 9:15:00 AM 12.85 55.13 0.314 8.19 3.22 10.58
5/18/2021 9:30:00 AM 13 55.4 0.314 8.21 4.06 10.65
5/18/2021 9:45:00 AM 13.17 55.706 0.313 8.23 3.12 10.71
5/18/2021 10:00:00 AM 13.37 56.066 0.313 8.25 3.3 10.79
5/18/2021 10:15:00 AM 13.59 56.462 0.313 8.27 3.04 10.81
5/18/2021 10:30:00 AM 13.83 56.894 0.313 8.29 3.09 10.89
5/18/2021 10:45:00 AM 14.09 57.362 0.313 8.31 3.06 10.93
5/18/2021 11:00:00 AM 14.37 57.866 0.313 8.34 12.4 10.96
5/18/2021 11:15:00 AM 14.68 58.424 0.313 8.36 15.38 10.99
5/18/2021 11:30:00 AM 15 59 0.312 8.38 14.73 11.02
5/18/2021 11:45:00 AM 15.32 59.576 0.312 8.4 3.11 11.02
5/18/2021 12:00:00 PM 15.64 60.152 0.312 8.42 7.16 11.04
5/18/2021 12:15:00 PM 15.99 60.782 0.312 8.44 3.07 11.05
5/18/2021 12:30:00 PM 16.35 61.43 0.312 8.46 52.11 11.05
5/18/2021 12:45:00 PM 16.71 62.078 0.312 8.48 3.23 11.06
5/18/2021 1:00:00 PM 17.01 62.618 0.312 8.49 2.93 11.04
5/18/2021 1:15:00 PM 17.28 63.104 0.312 8.51 2.95 11.01
5/18/2021 1:30:00 PM 17.55 63.59 0.312 8.52 3.25 10.98
5/18/2021 1:45:00 PM 17.76 63.968 0.312 8.53 3.11 10.95
5/18/2021 2:00:00 PM 18 64.4 0.312 8.54 3 10.96
5/18/2021 2:15:00 PM 18.24 64.832 0.312 8.54 5.48 10.94
5/18/2021 2:30:00 PM 18.44 65.192 0.312 8.55 2.97 10.89
5/18/2021 2:45:00 PM 18.64 65.552 0.311 8.54 5.5 10.86
5/18/2021 3:00:00 PM 18.81 65.858 0.311 8.55 5.54 10.82
5/18/2021 3:15:00 PM 18.97 66.146 0.311 8.58 2.94 10.78
5/18/2021 3:30:00 PM 19.14 66.452 0.311 8.58 3 10.75
5/18/2021 3:45:00 PM 19.28 66.704 0.311 8.58 2.9 10.69
5/18/2021 4:00:00 PM 19.4 66.92 0.312 8.59 4.15 10.64
5/18/2021 4:15:00 PM 19.48 67.064 0.311 8.59 3.02 10.6
5/18/2021 4:30:00 PM 19.54 67.172 0.311 8.59 2.79 10.54
5/18/2021 4:45:00 PM 19.5 67.1 0.311 8.58 5.25 10.42
5/18/2021 5:00:00 PM 19.53 67.154 0.311 8.59 3.03 10.38
5/18/2021 5:15:00 PM 19.52 67.136 0.311 8.59 3.01 10.32
5/18/2021 5:30:00 PM 19.47 67.046 0.311 8.58 2.79 10.22
5/18/2021 5:45:00 PM 19.4 66.92 0.312 8.57 3.47 10.12
5/18/2021 6:00:00 PM 19.31 66.758 0.312 8.55 5.42 9.98
5/18/2021 6:15:00 PM 19.2 66.56 0.312 8.54 3.03 9.87
5/18/2021 6:30:00 PM 19.06 66.308 0.312 8.51 5.83 9.72
5/18/2021 6:45:00 PM 18.89 66.002 0.313 8.49 3.15 9.58
5/18/2021 7:00:00 PM 18.73 65.714 0.313 8.47 3.24 9.45
5/18/2021 7:15:00 PM 18.6 65.48 0.313 8.44 3.01 9.34
5/18/2021 7:30:00 PM 18.48 65.264 0.314 8.41 3.2 9.21
5/18/2021 7:45:00 PM 18.35 65.03 0.314 8.38 3.44 9.1
5/18/2021 8:00:00 PM 18.23 64.814 0.314 8.36 3.42 9.02
5/18/2021 8:15:00 PM 18.11 64.598 0.314 8.33 3.23 8.98
5/18/2021 8:30:00 PM 18 64.4 0.315 8.31 3.41 8.87
5/18/2021 8:45:00 PM 17.89 64.202 0.315 8.29 101.18 8.84
5/18/2021 9:00:00 PM 17.76 63.968 0.315 8.26 5.38 8.78
5/18/2021 9:15:00 PM 17.62 63.716 0.315 8.24 4.37 8.72
5/18/2021 9:30:00 PM 17.49 63.482 0.315 8.22 3.82 8.72
5/18/2021 9:45:00 PM 17.37 63.266 0.316 8.2 4.33 8.7
5/18/2021 10:00:00 PM 17.24 63.032 0.316 8.18 4.05 8.68
5/18/2021 10:15:00 PM 17.12 62.816 0.316 8.17 4.25 8.65
5/18/2021 10:30:00 PM 17 62.6 0.316 8.15 4.08 8.65
5/18/2021 10:45:00 PM 16.88 62.384 0.316 8.14 3.84 8.67
5/18/2021 11:00:00 PM 16.77 62.186 0.316 8.13 4.07 8.66
5/18/2021 11:15:00 PM 16.66 61.988 0.317 8.12 4.22 8.68
5/18/2021 11:30:00 PM 16.55 61.79 0.317 8.1 4.32 8.64
5/18/2021 11:45:00 PM 16.44 61.592 0.317 8.1 3.83 8.65
5/19/2021 12:00:00 AM 16.33 61.394 0.317 8.08 3.94 8.69
5/19/2021 12:15:00 AM 16.22 61.196 0.317 8.08 4.99 8.7
5/19/2021 12:30:00 AM 16.12 61.016 0.318 8.07 4.37 8.71
5/19/2021 12:45:00 AM 16.01 60.818 0.318 8.06 4.42 8.71
5/19/2021 1:00:00 AM 15.91 60.638 0.318 8.06 4.22 8.72
5/19/2021 1:15:00 AM 15.81 60.458 0.318 8.05 4.25 8.76
5/19/2021 1:30:00 AM 15.7 60.26 0.319 8.05 4.28 8.77
5/19/2021 1:45:00 AM 15.59 60.062 0.319 8.04 4.32 8.77
5/19/2021 2:00:00 AM 15.49 59.882 0.319 8.04 4.94 8.79
5/19/2021 2:15:00 AM 15.38 59.684 0.319 8.03 4.6 8.82
5/19/2021 2:30:00 AM 15.28 59.504 0.319 8.03 4.62 8.85
5/19/2021 2:45:00 AM 15.17 59.306 0.319 8.03 4.35 8.87
5/19/2021 3:00:00 AM 15.07 59.126 0.32 8.02 4.48 8.89
5/19/2021 3:15:00 AM 14.96 58.928 0.32 8.01 6.97 8.91
5/19/2021 3:30:00 AM 14.85 58.73 0.32 8.01 4.46 8.94
5/19/2021 3:45:00 AM 14.74 58.532 0.32 8 6.88 8.97
5/19/2021 4:00:00 AM 14.64 58.352 0.321 8.01 4.16 8.97
5/19/2021 4:15:00 AM 14.53 58.154 0.321 8.01 4.56 9.01
5/19/2021 4:30:00 AM 14.42 57.956 0.321 8.01 4.89 9.03
5/19/2021 4:45:00 AM 14.32 57.776 0.321 8.01 4.93 9.05
5/19/2021 5:00:00 AM 14.21 57.578 0.321 8 5.03 9.07
5/19/2021 5:15:00 AM 14.1 57.38 0.322 8 4.44 9.12
5/19/2021 5:30:00 AM 14 57.2 0.322 8 4.56 9.15
5/19/2021 5:45:00 AM 13.9 57.02 0.322 7.99 13.3 9.17
5/19/2021 6:00:00 AM 13.8 56.84 0.322 7.99 7.97 9.2
5/19/2021 6:15:00 AM 13.7 56.66 0.322 8.01 4.15 9.22
5/19/2021 6:30:00 AM 13.62 56.516 0.322 8.01 11.39 9.3
5/19/2021 6:45:00 AM 13.55 56.39 0.322 8.01 8.15 9.42
5/19/2021 7:00:00 AM 13.49 56.282 0.322 8.03 16.83 9.48
5/19/2021 7:15:00 AM 13.45 56.21 0.323 8.05 3.79 9.58
5/19/2021 7:30:00 AM 13.42 56.156 0.323 8.05 6.29 9.69
5/19/2021 7:45:00 AM 13.41 56.138 0.323 8.07 3.65 9.76
5/19/2021 8:00:00 AM 13.41 56.138 0.323 8.09 3.71 9.82
5/19/2021 8:15:00 AM 13.44 56.192 0.323 8.09 6.03 9.95
5/19/2021 8:30:00 AM 13.5 56.3 0.323 8.11 5.99 10.06
5/19/2021 8:45:00 AM 13.57 56.426 0.323 8.14 3.47 10.13
5/19/2021 9:00:00 AM 13.66 56.588 0.324 8.16 3.35 10.22
5/19/2021 9:15:00 AM 13.78 56.804 0.324 8.18 3.16 10.31
5/19/2021 9:30:00 AM 13.92 57.056 0.324 8.2 3.42 10.39
5/19/2021 9:45:00 AM 14.09 57.362 0.324 8.21 60.63 10.47
5/19/2021 10:00:00 AM 14.28 57.704 0.323 8.24 3 10.53
5/19/2021 10:15:00 AM 14.5 58.1 0.323 8.27 3.71 10.61
5/19/2021 10:30:00 AM 14.75 58.55 0.323 8.29 17.37 10.68
5/19/2021 10:45:00 AM 15.02 59.036 0.322 8.31 18.22 10.71
5/19/2021 11:00:00 AM 15.32 59.576 0.322 8.33 9.42 10.77
5/19/2021 11:15:00 AM 15.64 60.152 0.322 8.36 75.55 10.79
5/19/2021 11:30:00 AM 15.98 60.764 0.321 8.37 32.28 10.79
5/19/2021 11:45:00 AM 16.33 61.394 0.321 8.4 18.86 10.83
5/19/2021 12:00:00 PM 16.69 62.042 0.321 8.42 30.83 10.86
5/19/2021 12:15:00 PM 17.05 62.69 0.32 8.44 13.07 10.87
5/19/2021 12:30:00 PM 17.41 63.338 0.32 8.46 3.85 10.87
5/19/2021 12:45:00 PM 17.77 63.986 0.32 8.48 3.33 10.87
5/19/2021 1:00:00 PM 18.11 64.598 0.32 8.49 3.52 10.85
5/19/2021 1:15:00 PM 18.44 65.192 0.319 8.51 3.15 10.86
5/19/2021 1:30:00 PM 18.77 65.786 0.319 8.52 3.2 10.81
5/19/2021 1:45:00 PM 19.09 66.362 0.319 8.53 3.55 10.83
5/19/2021 2:00:00 PM 19.38 66.884 0.319 8.54 3.6 10.77
5/19/2021 2:15:00 PM 19.65 67.37 0.319 8.55 3.37 10.74
5/19/2021 2:30:00 PM 19.92 67.856 0.319 8.55 5.54 10.71
5/19/2021 2:45:00 PM 20.16 68.288 0.319 8.56 5.72 10.66
5/19/2021 3:00:00 PM 20.35 68.63 0.319 8.57 5.61 10.6
5/19/2021 3:15:00 PM 20.54 68.972 0.319 8.58 3.13 10.59
5/19/2021 3:30:00 PM 20.68 69.224 0.319 8.59 3.43 10.53
5/19/2021 3:45:00 PM 20.8 69.44 0.319 8.59 3.08 10.4
5/19/2021 4:00:00 PM 20.85 69.53 0.319 8.6 3.18 10.42
5/19/2021 4:15:00 PM 20.94 69.692 0.319 8.6 3.18 10.31
5/19/2021 4:30:00 PM 21.01 69.818 0.319 8.6 3.35 10.29
5/19/2021 4:45:00 PM 20.97 69.746 0.319 8.59 5.68 10.19
5/19/2021 5:00:00 PM 20.96 69.728 0.319 8.6 3.06 10.17
5/19/2021 5:15:00 PM 20.91 69.638 0.319 8.6 3.4 10.09
5/19/2021 5:30:00 PM 20.84 69.512 0.319 8.58 5.89 9.97
5/19/2021 5:45:00 PM 20.73 69.314 0.319 8.57 5.97 9.85
5/19/2021 6:00:00 PM 20.62 69.116 0.319 8.55 5.74 9.71
5/19/2021 6:15:00 PM 20.49 68.882 0.32 8.54 3.05 9.52
5/19/2021 6:30:00 PM 20.39 68.702 0.32 8.51 3.15 9.28
5/19/2021 6:45:00 PM 20.27 68.486 0.321 8.49 3.26 9.25
5/19/2021 7:00:00 PM 20.18 68.324 0.321 8.47 3.28 9.13
5/19/2021 7:15:00 PM 20.11 68.198 0.321 8.45 3.16 9.03
5/19/2021 7:30:00 PM 20.03 68.054 0.322 8.43 3.81 8.98
5/19/2021 7:45:00 PM 19.93 67.874 0.322 8.4 3.46 8.86
5/19/2021 8:00:00 PM 19.84 67.712 0.322 8.38 3.28 8.73
5/19/2021 8:15:00 PM 19.73 67.514 0.323 8.35 3.25 8.65
5/19/2021 8:30:00 PM 19.61 67.298 0.323 8.32 6.23 8.56
5/19/2021 8:45:00 PM 19.48 67.064 0.323 8.3 3.83 8.49
5/19/2021 9:00:00 PM 19.35 66.83 0.324 8.28 5.08 8.47
5/19/2021 9:15:00 PM 19.22 66.596 0.324 8.25 3.86 8.42
5/19/2021 9:30:00 PM 19.09 66.362 0.324 8.23 3.83 8.38
5/19/2021 9:45:00 PM 18.96 66.128 0.325 8.21 4.38 8.35
5/19/2021 10:00:00 PM 18.85 65.93 0.325 8.19 3.86 8.34
5/19/2021 10:15:00 PM 18.73 65.714 0.325 8.17 4.19 8.31
5/19/2021 10:30:00 PM 18.6 65.48 0.325 8.16 4.19 8.31
5/19/2021 10:45:00 PM 18.48 65.264 0.325 8.14 4.41 8.3
5/19/2021 11:00:00 PM 18.36 65.048 0.325 8.13 3.85 8.29
5/19/2021 11:15:00 PM 18.25 64.85 0.325 8.12 4.26 8.31
5/19/2021 11:30:00 PM 18.13 64.634 0.326 8.1 4.39 8.31
5/19/2021 11:45:00 PM 18.01 64.418 0.326 8.09 4.14 8.3
5/20/2021 12:00:00 AM 17.89 64.202 0.326 8.08 3.98 8.33
5/20/2021 12:15:00 AM 17.77 63.986 0.326 8.08 4.1 8.34
5/20/2021 12:30:00 AM 17.66 63.788 0.326 8.06 7.18 8.36
5/20/2021 12:45:00 AM 17.55 63.59 0.327 8.06 4.42 8.33
5/20/2021 1:00:00 AM 17.44 63.392 0.327 8.05 4.36 8.37
5/20/2021 1:15:00 AM 17.33 63.194 0.327 8.05 3.95 8.38
5/20/2021 1:30:00 AM 17.24 63.032 0.327 8.05 4.27 8.4
5/20/2021 1:45:00 AM 17.14 62.852 0.327 8.03 4.56 8.41
5/20/2021 2:00:00 AM 17.04 62.672 0.328 8.03 6.91 8.46
5/20/2021 2:15:00 AM 16.94 62.492 0.328 8.03 4.24 8.46
5/20/2021 2:30:00 AM 16.83 62.294 0.328 8.03 4.33 8.46
5/20/2021 2:45:00 AM 16.73 62.114 0.329 8.02 4.41 8.5
5/20/2021 3:00:00 AM 16.63 61.934 0.329 8.02 4.01 8.51
5/20/2021 3:15:00 AM 16.54 61.772 0.33 8.02 4.43 8.56
5/20/2021 3:30:00 AM 16.44 61.592 0.33 8.01 4.15 8.56
5/20/2021 3:45:00 AM 16.34 61.412 0.33 8.01 4.39 8.58
5/20/2021 4:00:00 AM 16.25 61.25 0.331 8.01 4.37 8.63
5/20/2021 4:15:00 AM 16.15 61.07 0.331 8 4.23 8.64
5/20/2021 4:30:00 AM 16.06 60.908 0.331 8 4.57 8.66
5/20/2021 4:45:00 AM 15.96 60.728 0.332 8 4.58 8.68
5/20/2021 5:00:00 AM 15.86 60.548 0.332 8 4.57 8.7
5/20/2021 5:15:00 AM 15.76 60.368 0.332 7.99 4.48 8.72
5/20/2021 5:30:00 AM 15.67 60.206 0.333 7.99 4.53 8.74
5/20/2021 5:45:00 AM 15.56 60.008 0.333 7.99 4.49 8.76
5/20/2021 6:00:00 AM 15.47 59.846 0.333 7.99 4.23 8.81
5/20/2021 6:15:00 AM 15.37 59.666 0.334 7.99 4.26 8.85
5/20/2021 6:30:00 AM 15.29 59.522 0.334 8 115.14 8.92
5/20/2021 6:45:00 AM 15.23 59.414 0.334 8.01 14.03 9.01
5/20/2021 7:00:00 AM 15.17 59.306 0.334 8.02 22.76 9.13
5/20/2021 7:15:00 AM 15.13 59.234 0.334 8.03 12.78 9.25
5/20/2021 7:30:00 AM 15.12 59.216 0.334 8.06 20.82 9.4
5/20/2021 7:45:00 AM 15.09 59.162 0.334 8.08 45.74 9.51
5/20/2021 8:00:00 AM 15.09 59.162 0.334 8.1 21.29 9.62
5/20/2021 8:15:00 AM 15.11 59.198 0.334 8.12 9.05 9.77
5/20/2021 8:30:00 AM 15.14 59.252 0.334 8.14 21.23 9.88
5/20/2021 8:45:00 AM 15.21 59.378 0.333 8.17 85.67 10.01
5/20/2021 9:00:00 AM 15.29 59.522 0.333 8.19 31.43 10.1
5/20/2021 9:15:00 AM 15.39 59.702 0.333 8.21 237.18 10.19
5/20/2021 9:30:00 AM 15.49 59.882 0.333 8.23 31.63 10.28
5/20/2021 9:45:00 AM 15.67 60.206 0.332 8.26 24.27 10.37
5/20/2021 10:00:00 AM 15.79 60.422 0.332 8.27 74.65 10.43
5/20/2021 10:15:00 AM 15.99 60.782 0.332 8.3 33.97 10.5
5/20/2021 10:30:00 AM 16.2 61.16 0.331 8.33 23.26 10.56
5/20/2021 10:45:00 AM 16.42 61.556 0.331 8.35 27.95 10.64
5/20/2021 11:00:00 AM 16.72 62.096 0.33 8.38 31.8 10.68
5/20/2021 11:15:00 AM 17.03 62.654 0.33 8.41 13.87 10.76
5/20/2021 11:30:00 AM 17.18 62.924 0.33 8.42 47.18 10.75
5/20/2021 11:45:00 AM 17.52 63.536 0.329 8.45 35.45 10.77
5/20/2021 12:00:00 PM 17.91 64.238 0.329 8.47 49.33 10.77
5/20/2021 12:15:00 PM 18.24 64.832 0.329 8.48 20.42 10.77
5/20/2021 12:30:00 PM 18.51 65.318 0.329 8.5 3.15 10.76
5/20/2021 12:45:00 PM 18.96 66.128 0.328 8.51 2.98 10.76
5/20/2021 1:00:00 PM 19.28 66.704 0.328 8.51 5.67 10.75
5/20/2021 1:15:00 PM 19.62 67.316 0.327 8.52 5.76 10.74
5/20/2021 1:30:00 PM 20.01 68.018 0.327 8.55 3.04 10.74
5/20/2021 1:45:00 PM 20.37 68.666 0.327 8.56 3.12 10.73
5/20/2021 2:00:00 PM 20.71 69.278 0.327 8.58 3.09 10.66
5/20/2021 2:15:00 PM 21.05 69.89 0.326 8.59 2.97 10.65
5/20/2021 2:30:00 PM 21.3 70.34 0.326 8.59 3.26 10.58
5/20/2021 2:45:00 PM 21.57 70.826 0.326 8.6 2.96 10.52
5/20/2021 3:00:00 PM 21.82 71.276 0.326 8.6 3.03 10.49
5/20/2021 3:15:00 PM 21.84 71.312 0.326 8.61 3.12 10.38
5/20/2021 3:30:00 PM 21.94 71.492 0.326 8.61 2.8 10.33
5/20/2021 3:45:00 PM 21.92 71.456 0.325 8.61 2.89 10.27
5/20/2021 4:00:00 PM 21.86 71.348 0.325 8.61 2.97 10.12
5/20/2021 4:15:00 PM 21.79 71.222 0.325 8.61 2.78 10.09
5/20/2021 4:30:00 PM 21.72 71.096 0.326 8.61 3.05 10.06
5/20/2021 4:45:00 PM 21.65 70.97 0.326 8.6 3.14 9.88
5/20/2021 5:00:00 PM 21.65 70.97 0.326 8.59 3.17 9.87
5/20/2021 5:15:00 PM 21.62 70.916 0.326 8.59 2.87 9.78
5/20/2021 5:30:00 PM 21.6 70.88 0.326 8.57 3.22 9.67
5/20/2021 5:45:00 PM 21.65 70.97 0.327 8.58 3.07 9.67
5/20/2021 6:00:00 PM 21.66 70.988 0.326 8.57 3.01 9.6
5/20/2021 6:15:00 PM 21.6 70.88 0.327 8.55 3.01 9.41
5/20/2021 6:30:00 PM 21.56 70.808 0.327 8.54 3.15 9.33
5/20/2021 6:45:00 PM 21.54 70.772 0.328 8.53 4 9.29
5/20/2021 7:00:00 PM 21.45 70.61 0.328 8.5 3.06 9.13
5/20/2021 7:15:00 PM 21.31 70.358 0.329 8.48 3.37 8.92
5/20/2021 7:30:00 PM 21.14 70.052 0.329 8.45 2.98 8.77
5/20/2021 7:45:00 PM 20.99 69.782 0.33 8.42 3.46 8.67
5/20/2021 8:00:00 PM 20.87 69.566 0.33 8.39 3.07 8.52
5/20/2021 8:15:00 PM 20.74 69.332 0.331 8.36 3.31 8.43
5/20/2021 8:30:00 PM 20.63 69.134 0.331 8.33 3.1 8.35
5/20/2021 8:45:00 PM 20.52 68.936 0.332 8.3 4.57 8.26
5/20/2021 9:00:00 PM 20.42 68.756 0.332 8.27 6.72 8.23
5/20/2021 9:15:00 PM 20.3 68.54 0.332 8.25 6.56 8.17
5/20/2021 9:30:00 PM 20.18 68.324 0.332 8.24 3.82 8.13
5/20/2021 9:45:00 PM 20.07 68.126 0.333 8.22 3.83 8.1
5/20/2021 10:00:00 PM 19.95 67.91 0.333 8.2 3.85 8.06
5/20/2021 10:15:00 PM 19.83 67.694 0.333 8.18 4.07 8.08
5/20/2021 10:30:00 PM 19.72 67.496 0.334 8.16 3.94 8.05
5/20/2021 10:45:00 PM 19.6 67.28 0.334 8.15 4.02 8.05
5/20/2021 11:00:00 PM 19.49 67.082 0.334 8.14 4.09 8.05
5/20/2021 11:15:00 PM 19.37 66.866 0.334 8.12 4.01 8.02
5/20/2021 11:30:00 PM 19.26 66.668 0.335 8.11 4.19 8.06
5/20/2021 11:45:00 PM 19.14 66.452 0.335 8.1 4.51 8.06
5/21/2021 12:00:00 AM 19.04 66.272 0.335 8.09 4.26 8.05
5/21/2021 12:15:00 AM 18.93 66.074 0.335 8.08 4.15 8.08
5/21/2021 12:30:00 AM 18.82 65.876 0.335 8.08 4.53 8.09
5/21/2021 12:45:00 AM 18.72 65.696 0.336 8.06 4.29 8.07
5/21/2021 1:00:00 AM 18.62 65.516 0.336 8.06 4.17 8.09
5/21/2021 1:15:00 AM 18.52 65.336 0.336 8.05 4.2 8.11
5/21/2021 1:30:00 AM 18.42 65.156 0.336 8.05 4.36 8.14
5/21/2021 1:45:00 AM 18.33 64.994 0.337 8.04 7.57 8.15
5/21/2021 2:00:00 AM 18.24 64.832 0.337 8.04 4.43 8.17
5/21/2021 2:15:00 AM 18.15 64.67 0.337 8.03 7.42 8.18
5/21/2021 2:30:00 AM 18.05 64.49 0.338 8.03 4.25 8.2
5/21/2021 2:45:00 AM 17.95 64.31 0.338 8.03 4.01 8.22
5/21/2021 3:00:00 AM 17.87 64.166 0.338 8.03 3.97 8.23
5/21/2021 3:15:00 AM 17.78 64.004 0.339 8.03 4.21 8.25
5/21/2021 3:30:00 AM 17.69 63.842 0.339 8.02 4.04 8.23
5/21/2021 3:45:00 AM 17.6 63.68 0.34 8.02 4.19 8.29
5/21/2021 4:00:00 AM 17.51 63.518 0.34 8.02 4.02 8.31
5/21/2021 4:15:00 AM 17.42 63.356 0.341 8.02 4.22 8.33
5/21/2021 4:30:00 AM 17.33 63.194 0.341 8.02 4.1 8.33
5/21/2021 4:45:00 AM 17.25 63.05 0.341 8.01 4.18 8.36
5/21/2021 5:00:00 AM 17.16 62.888 0.342 8.01 4.51 8.39
5/21/2021 5:15:00 AM 17.07 62.726 0.342 8.01 4.08 8.38
5/21/2021 5:30:00 AM 16.98 62.564 0.341 8.01 4.5 8.37
5/21/2021 5:45:00 AM 16.88 62.384 0.343 8.01 4.05 8.39
5/21/2021 6:00:00 AM 16.8 62.24 0.343 8.01 4.2 8.45
5/21/2021 6:15:00 AM 16.73 62.114 0.344 8.01 4.08 8.5
5/21/2021 6:30:00 AM 16.67 62.006 0.344 8.02 4.03 8.55
5/21/2021 6:45:00 AM 16.61 61.898 0.344 8.02 7.1 8.63
5/21/2021 7:00:00 AM 16.58 61.844 0.344 8.04 3.91 8.75
5/21/2021 7:15:00 AM 16.58 61.844 0.344 8.06 3.73 8.9
5/21/2021 7:30:00 AM 16.56 61.808 0.344 8.08 3.72 8.94
5/21/2021 7:45:00 AM 16.56 61.808 0.344 8.1 3.36 9.13
5/21/2021 8:00:00 AM 16.58 61.844 0.344 8.12 3.67 9.24
5/21/2021 8:15:00 AM 16.6 61.88 0.344 8.14 3.5 9.39
5/21/2021 8:30:00 AM 16.62 61.916 0.343 8.16 3.44 9.5
5/21/2021 8:45:00 AM 16.67 62.006 0.343 8.19 3.57 9.66
5/21/2021 9:00:00 AM 16.74 62.132 0.343 8.22 3.19 9.8
5/21/2021 9:15:00 AM 16.79 62.222 0.343 8.24 3.4 9.86
5/21/2021 9:30:00 AM 16.93 62.474 0.342 8.26 3.36 9.98
5/21/2021 9:45:00 AM 17.07 62.726 0.342 8.28 3.26 10.03
5/21/2021 10:00:00 AM 17.16 62.888 0.342 8.3 3.08 10.11
5/21/2021 10:15:00 AM 17.37 63.266 0.342 8.33 3.58 10.22
5/21/2021 10:30:00 AM 17.57 63.626 0.342 8.34 3.14 10.27
5/21/2021 10:45:00 AM 17.72 63.896 0.342 8.35 3.24 10.31
5/21/2021 11:00:00 AM 17.97 64.346 0.341 8.37 3.11 10.32
5/21/2021 11:15:00 AM 18.27 64.886 0.341 8.39 3.05 10.4
5/21/2021 11:30:00 AM 18.6 65.48 0.341 8.41 3.34 10.41
5/21/2021 11:45:00 AM 18.97 66.146 0.34 8.44 3.65 10.48
5/21/2021 12:00:00 PM 19.38 66.884 0.34 8.46 2.94 10.52
5/21/2021 12:15:00 PM 19.82 67.676 0.339 8.48 6.04 10.6
5/21/2021 12:30:00 PM 20 68 0.339 8.5 3.03 10.56
5/21/2021 12:45:00 PM 20.23 68.414 0.338 8.53 2.98 10.59
5/21/2021 1:00:00 PM 20.59 69.062 0.338 8.55 2.96 10.63
5/21/2021 1:15:00 PM 20.99 69.782 0.337 8.57 3.09 10.62
5/21/2021 1:30:00 PM 21.3 70.34 0.337 8.59 2.87 10.62
5/21/2021 1:45:00 PM 21.59 70.862 0.337 8.59 3.09 10.59
5/21/2021 2:00:00 PM 21.86 71.348 0.337 8.6 3.21 10.57
5/21/2021 2:15:00 PM 22.11 71.798 0.336 8.61 3.01 10.54
5/21/2021 2:30:00 PM 22.25 72.05 0.337 8.61 3.07 10.44
5/21/2021 2:45:00 PM 22.2 71.96 0.336 8.6 2.93 10.29
5/21/2021 3:00:00 PM 22.43 72.374 0.337 8.62 2.94 10.38
5/21/2021 3:15:00 PM 22.65 72.77 0.337 8.63 2.98 10.36
5/21/2021 3:30:00 PM 22.74 72.932 0.337 8.62 2.87 10.23
5/21/2021 3:45:00 PM 22.73 72.914 0.337 8.61 2.98 10.21
5/21/2021 4:00:00 PM 22.85 73.13 0.337 8.62 2.88 10.13
5/21/2021 4:15:00 PM 22.95 73.31 0.337 8.63 2.88 10.07
5/21/2021 4:30:00 PM 22.97 73.346 0.336 8.63 3.1 10.07
5/21/2021 4:45:00 PM 22.92 73.256 0.336 8.62 2.99 9.89
5/21/2021 5:00:00 PM 22.89 73.202 0.336 8.62 3.07 9.84
5/21/2021 5:15:00 PM 22.89 73.202 0.336 8.62 3.26 9.65
5/21/2021 5:30:00 PM 22.84 73.112 0.336 8.61 2.76 9.72
5/21/2021 5:45:00 PM 22.78 73.004 0.336 8.6 3.11 9.63
5/21/2021 6:00:00 PM 22.68 72.824 0.337 8.59 2.84 9.49
5/21/2021 6:15:00 PM 22.6 72.68 0.337 8.57 2.91 9.34
5/21/2021 6:30:00 PM 22.52 72.536 0.337 8.55 3.68 9.21
5/21/2021 6:45:00 PM 22.43 72.374 0.338 8.54 3.07 9.1
5/21/2021 7:00:00 PM 22.33 72.194 0.338 8.51 2.91 8.96
5/21/2021 7:15:00 PM 22.23 72.014 0.339 8.49 2.93 8.77
5/21/2021 7:30:00 PM 22.11 71.798 0.339 8.45 2.92 8.62
5/21/2021 7:45:00 PM 22.01 71.618 0.34 8.44 3.23 8.49
5/21/2021 8:00:00 PM 21.93 71.474 0.34 8.41 3.23 8.39
5/21/2021 8:15:00 PM 21.82 71.276 0.339 8.38 3.44 8.28
5/21/2021 8:30:00 PM 21.7 71.06 0.34 8.35 3.65 8.16
5/21/2021 8:45:00 PM 21.56 70.808 0.34 8.32 3.37 8.08
5/21/2021 9:00:00 PM 21.43 70.574 0.34 8.3 3.42 8
5/21/2021 9:15:00 PM 21.31 70.358 0.341 8.27 3.73 7.95
5/21/2021 9:30:00 PM 21.18 70.124 0.341 8.25 3.67 7.89
5/21/2021 9:45:00 PM 21.05 69.89 0.341 8.23 4.61 7.86
5/21/2021 10:00:00 PM 20.92 69.656 0.341 8.21 4.14 7.83
5/21/2021 10:15:00 PM 20.8 69.44 0.342 8.19 3.96 7.83
5/21/2021 10:30:00 PM 20.68 69.224 0.342 8.18 4.01 7.81
5/21/2021 10:45:00 PM 20.57 69.026 0.342 8.16 4.04 7.8
5/21/2021 11:00:00 PM 20.45 68.81 0.342 8.14 4.1 7.82
5/21/2021 11:15:00 PM 20.33 68.594 0.343 8.13 4 7.79
5/21/2021 11:30:00 PM 20.2 68.36 0.343 8.12 4.34 7.8
5/21/2021 11:45:00 PM 20.07 68.126 0.343 8.11 3.97 7.82
5/22/2021 12:00:00 AM 19.95 67.91 0.343 8.1 4.07 7.78
5/22/2021 12:15:00 AM 19.83 67.694 0.344 8.09 3.9 7.84
5/22/2021 12:30:00 AM 19.72 67.496 0.344 8.08 4.15 7.84
5/22/2021 12:45:00 AM 19.59 67.262 0.344 8.07 4.12 7.82
5/22/2021 1:00:00 AM 19.48 67.064 0.344 8.06 4.04 7.85
5/22/2021 1:15:00 AM 19.36 66.848 0.345 8.05 4.47 7.88
5/22/2021 1:30:00 AM 19.24 66.632 0.345 8.05 4.21 7.87
5/22/2021 1:45:00 AM 19.14 66.452 0.345 8.04 4.35 7.91
5/22/2021 2:00:00 AM 19.03 66.254 0.345 8.04 4.38 7.93
5/22/2021 2:15:00 AM 18.92 66.056 0.346 8.03 4.29 7.94
5/22/2021 2:30:00 AM 18.81 65.858 0.346 8.02 8.2 7.96
5/22/2021 2:45:00 AM 18.71 65.67799 0.346 8.02 3.94 7.97
5/22/2021 3:00:00 AM 18.6 65.48 0.347 8.01 8.13 8
5/22/2021 3:15:00 AM 18.5 65.3 0.347 8.02 4.29 8.02
5/22/2021 3:30:00 AM 18.4 65.12 0.347 8.01 4.18 8.01
5/22/2021 3:45:00 AM 18.31 64.958 0.348 8.01 4.22 8.03
5/22/2021 4:00:00 AM 18.23 64.814 0.348 8.01 4.43 8.07
5/22/2021 4:15:00 AM 18.14 64.652 0.348 8 4.13 8.08
5/22/2021 4:30:00 AM 18.05 64.49 0.349 7.99 8.65 8.1
5/22/2021 4:45:00 AM 17.97 64.346 0.349 7.99 10.74 8.1
5/22/2021 5:00:00 AM 17.89 64.202 0.35 7.99 8.01 8.13
5/22/2021 5:15:00 AM 17.79 64.022 0.35 7.99 7.28 8.15
5/22/2021 5:30:00 AM 17.71 63.878 0.35 7.98 8.3 8.15
5/22/2021 5:45:00 AM 17.62 63.716 0.351 7.98 8.27 8.18
5/22/2021 6:00:00 AM 17.54 63.572 0.351 7.98 129.9 8.23
5/22/2021 6:15:00 AM 17.48 63.464 0.351 8 158.16 8.25
5/22/2021 6:30:00 AM 17.42 63.356 0.351 8 10.72 8.37
5/22/2021 6:45:00 AM 17.37 63.266 0.352 8.02 122.67 8.47
5/22/2021 7:00:00 AM 17.34 63.212 0.352 8.03 24.02 8.59
5/22/2021 7:15:00 AM 17.35 63.23 0.352 8.06 41.67 8.75
5/22/2021 7:30:00 AM 17.35 63.23 0.352 8.08 41.34 8.91
5/22/2021 7:45:00 AM 17.34 63.212 0.352 8.1 6.55 9
5/22/2021 8:00:00 AM 17.37 63.266 0.352 8.11 18.48 9.12
5/22/2021 8:15:00 AM 17.42 63.356 0.352 8.15 23.35 9.31
5/22/2021 8:30:00 AM 17.46 63.428 0.352 8.16 202.81 9.4
5/22/2021 8:45:00 AM 17.49 63.482 0.352 8.19 34.33 9.5
5/22/2021 9:00:00 AM 17.57 63.626 0.352 8.21 83.52 9.61
5/22/2021 9:15:00 AM 17.66 63.788 0.352 8.24 19.43 9.7
5/22/2021 9:30:00 AM 17.77 63.986 0.352 8.26 20.93 9.78
5/22/2021 9:45:00 AM 17.84 64.112 0.352 8.27 12.82 9.82
5/22/2021 10:00:00 AM 17.83 64.094 0.352 8.27 27.56 9.76
5/22/2021 10:15:00 AM 17.87 64.166 0.352 8.28 4.53 9.69
5/22/2021 10:30:00 AM 18 64.4 0.352 8.3 6.77 9.84
5/22/2021 10:45:00 AM 18.15 64.67 0.352 8.33 39.79 10.01
5/22/2021 11:00:00 AM 18.35 65.03 0.351 8.35 54.53 10.08
5/22/2021 11:15:00 AM 18.44 65.192 0.351 8.37 21.35 10.13
5/22/2021 11:30:00 AM 18.56 65.408 0.351 8.39 50.86 10.17
5/22/2021 11:45:00 AM 18.68 65.624 0.35 8.41 34.25 10.25
5/22/2021 12:00:00 PM 18.83 65.894 0.35 8.44 3.05 10.4
5/22/2021 12:15:00 PM 18.98 66.164 0.349 8.46 6.18 10.46
5/22/2021 12:30:00 PM 19.09 66.362 0.348 8.49 74.67 10.52
5/22/2021 12:45:00 PM 19.2 66.56 0.348 8.49 11.59 10.49
5/22/2021 1:00:00 PM 19.3 66.74 0.348 8.52 3.24 10.48
5/22/2021 1:15:00 PM 19.39 66.902 0.347 8.53 66.63 10.45
5/22/2021 1:30:00 PM 19.46 67.028 0.347 8.54 37.66 10.48
5/22/2021 1:45:00 PM 19.52 67.136 0.347 8.54 94.65 10.47
5/22/2021 2:00:00 PM 19.63 67.334 0.347 8.56 79.79 10.52
5/22/2021 2:15:00 PM 19.72 67.496 0.347 8.55 15.21 10.46
5/22/2021 2:30:00 PM 19.85 67.73 0.347 8.57 11.83 10.5
5/22/2021 2:45:00 PM 20.03 68.054 0.346 8.58 30.02 10.55
5/22/2021 3:00:00 PM 20.19 68.342 0.346 8.6 24.86 10.59
5/22/2021 3:15:00 PM 20.47 68.846 0.346 8.61 44.36 10.6
5/22/2021 3:30:00 PM 20.57 69.026 0.346 8.61 10.82 10.56
5/22/2021 3:45:00 PM 20.7 69.26 0.345 8.62 15.97 10.51
5/22/2021 4:00:00 PM 20.76 69.368 0.345 8.63 95.77 10.41
5/22/2021 4:15:00 PM 20.72 69.296 0.346 8.62 16.53 10.17
5/22/2021 4:30:00 PM 20.72 69.296 0.346 8.61 26.82 10.07
5/22/2021 4:45:00 PM 20.7 69.26 0.346 8.61 34.03 10.02
5/22/2021 5:00:00 PM 20.62 69.116 0.347 8.59 8.72 9.84
5/22/2021 5:15:00 PM 20.48 68.864 0.348 8.55 2.77 9.6
5/22/2021 5:30:00 PM 20.46 68.828 0.348 8.54 21.94 9.6
5/22/2021 5:45:00 PM 20.43 68.774 0.348 8.53 15.06 9.55
5/22/2021 6:00:00 PM 20.39 68.702 0.348 8.51 2.57 9.4
5/22/2021 6:15:00 PM 20.33 68.594 0.349 8.49 16.68 9.28
5/22/2021 6:30:00 PM 20.31 68.558 0.349 8.48 13.55 9.27
5/22/2021 6:45:00 PM 20.26 68.468 0.349 8.47 14.32 9.18
5/22/2021 7:00:00 PM 20.21 68.378 0.349 8.46 6.23 9.12
5/22/2021 7:15:00 PM 20.15 68.27 0.35 8.44 24.92 8.99
5/22/2021 7:30:00 PM 20.09 68.162 0.35 8.42 15.09 8.87
5/22/2021 7:45:00 PM 20 68 0.35 8.4 13.26 8.74
5/22/2021 8:00:00 PM 19.94 67.892 0.351 8.37 2.53 8.58
5/22/2021 8:15:00 PM 19.87 67.766 0.351 8.34 6.86 8.5
5/22/2021 8:30:00 PM 19.79 67.622 0.351 8.32 2.82 8.4
5/22/2021 8:45:00 PM 19.72 67.496 0.352 8.3 2.94 8.33
5/22/2021 9:00:00 PM 19.65 67.37 0.352 8.27 2.89 8.24
5/22/2021 9:15:00 PM 19.59 67.262 0.352 8.24 6.58 8.18
5/22/2021 9:30:00 PM 19.52 67.136 0.352 8.22 7.28 8.14
5/22/2021 9:45:00 PM 19.46 67.028 0.352 8.2 7 8.11
5/22/2021 10:00:00 PM 19.4 66.92 0.353 8.19 3.41 8.08
5/22/2021 10:15:00 PM 19.33 66.794 0.353 8.17 6.93 8.07
5/22/2021 10:30:00 PM 19.26 66.668 0.353 8.16 7.24 8.05
5/22/2021 10:45:00 PM 19.2 66.56 0.353 8.16 3.14 8.05
5/22/2021 11:00:00 PM 19.15 66.47 0.353 8.15 3.39 8.03
5/22/2021 11:15:00 PM 19.1 66.38 0.353 8.14 3.59 8.04
5/22/2021 11:30:00 PM 19.05 66.29 0.353 8.13 3.28 8.03
5/22/2021 11:45:00 PM 19 66.2 0.353 8.12 3.29 8.01
5/23/2021 12:00:00 AM 18.96 66.128 0.354 8.11 3.33 8.02
5/23/2021 12:15:00 AM 18.91 66.038 0.354 8.11 3.43 8.01
5/23/2021 12:30:00 AM 18.87 65.966 0.354 8.1 3.23 8
5/23/2021 12:45:00 AM 18.82 65.876 0.354 8.09 3.46 8.01
5/23/2021 1:00:00 AM 18.78 65.804 0.354 8.08 3.56 8
5/23/2021 1:15:00 AM 18.74 65.732 0.354 8.08 3.42 8.01
5/23/2021 1:30:00 AM 18.69 65.642 0.354 8.07 3.59 8.01
5/23/2021 1:45:00 AM 18.65 65.57 0.355 8.07 3.53 8
5/23/2021 2:00:00 AM 18.62 65.516 0.355 8.06 3.36 7.99
5/23/2021 2:15:00 AM 18.58 65.444 0.355 8.05 3.47 8.01
5/23/2021 2:30:00 AM 18.55 65.39 0.355 8.05 3.96 8.01
5/23/2021 2:45:00 AM 18.51 65.318 0.355 8.05 3.55 8.02
5/23/2021 3:00:00 AM 18.47 65.246 0.355 8.04 3.78 8.02
5/23/2021 3:15:00 AM 18.44 65.192 0.356 8.04 3.45 8.02
5/23/2021 3:30:00 AM 18.4 65.12 0.356 8.04 4.18 8.03
5/23/2021 3:45:00 AM 18.37 65.066 0.356 8.04 3.67 8.03
5/23/2021 4:00:00 AM 18.34 65.012 0.356 8.04 3.62 8.04
5/23/2021 4:15:00 AM 18.3 64.94 0.356 8.03 3.58 8.04
5/23/2021 4:30:00 AM 18.27 64.886 0.357 8.03 3.55 8.04
5/23/2021 4:45:00 AM 18.24 64.832 0.357 8.03 3.42 8.06
5/23/2021 5:00:00 AM 18.21 64.778 0.357 8.03 3.94 8.04
5/23/2021 5:15:00 AM 18.18 64.724 0.358 8.02 4.66 8.01
5/23/2021 5:30:00 AM 18.14 64.652 0.358 8.02 7.23 8
5/23/2021 5:45:00 AM 18.11 64.598 0.358 8.02 8.68 8.04
5/23/2021 6:00:00 AM 18.08 64.544 0.358 8.02 3.27 8.06
5/23/2021 6:15:00 AM 18.05 64.49 0.359 8.02 3.55 8.09
5/23/2021 6:30:00 AM 18.03 64.454 0.359 8.02 10.49 8.11
5/23/2021 6:45:00 AM 18.01 64.418 0.359 8.03 167.85 8.2
5/23/2021 7:00:00 AM 17.98 64.364 0.359 8.04 49.18 8.22
5/23/2021 7:15:00 AM 17.97 64.346 0.359 8.04 4.09 8.25
5/23/2021 7:30:00 AM 17.97 64.346 0.36 8.06 3.16 8.32
5/23/2021 7:45:00 AM 17.96 64.328 0.36 8.07 3.51 8.39
5/23/2021 8:00:00 AM 17.96 64.328 0.36 8.08 20.22 8.47
5/23/2021 8:15:00 AM 17.97 64.346 0.36 8.09 14.82 8.52
5/23/2021 8:30:00 AM 17.96 64.328 0.36 8.1 29.24 8.6
5/23/2021 8:45:00 AM 17.96 64.328 0.36 8.11 13.6 8.63
5/23/2021 9:00:00 AM 17.99 64.382 0.36 8.13 92.84 8.76
5/23/2021 9:15:00 AM 18.01 64.418 0.36 8.15 24.45 8.84
5/23/2021 9:30:00 AM 18.06 64.508 0.36 8.17 11.15 9.01
5/23/2021 9:45:00 AM 18.19 64.742 0.36 8.2 17.29 9.23
5/23/2021 10:00:00 AM 18.27 64.886 0.359 8.23 25.17 9.37
5/23/2021 10:15:00 AM 18.35 65.03 0.359 8.24 9.1 9.4
5/23/2021 10:30:00 AM 18.6 65.48 0.359 8.29 13.09 9.68
5/23/2021 10:45:00 AM 18.76 65.768 0.358 8.33 10.41 9.89
5/23/2021 11:00:00 AM 18.83 65.894 0.358 8.35 3.09 9.96
5/23/2021 11:15:00 AM 18.92 66.056 0.358 8.37 11.95 9.97
5/23/2021 11:30:00 AM 19.14 66.452 0.357 8.4 2.86 10.1
5/23/2021 11:45:00 AM 19.25 66.65 0.357 8.42 12.52 10.11
5/23/2021 12:00:00 PM 19.31 66.758 0.357 8.43 6.26 10.13
5/23/2021 12:15:00 PM 19.41 66.938 0.358 8.44 2.63 10.07
5/23/2021 12:30:00 PM 19.54 67.172 0.358 8.45 2.74 10.07
5/23/2021 12:45:00 PM 19.52 67.136 0.359 8.44 6.54 9.9
5/23/2021 1:00:00 PM 19.49 67.082 0.36 8.42 6.44 9.69
5/23/2021 1:15:00 PM 19.48 67.064 0.359 8.41 2.61 9.59
5/23/2021 1:30:00 PM 19.55 67.19 0.36 8.4 2.39 9.55
5/23/2021 1:45:00 PM 19.82 67.676 0.359 8.43 2.53 9.78
5/23/2021 2:00:00 PM 19.87 67.766 0.359 8.44 34.71 9.85
5/23/2021 2:15:00 PM 19.95 67.91 0.359 8.44 22.47 9.83
5/23/2021 2:30:00 PM 20 68 0.359 8.44 37.4 9.78
5/23/2021 2:45:00 PM 20.08 68.144 0.358 8.48 58.76 9.9
5/23/2021 3:00:00 PM 20.12 68.216 0.358 8.51 32.26 10.01
5/23/2021 3:15:00 PM 20.07 68.126 0.358 8.5 16.47 9.81
5/23/2021 3:30:00 PM 19.99 67.982 0.358 8.47 30.82 9.57
5/23/2021 3:45:00 PM 19.92 67.856 0.358 8.46 20.58 9.46
5/23/2021 4:00:00 PM 19.85 67.73 0.358 8.46 16.1 9.43
5/23/2021 4:15:00 PM 19.78 67.604 0.358 8.43 91.44 9.31
5/23/2021 4:30:00 PM 19.71 67.478 0.358 8.41 49.3 9.22
5/23/2021 4:45:00 PM 19.65 67.37 0.358 8.4 12.38 9.25
5/23/2021 5:00:00 PM 19.58 67.244 0.359 8.39 19.53 9.21
5/23/2021 5:15:00 PM 19.55 67.19 0.359 8.39 8.22 9.21
5/23/2021 5:30:00 PM 19.54 67.172 0.358 8.4 12.69 9.41
5/23/2021 5:45:00 PM 19.53 67.154 0.358 8.42 130.87 9.48
5/23/2021 6:00:00 PM 19.5 67.1 0.356 8.42 11.64 9.51
5/23/2021 6:15:00 PM 19.51 67.118 0.356 8.43 17.41 9.57
5/23/2021 6:30:00 PM 19.52 67.136 0.356 8.45 19.51 9.64
5/23/2021 6:45:00 PM 19.48 67.064 0.356 8.45 44.6 9.63
5/23/2021 7:00:00 PM 19.41 66.938 0.356 8.45 33.81 9.53
5/23/2021 7:15:00 PM 19.31 66.758 0.356 8.43 14.01 9.41
5/23/2021 7:30:00 PM 19.2 66.56 0.356 8.42 6.31 9.28
5/23/2021 7:45:00 PM 19.08 66.344 0.356 8.4 2.66 9.13
5/23/2021 8:00:00 PM 18.99 66.182 0.357 8.37 2.57 9.01
5/23/2021 8:15:00 PM 18.9 66.02 0.357 8.34 2.68 8.85
5/23/2021 8:30:00 PM 18.8 65.84 0.358 8.31 9.03 8.74
5/23/2021 8:45:00 PM 18.7 65.66 0.358 8.28 2.99 8.63
5/23/2021 9:00:00 PM 18.59 65.462 0.359 8.26 3.27 8.53
5/23/2021 9:15:00 PM 18.47 65.246 0.359 8.23 3.34 8.47
5/23/2021 9:30:00 PM 18.36 65.048 0.359 8.22 3.65 8.42
5/23/2021 9:45:00 PM 18.25 64.85 0.359 8.2 3.86 8.38
5/23/2021 10:00:00 PM 18.12 64.616 0.359 8.19 3.61 8.38
5/23/2021 10:15:00 PM 17.98 64.364 0.359 8.17 3.46 8.38
5/23/2021 10:30:00 PM 17.85 64.13 0.359 8.17 4 8.38
5/23/2021 10:45:00 PM 17.73 63.914 0.359 8.16 3.63 8.37
5/23/2021 11:00:00 PM 17.6 63.68 0.359 8.15 3.5 8.39
5/23/2021 11:15:00 PM 17.46 63.428 0.359 8.14 3.48 8.4
5/23/2021 11:30:00 PM 17.33 63.194 0.359 8.14 3.54 8.41
5/23/2021 11:45:00 PM 17.21 62.978 0.359 8.13 3.57 8.42
5/24/2021 12:00:00 AM 17.09 62.762 0.359 8.13 3.57 8.43
5/24/2021 12:15:00 AM 16.96 62.528 0.359 8.11 3.73 8.45
5/24/2021 12:30:00 AM 16.84 62.312 0.359 8.11 3.8 8.46
5/24/2021 12:45:00 AM 16.72 62.096 0.359 8.11 3.6 8.47
5/24/2021 1:00:00 AM 16.59 61.862 0.36 8.1 3.62 8.49
5/24/2021 1:15:00 AM 16.47 61.646 0.36 8.09 3.77 8.51
5/24/2021 1:30:00 AM 16.34 61.412 0.36 8.09 4.15 8.53
5/24/2021 1:45:00 AM 16.22 61.196 0.36 8.09 3.3 8.55
5/24/2021 2:00:00 AM 16.1 60.98 0.36 8.08 3.48 8.57
5/24/2021 2:15:00 AM 15.96 60.728 0.36 8.08 3.66 8.59
5/24/2021 2:30:00 AM 15.83 60.494 0.36 8.08 3.68 8.63
5/24/2021 2:45:00 AM 15.71 60.278 0.36 8.08 3.93 8.65
5/24/2021 3:00:00 AM 15.58 60.044 0.361 8.07 3.71 8.68
5/24/2021 3:15:00 AM 15.45 59.81 0.361 8.07 3.83 8.71
5/24/2021 3:30:00 AM 15.33 59.594 0.361 8.07 3.65 8.74
5/24/2021 3:45:00 AM 15.21 59.378 0.361 8.07 3.79 8.76
5/24/2021 4:00:00 AM 15.1 59.18 0.361 8.07 3.65 8.8
5/24/2021 4:15:00 AM 14.99 58.982 0.361 8.07 3.8 8.84
5/24/2021 4:30:00 AM 14.87 58.766 0.362 8.07 3.74 8.86
5/24/2021 4:45:00 AM 14.75 58.55 0.362 8.06 6.56 8.87
5/24/2021 5:00:00 AM 14.62 58.316 0.362 8.06 3.91 8.9
5/24/2021 5:15:00 AM 14.52 58.136 0.362 8.06 4 8.92
5/24/2021 5:30:00 AM 14.42 57.956 0.362 8.06 284.52 8.93
5/24/2021 5:45:00 AM 14.33 57.794 0.363 8.06 13.76 8.95
5/24/2021 6:00:00 AM 14.25 57.65 0.363 8.06 15.68 8.99
5/24/2021 6:15:00 AM 14.19 57.542 0.363 8.07 23.19 9.07
5/24/2021 6:30:00 AM 14.12 57.416 0.362 8.07 71.04 9.1
5/24/2021 6:45:00 AM 14.06 57.308 0.362 8.08 3.32 9.24
5/24/2021 7:00:00 AM 14.01 57.218 0.362 8.09 3.17 9.36
5/24/2021 7:15:00 AM 13.98 57.164 0.362 8.11 2.87 9.43
5/24/2021 7:30:00 AM 13.95 57.11 0.362 8.13 3.67 9.6
5/24/2021 7:45:00 AM 13.95 57.11 0.36 8.14 3.36 9.68
5/24/2021 8:00:00 AM 13.94 57.092 0.361 8.16 98.97 9.84
5/24/2021 8:15:00 AM 13.96 57.128 0.361 8.18 52.26 9.94
5/24/2021 8:30:00 AM 14.02 57.236 0.361 8.21 3.63 10.06
5/24/2021 8:45:00 AM 14.08 57.344 0.361 8.23 3.03 10.18
5/24/2021 9:00:00 AM 14.15 57.47 0.361 8.25 2.67 10.29
5/24/2021 9:15:00 AM 14.24 57.632 0.36 8.27 341.07 10.39
5/24/2021 9:30:00 AM 14.35 57.83 0.36 8.29 33.5 10.37
5/24/2021 9:45:00 AM 14.47 58.046 0.36 8.31 16.83 10.57
5/24/2021 10:00:00 AM 14.63 58.334 0.359 8.33 10.59 10.66
5/24/2021 10:15:00 AM 14.84 58.712 0.359 8.34 11.29 10.7
5/24/2021 10:30:00 AM 15.07 59.126 0.358 8.37 2.36 10.77
5/24/2021 10:45:00 AM 15.3 59.54 0.358 8.39 27.03 10.83
5/24/2021 11:00:00 AM 15.55 59.99 0.357 8.41 47.85 10.89
5/24/2021 11:15:00 AM 15.87 60.566 0.357 8.43 24.7 10.92
5/24/2021 11:30:00 AM 16.2 61.16 0.356 8.44 12.9 10.89
5/24/2021 11:45:00 AM 16.55 61.79 0.356 8.45 6.78 10.9
5/24/2021 12:00:00 PM 16.92 62.456 0.355 8.49 73.42 10.95
5/24/2021 12:15:00 PM 17.32 63.176 0.354 8.5 24.44 10.94
5/24/2021 12:30:00 PM 17.7 63.86 0.354 8.52 68.56 10.93
5/24/2021 12:45:00 PM 18.07 64.526 0.354 8.54 29.13 10.96
5/24/2021 1:00:00 PM 18.43 65.174 0.353 8.55 18.28 10.9
5/24/2021 1:15:00 PM 18.81 65.858 0.353 8.56 109.93 10.89
5/24/2021 1:30:00 PM 19.14 66.452 0.353 8.58 2.88 10.93
5/24/2021 1:45:00 PM 19.48 67.064 0.353 8.59 2.61 10.93
5/24/2021 2:00:00 PM 19.79 67.622 0.353 8.6 2.41 10.89
5/24/2021 2:15:00 PM 20.08 68.144 0.354 8.61 6.2 10.88
5/24/2021 2:30:00 PM 20.35 68.63 0.354 8.62 2.24 10.86
5/24/2021 2:45:00 PM 20.63 69.134 0.353 8.63 2.32 10.84
5/24/2021 3:00:00 PM 20.83 69.494 0.353 8.64 2.15 10.79
5/24/2021 3:15:00 PM 21.06 69.908 0.354 8.64 2.22 10.74
5/24/2021 3:30:00 PM 21.24 70.232 0.353 8.65 2.23 10.76
5/24/2021 3:45:00 PM 21.33 70.394 0.353 8.65 2.35 10.68
5/24/2021 4:00:00 PM 21.42 70.556 0.354 8.65 2.38 10.59
5/24/2021 4:15:00 PM 21.47 70.646 0.354 8.65 2.28 10.53
5/24/2021 4:30:00 PM 21.52 70.736 0.354 8.65 5.28 10.44
5/24/2021 4:45:00 PM 21.5 70.7 0.354 8.65 2.26 10.36
5/24/2021 5:00:00 PM 21.47 70.646 0.354 8.63 2.49 10.11
5/24/2021 5:15:00 PM 21.39 70.502 0.354 8.62 3.06 10.21
5/24/2021 5:30:00 PM 21.3 70.34 0.355 8.62 2.49 10.08
5/24/2021 5:45:00 PM 21.17 70.106 0.355 8.6 2.45 9.94
5/24/2021 6:00:00 PM 21.01 69.818 0.356 8.58 2.53 9.82
5/24/2021 6:15:00 PM 20.83 69.494 0.356 8.56 2.61 9.63
5/24/2021 6:30:00 PM 20.65 69.17 0.357 8.53 2.64 9.47
5/24/2021 6:45:00 PM 20.45 68.81 0.358 8.5 2.61 9.3
5/24/2021 7:00:00 PM 20.26 68.468 0.359 8.47 2.39 9.14
5/24/2021 7:15:00 PM 20.07 68.126 0.36 8.43 5.95 8.96
5/24/2021 7:30:00 PM 19.9 67.82 0.36 8.4 2.46 8.8
5/24/2021 7:45:00 PM 19.75 67.55 0.361 8.37 6.18 8.71
5/24/2021 8:00:00 PM 19.6 67.28 0.362 8.35 6.04 8.62
5/24/2021 8:15:00 PM 19.48 67.064 0.362 8.34 2.52 8.54
5/24/2021 8:30:00 PM 19.38 66.884 0.362 8.31 6 8.46
5/24/2021 8:45:00 PM 19.28 66.704 0.362 8.3 2.57 8.39
5/24/2021 9:00:00 PM 19.16 66.488 0.363 8.28 2.81 8.35
5/24/2021 9:15:00 PM 19.05 66.29 0.363 8.27 2.86 8.31
5/24/2021 9:30:00 PM 18.93 66.074 0.363 8.25 3.06 8.27
5/24/2021 9:45:00 PM 18.82 65.876 0.363 8.24 3.19 8.24
5/24/2021 10:00:00 PM 18.69 65.642 0.362 8.22 3.1 8.21
5/24/2021 10:15:00 PM 18.56 65.408 0.363 8.21 3.4 8.21
5/24/2021 10:30:00 PM 18.44 65.192 0.363 8.2 3.2 8.21
5/24/2021 10:45:00 PM 18.32 64.976 0.363 8.19 2.85 8.21
5/24/2021 11:00:00 PM 18.22 64.796 0.363 8.18 3.07 8.21
5/24/2021 11:15:00 PM 18.13 64.634 0.363 8.17 3.44 8.21
5/24/2021 11:30:00 PM 18.02 64.436 0.364 8.16 3.15 8.22
5/24/2021 11:45:00 PM 17.93 64.274 0.364 8.16 3.08 8.22
5/25/2021 12:00:00 AM 17.85 64.13 0.364 8.15 3.26 8.23
5/25/2021 12:15:00 AM 17.76 63.968 0.364 8.14 3.35 8.23
5/25/2021 12:30:00 AM 17.69 63.842 0.364 8.14 3.43 8.24
5/25/2021 12:45:00 AM 17.61 63.698 0.365 8.13 3.48 8.25
5/25/2021 1:00:00 AM 17.52 63.536 0.365 8.12 3.37 8.26
5/25/2021 1:15:00 AM 17.45 63.41 0.365 8.12 7.48 8.27
5/25/2021 1:30:00 AM 17.37 63.266 0.365 8.12 3.38 8.29
5/25/2021 1:45:00 AM 17.29 63.122 0.366 8.11 3.5 8.29
5/25/2021 2:00:00 AM 17.21 62.978 0.366 8.11 3.29 8.31
5/25/2021 2:15:00 AM 17.14 62.852 0.366 8.1 3.28 8.31
5/25/2021 2:30:00 AM 17.06 62.708 0.366 8.1 3.27 8.32
5/25/2021 2:45:00 AM 16.99 62.582 0.367 8.1 3.25 8.34
5/25/2021 3:00:00 AM 16.93 62.474 0.367 8.09 3.52 8.36
5/25/2021 3:15:00 AM 16.85 62.33 0.367 8.09 3.26 8.37
5/25/2021 3:30:00 AM 16.78 62.204 0.367 8.09 3.42 8.38
5/25/2021 3:45:00 AM 16.73 62.114 0.368 8.08 3.26 8.39
5/25/2021 4:00:00 AM 16.67 62.006 0.368 8.08 3.47 8.41
5/25/2021 4:15:00 AM 16.61 61.898 0.368 8.08 3.53 8.41
5/25/2021 4:30:00 AM 16.56 61.808 0.368 8.08 3.47 8.43
5/25/2021 4:45:00 AM 16.51 61.718 0.368 8.08 4.22 8.44
5/25/2021 5:00:00 AM 16.46 61.628 0.368 8.07 3.26 8.41
5/25/2021 5:15:00 AM 16.41 61.538 0.369 8.07 3.68 8.42
5/25/2021 5:30:00 AM 16.36 61.448 0.369 8.07 3.67 8.42
5/25/2021 5:45:00 AM 16.31 61.358 0.369 8.06 7.15 8.44
5/25/2021 6:00:00 AM 16.26 61.268 0.369 8.06 3.15 8.47
5/25/2021 6:15:00 AM 16.22 61.196 0.369 8.07 13.32 8.5
5/25/2021 6:30:00 AM 16.18 61.124 0.369 8.08 11.75 8.54
5/25/2021 6:45:00 AM 16.14 61.052 0.369 8.08 40.22 8.6
5/25/2021 7:00:00 AM 16.13 61.034 0.369 8.09 47.03 8.67
5/25/2021 7:15:00 AM 16.11 60.998 0.369 8.1 19.92 8.76
5/25/2021 7:30:00 AM 16.11 60.998 0.369 8.12 68.2 8.91
5/25/2021 7:45:00 AM 16.11 60.998 0.369 8.14 279.62 9.04
5/25/2021 8:00:00 AM 16.11 60.998 0.369 8.15 21.28 9.11
5/25/2021 8:15:00 AM 16.12 61.016 0.369 8.17 43.58 9.26
5/25/2021 8:30:00 AM 16.12 61.016 0.369 8.17 14.44 9.33
5/25/2021 8:45:00 AM 16.13 61.034 0.369 8.2 10.19 9.39
5/25/2021 9:00:00 AM 16.14 61.052 0.369 8.22 16.62 9.51
5/25/2021 9:15:00 AM 16.18 61.124 0.369 8.24 140.36 9.64
5/25/2021 9:30:00 AM 16.26 61.268 0.369 8.27 113.62 9.82
5/25/2021 9:45:00 AM 16.4 61.52 0.368 8.3 111.12 10.03
5/25/2021 10:00:00 AM 16.5 61.7 0.368 8.33 68.57 10.18
5/25/2021 10:15:00 AM 16.68 62.024 0.368 8.35 252.7 10.31
5/25/2021 10:30:00 AM 16.92 62.456 0.367 8.38 3.16 10.43
5/25/2021 10:45:00 AM 17.07 62.726 0.367 8.4 46.07 10.49
5/25/2021 11:00:00 AM 17.33 63.194 0.367 8.43 79.01 10.64
5/25/2021 11:15:00 AM 17.66 63.788 0.366 8.47 99.3 10.79
5/25/2021 11:30:00 AM 17.96 64.328 0.366 8.48 165.41 10.78
5/25/2021 11:45:00 AM 18.25 64.85 0.366 8.49 21.22 10.77
5/25/2021 12:00:00 PM 18.59 65.462 0.367 8.52 2.37 10.82
5/25/2021 12:15:00 PM 18.97 66.146 0.366 8.54 2.26 10.86
5/25/2021 12:30:00 PM 19.33 66.794 0.366 8.55 2.37 10.83
5/25/2021 12:45:00 PM 19.67 67.406 0.366 8.56 2.46 10.87
5/25/2021 1:00:00 PM 20.02 68.036 0.366 8.57 2.27 10.81
5/25/2021 1:15:00 PM 20.4 68.72 0.365 8.59 2.38 10.86
5/25/2021 1:30:00 PM 20.78 69.404 0.365 8.6 2.32 10.75
5/25/2021 1:45:00 PM 21.16 70.088 0.365 8.62 2.57 10.84
5/25/2021 2:00:00 PM 21.53 70.754 0.364 8.63 2.28 10.81
5/25/2021 2:15:00 PM 21.88 71.384 0.364 8.64 2.1 10.82
5/25/2021 2:30:00 PM 22.02 71.636 0.363 8.65 2.08 10.73
5/25/2021 2:45:00 PM 22.21 71.978 0.363 8.66 3.34 10.73
5/25/2021 3:00:00 PM 22.3 72.14 0.363 8.67 2.27 10.67
5/25/2021 3:15:00 PM 22.51 72.518 0.363 8.68 7.98 10.68
5/25/2021 3:30:00 PM 22.74 72.932 0.362 8.69 2.13 10.71
5/25/2021 3:45:00 PM 22.83 73.094 0.362 8.69 2.96 10.63
5/25/2021 4:00:00 PM 22.91 73.238 0.362 8.69 1.97 10.52
5/25/2021 4:15:00 PM 22.96 73.328 0.362 8.68 2.25 10.44
5/25/2021 4:30:00 PM 23.08 73.544 0.362 8.69 2.89 10.41
5/25/2021 4:45:00 PM 23.18 73.724 0.362 8.69 2.15 10.35
5/25/2021 5:00:00 PM 23.17 73.706 0.362 8.68 3.37 10.27
5/25/2021 5:15:00 PM 23.13 73.634 0.362 8.67 2.54 10.12
5/25/2021 5:30:00 PM 23 73.4 0.363 8.65 2.42 9.88
5/25/2021 5:45:00 PM 22.84 73.112 0.364 8.63 2.36 9.64
5/25/2021 6:00:00 PM 22.72 72.896 0.364 8.6 2.56 9.43
5/25/2021 6:15:00 PM 22.62 72.716 0.365 8.59 2.44 9.33
5/25/2021 6:30:00 PM 22.48 72.464 0.366 8.55 2.31 9.09
5/25/2021 6:45:00 PM 22.31 72.158 0.367 8.5 2.44 8.75
5/25/2021 7:00:00 PM 22.14 71.852 0.368 8.45 2.18 8.54
5/25/2021 7:15:00 PM 22.01 71.618 0.369 8.42 2.27 8.39
5/25/2021 7:30:00 PM 21.9 71.42 0.369 8.4 2.35 8.29
5/25/2021 7:45:00 PM 21.81 71.258 0.37 8.36 2.33 8.16
5/25/2021 8:00:00 PM 21.74 71.132 0.37 8.33 2.47 8.06
5/25/2021 8:15:00 PM 21.66 70.988 0.371 8.31 2.44 7.96
5/25/2021 8:30:00 PM 21.57 70.826 0.371 8.28 2.52 7.87
5/25/2021 8:45:00 PM 21.47 70.646 0.371 8.26 2.8 7.82
5/25/2021 9:00:00 PM 21.37 70.466 0.372 8.24 2.78 7.77
5/25/2021 9:15:00 PM 21.27 70.286 0.372 8.22 2.88 7.73
5/25/2021 9:30:00 PM 21.17 70.106 0.372 8.21 3.12 7.71
5/25/2021 9:45:00 PM 21.07 69.926 0.372 8.19 3.14 7.67
5/25/2021 10:00:00 PM 20.97 69.746 0.372 8.18 3.64 7.65
5/25/2021 10:15:00 PM 20.86 69.548 0.372 8.17 3.13 7.64
5/25/2021 10:30:00 PM 20.75 69.35 0.373 8.16 3.59 7.64
5/25/2021 10:45:00 PM 20.65 69.17 0.373 8.15 3.26 7.63
5/25/2021 11:00:00 PM 20.55 68.99 0.373 8.14 3.29 7.63
5/25/2021 11:15:00 PM 20.46 68.828 0.373 8.14 3.13 7.63
5/25/2021 11:30:00 PM 20.37 68.666 0.373 8.13 3.44 7.63
5/25/2021 11:45:00 PM 20.28 68.504 0.373 8.12 3.26 7.64
5/26/2021 12:00:00 AM 20.19 68.342 0.373 8.11 3.38 7.64
5/26/2021 12:15:00 AM 20.11 68.198 0.373 8.11 3.42 7.65
5/26/2021 12:30:00 AM 20.03 68.054 0.373 8.1 3.81 7.65
5/26/2021 12:45:00 AM 19.95 67.91 0.373 8.1 3.35 7.67
5/26/2021 1:00:00 AM 19.87 67.766 0.374 8.09 7.88 7.66
5/26/2021 1:15:00 AM 19.78 67.604 0.374 8.09 2.99 7.69
5/26/2021 1:30:00 AM 19.69 67.442 0.374 8.09 3.5 7.7
5/26/2021 1:45:00 AM 19.6 67.28 0.374 8.08 3.52 7.71
5/26/2021 2:00:00 AM 19.51 67.118 0.374 8.08 3.28 7.72
5/26/2021 2:15:00 AM 19.42 66.956 0.374 8.08 3.29 7.73
5/26/2021 2:30:00 AM 19.33 66.794 0.374 8.07 3.29 7.75
5/26/2021 2:45:00 AM 19.24 66.632 0.374 8.07 3.58 7.76
5/26/2021 3:00:00 AM 19.16 66.488 0.374 8.07 3.79 7.77
5/26/2021 3:15:00 AM 19.07 66.326 0.374 8.07 3.41 7.79
5/26/2021 3:30:00 AM 18.99 66.182 0.375 8.07 3.37 7.8
5/26/2021 3:45:00 AM 18.91 66.038 0.375 8.06 3.53 7.83
5/26/2021 4:00:00 AM 18.84 65.912 0.375 8.06 3.16 7.83
5/26/2021 4:15:00 AM 18.76 65.768 0.375 8.06 3.76 7.85
5/26/2021 4:30:00 AM 18.7 65.66 0.375 8.06 3.59 7.86
5/26/2021 4:45:00 AM 18.63 65.534 0.375 8.06 3.3 7.88
5/26/2021 5:00:00 AM 18.57 65.426 0.376 8.04 10.59 7.86
5/26/2021 5:15:00 AM 18.51 65.318 0.376 8.04 4.08 7.82
5/26/2021 5:30:00 AM 18.44 65.192 0.376 8.04 3.36 7.85
5/26/2021 5:45:00 AM 18.38 65.084 0.376 8.04 4.04 7.88
5/26/2021 6:00:00 AM 18.33 64.994 0.376 8.05 3.32 7.92
5/26/2021 6:15:00 AM 18.28 64.904 0.376 8.05 3.17 8
5/26/2021 6:30:00 AM 18.24 64.832 0.376 8.06 2.98 8.11
5/26/2021 6:45:00 AM 18.21 64.778 0.376 8.07 2.96 8.18
5/26/2021 7:00:00 AM 18.17 64.706 0.377 8.08 2.91 8.23
5/26/2021 7:15:00 AM 18.17 64.706 0.376 8.1 3.01 8.38
5/26/2021 7:30:00 AM 18.18 64.724 0.376 8.12 3.05 8.54
5/26/2021 7:45:00 AM 18.18 64.724 0.376 8.13 2.94 8.65
5/26/2021 8:00:00 AM 18.22 64.796 0.376 8.16 3.05 8.78
5/26/2021 8:15:00 AM 18.28 64.904 0.376 8.18 2.67 8.95
5/26/2021 8:30:00 AM 18.33 64.994 0.376 8.21 2.78 9.09
5/26/2021 8:45:00 AM 18.41 65.138 0.376 8.23 2.86 9.19
5/26/2021 9:00:00 AM 18.5 65.3 0.376 8.25 2.56 9.29
5/26/2021 9:15:00 AM 18.6 65.48 0.375 8.27 2.54 9.39
5/26/2021 9:30:00 AM 18.72 65.696 0.375 8.29 3.13 9.51
5/26/2021 9:45:00 AM 18.86 65.948 0.375 8.32 2.51 9.66
5/26/2021 10:00:00 AM 19.02 66.236 0.375 8.34 2.45 9.77
5/26/2021 10:15:00 AM 19.23 66.614 0.375 8.36 2.62 9.88
5/26/2021 10:30:00 AM 19.48 67.064 0.374 8.39 3.24 10.02
5/26/2021 10:45:00 AM 19.7 67.46 0.374 8.41 3.73 10.1
5/26/2021 11:00:00 AM 19.99 67.982 0.374 8.44 2.45 10.23
5/26/2021 11:15:00 AM 20.19 68.342 0.373 8.47 2.98 10.29
5/26/2021 11:30:00 AM 20.5 68.9 0.373 8.5 2.79 10.39
5/26/2021 11:45:00 AM 20.83 69.494 0.372 8.52 2.25 10.49
5/26/2021 12:00:00 PM 21.18 70.124 0.372 8.55 2.55 10.6
5/26/2021 12:15:00 PM 21.52 70.736 0.372 8.58 2.38 10.62
5/26/2021 12:30:00 PM 21.9 71.42 0.371 8.6 2.42 10.63
5/26/2021 12:45:00 PM 22.11 71.798 0.371 8.6 8.51 10.53
5/26/2021 1:00:00 PM 22.42 72.356 0.371 8.61 2.4 10.52
5/26/2021 1:15:00 PM 22.64 72.752 0.371 8.62 2.79 10.5
5/26/2021 1:30:00 PM 22.88 73.184 0.371 8.64 2.06 10.47
5/26/2021 1:45:00 PM 23.14 73.652 0.371 8.65 2.14 10.52
5/26/2021 2:00:00 PM 23.3 73.94 0.371 8.65 2.29 10.41
5/26/2021 2:15:00 PM 23.36 74.048 0.371 8.65 8.58 10.2
5/26/2021 2:30:00 PM 23.13 73.634 0.372 8.61 5.04 9.66
5/26/2021 2:45:00 PM 22.82 73.076 0.365 8.58 5.33 9.2
5/26/2021 3:00:00 PM 22.66 72.788 0.365 8.54 3.33 8.88
5/26/2021 3:15:00 PM 22.49 72.482 0.365 8.51 4.09 8.7
5/26/2021 3:30:00 PM 22.27 72.086 0.366 8.46 3.77 8.56
5/26/2021 3:45:00 PM 22.07 71.726 0.365 8.41 4.27 8.53
5/26/2021 4:00:00 PM 21.87 71.366 0.364 8.37 4.44 8.47
5/26/2021 4:15:00 PM 21.73 71.114 0.363 8.34 4.23 8.52
5/26/2021 4:30:00 PM 21.65 70.97 0.363 8.34 4.35 8.58
5/26/2021 4:45:00 PM 21.66 70.988 0.364 8.37 4.1 8.84
5/26/2021 5:00:00 PM 21.69 71.042 0.365 8.39 6.05 8.98
5/26/2021 5:15:00 PM 21.64 70.952 0.369 8.4 4.04 9.02
5/26/2021 5:30:00 PM 21.58 70.844 0.373 8.4 4.07 8.95
5/26/2021 5:45:00 PM 21.6 70.88 0.373 8.43 4.5 9.05
5/26/2021 6:00:00 PM 21.65 70.97 0.373 8.45 7.33 9.21
5/26/2021 6:15:00 PM 21.55 70.79 0.372 8.43 4.28 8.99
5/26/2021 6:30:00 PM 21.46 70.628 0.371 8.39 4.67 8.69
5/26/2021 6:45:00 PM 21.38 70.484 0.37 8.37 7.4 8.57
5/26/2021 7:00:00 PM 21.32 70.376 0.369 8.36 4.2 8.52
5/26/2021 7:15:00 PM 21.29 70.32201 0.368 8.34 6.78 8.52
5/26/2021 7:30:00 PM 21.24 70.232 0.368 8.32 3.74 8.44
5/26/2021 7:45:00 PM 21.17 70.106 0.368 8.29 4.18 8.33
5/26/2021 8:00:00 PM 21.08 69.944 0.368 8.26 3.82 8.21
5/26/2021 8:15:00 PM 21.01 69.818 0.368 8.24 3.95 8.12
5/26/2021 8:30:00 PM 20.94 69.692 0.368 8.23 4.73 8.04
5/26/2021 8:45:00 PM 20.86 69.548 0.368 8.21 4.21 7.98
5/26/2021 9:00:00 PM 20.78 69.404 0.368 8.18 4.39 7.87
5/26/2021 9:15:00 PM 20.7 69.26 0.368 8.16 4.44 7.79
5/26/2021 9:30:00 PM 20.62 69.116 0.368 8.15 4.76 7.74
5/26/2021 9:45:00 PM 20.54 68.972 0.368 8.13 4.93 7.72
5/26/2021 10:00:00 PM 20.47 68.846 0.368 8.12 5 7.68
5/26/2021 10:15:00 PM 20.38 68.684 0.368 8.11 4.65 7.68
5/26/2021 10:30:00 PM 20.28 68.504 0.367 8.1 5.49 7.67
5/26/2021 10:45:00 PM 20.2 68.36 0.367 8.09 5.16 7.67
5/26/2021 11:00:00 PM 20.12 68.216 0.366 8.08 4.65 7.66
5/26/2021 11:15:00 PM 20.03 68.054 0.366 8.07 8.68 7.66
5/26/2021 11:30:00 PM 19.95 67.91 0.365 8.06 4.9 7.66
5/26/2021 11:45:00 PM 19.86 67.748 0.364 8.06 4.97 7.65
5/27/2021 12:00:00 AM 19.76 67.568 0.364 8.05 5.24 7.65
5/27/2021 12:15:00 AM 19.67 67.406 0.363 8.04 4.97 7.65
5/27/2021 12:30:00 AM 19.6 67.28 0.362 8.04 4.76 7.66
5/27/2021 12:45:00 AM 19.53 67.154 0.362 8.03 4.97 7.65
5/27/2021 1:00:00 AM 19.45 67.01 0.362 8.03 4.93 7.67
5/27/2021 1:15:00 AM 19.37 66.866 0.361 8.02 5.36 7.68
5/27/2021 1:30:00 AM 19.3 66.74 0.361 8.02 5.03 7.69
5/27/2021 1:45:00 AM 19.23 66.614 0.361 8.02 5.88 7.71
5/27/2021 2:00:00 AM 19.15 66.47 0.361 8.02 4.57 7.72
5/27/2021 2:15:00 AM 19.06 66.308 0.362 8.02 4.71 7.73
5/27/2021 2:30:00 AM 18.98 66.164 0.362 8.02 4.69 7.75
5/27/2021 2:45:00 AM 18.89 66.002 0.361 8.01 4.77 7.77
5/27/2021 3:00:00 AM 18.8 65.84 0.361 8.01 5.16 7.79
5/27/2021 3:15:00 AM 18.7 65.66 0.361 8.01 4.56 7.81
5/27/2021 3:30:00 AM 18.61 65.498 0.361 8.01 4.34 7.82
5/27/2021 3:45:00 AM 18.52 65.336 0.361 8.01 4.71 7.84
5/27/2021 4:00:00 AM 18.43 65.174 0.361 8.01 4.18 7.86
5/27/2021 4:15:00 AM 18.34 65.012 0.361 8.01 4.47 7.88
5/27/2021 4:30:00 AM 18.24 64.832 0.361 8.01 4.79 7.89
5/27/2021 4:45:00 AM 18.14 64.652 0.361 8.01 6.59 7.91
5/27/2021 5:00:00 AM 18.04 64.472 0.361 8.01 5.8 7.86
5/27/2021 5:15:00 AM 17.93 64.274 0.361 8.01 5.48 7.93
5/27/2021 5:30:00 AM 17.82 64.076 0.361 8.01 5.76 7.96
5/27/2021 5:45:00 AM 17.71 63.878 0.361 8.01 5.32 7.99
5/27/2021 6:00:00 AM 17.6 63.68 0.361 8.01 8.91 8.01
5/27/2021 6:15:00 AM 17.5 63.5 0.361 8.02 4.84 8.09
5/27/2021 6:30:00 AM 17.4 63.32 0.361 8.03 5.05 8.15
5/27/2021 6:45:00 AM 17.32 63.176 0.361 8.03 4.83 8.17
5/27/2021 7:00:00 AM 17.23 63.014 0.361 8.04 4.15 8.3
5/27/2021 7:15:00 AM 17.14 62.852 0.361 8.05 4.02 8.4
5/27/2021 7:30:00 AM 17.07 62.726 0.361 8.07 4.03 8.51
5/27/2021 7:45:00 AM 17 62.6 0.361 8.09 4.07 8.63
5/27/2021 8:00:00 AM 16.93 62.474 0.361 8.1 3.81 8.7
5/27/2021 8:15:00 AM 16.89 62.402 0.361 8.12 3.65 8.85
5/27/2021 8:30:00 AM 16.86 62.348 0.361 8.14 3.41 8.99
5/27/2021 8:45:00 AM 16.89 62.402 0.36 8.17 3.23 9.19
5/27/2021 9:00:00 AM 16.82 62.276 0.36 8.18 3.51 9.23
5/27/2021 9:15:00 AM 16.79 62.222 0.359 8.2 3.93 9.34
5/27/2021 9:30:00 AM 16.81 62.258 0.358 8.22 3.65 9.46
5/27/2021 9:45:00 AM 16.78 62.204 0.358 8.23 4.1 9.52
5/27/2021 10:00:00 AM 16.79 62.222 0.357 8.26 3.44 9.67
5/27/2021 10:15:00 AM 16.84 62.312 0.357 8.29 3.16 9.84
5/27/2021 10:30:00 AM 16.94 62.492 0.356 8.31 3.07 9.97
5/27/2021 10:45:00 AM 17.04 62.672 0.356 8.34 3.22 10.05
5/27/2021 11:00:00 AM 17.35 63.23 0.355 8.37 3.44 10.27
5/27/2021 11:15:00 AM 17.64 63.752 0.354 8.41 3.1 10.4
5/27/2021 11:30:00 AM 17.51 63.518 0.355 8.4 3.19 10.23
5/27/2021 11:45:00 AM 17.67 63.806 0.355 8.41 3.09 10.2
5/27/2021 12:00:00 PM 17.77 63.986 0.355 8.43 3.12 10.25
5/27/2021 12:15:00 PM 17.79 64.022 0.355 8.43 3.27 10.19
5/27/2021 12:30:00 PM 17.87 64.166 0.355 8.44 3.08 10.24
5/27/2021 12:45:00 PM 18.11 64.598 0.355 8.47 3.12 10.42
5/27/2021 1:00:00 PM 18.25 64.85 0.355 8.48 2.98 10.49
5/27/2021 1:15:00 PM 18.3 64.94 0.355 8.5 2.99 10.55
5/27/2021 1:30:00 PM 18.31 64.958 0.355 8.51 3.19 10.58
5/27/2021 1:45:00 PM 18.39 65.102 0.355 8.53 3 10.66
5/27/2021 2:00:00 PM 18.49 65.282 0.355 8.55 2.87 10.75
5/27/2021 2:15:00 PM 18.62 65.516 0.355 8.56 2.73 10.77
5/27/2021 2:30:00 PM 18.6 65.48 0.355 8.56 2.92 10.69
5/27/2021 2:45:00 PM 18.72 65.696 0.355 8.57 3 10.71
5/27/2021 3:00:00 PM 18.82 65.876 0.355 8.58 2.94 10.75
5/27/2021 3:15:00 PM 18.97 66.146 0.356 8.59 2.91 10.65
5/27/2021 3:30:00 PM 19.04 66.272 0.356 8.58 2.92 10.59
5/27/2021 3:45:00 PM 19.04 66.272 0.356 8.58 7.79 10.54
5/27/2021 4:00:00 PM 19 66.2 0.356 8.58 6.88 10.53
5/27/2021 4:15:00 PM 19.05 66.29 0.357 8.58 2.94 10.52
5/27/2021 4:30:00 PM 19.14 66.452 0.357 8.58 5.8 10.54
5/27/2021 4:45:00 PM 19.09 66.362 0.357 8.58 6.37 10.43
5/27/2021 5:00:00 PM 19.12 66.416 0.357 8.57 3.17 10.36
5/27/2021 5:15:00 PM 19.16 66.488 0.357 8.59 5.75 10.44
5/27/2021 5:30:00 PM 19.1 66.38 0.358 8.57 6.1 10.32
5/27/2021 5:45:00 PM 19.06 66.308 0.358 8.56 3.11 10.23
5/27/2021 6:00:00 PM 18.98 66.164 0.358 8.56 2.92 10.14
5/27/2021 6:15:00 PM 18.84 65.912 0.359 8.53 5.81 9.98
5/27/2021 6:30:00 PM 18.68 65.624 0.36 8.51 6.33 9.83
5/27/2021 6:45:00 PM 18.51 65.318 0.361 8.49 2.99 9.67
5/27/2021 7:00:00 PM 18.34 65.012 0.361 8.46 3.16 9.46
5/27/2021 7:15:00 PM 18.2 64.76 0.362 8.43 2.99 9.32
5/27/2021 7:30:00 PM 18.08 64.544 0.363 8.41 2.92 9.21
5/27/2021 7:45:00 PM 17.99 64.382 0.364 8.38 2.99 9.12
5/27/2021 8:00:00 PM 17.9 64.22 0.364 8.36 6.1 9.01
5/27/2021 8:15:00 PM 17.81 64.058 0.365 8.34 3.22 8.93
5/27/2021 8:30:00 PM 17.73 63.914 0.365 8.33 3.04 8.83
5/27/2021 8:45:00 PM 17.63 63.734 0.365 8.31 3.06 8.76
5/27/2021 9:00:00 PM 17.53 63.554 0.366 8.29 3.61 8.73
5/27/2021 9:15:00 PM 17.41 63.338 0.366 8.28 3.08 8.67
5/27/2021 9:30:00 PM 17.29 63.122 0.367 8.26 3.88 8.63
5/27/2021 9:45:00 PM 17.16 62.888 0.367 8.24 3.4 8.6
5/27/2021 10:00:00 PM 17.01 62.618 0.368 8.23 3.78 8.59
5/27/2021 10:15:00 PM 16.88 62.384 0.368 8.21 3.86 8.58
5/27/2021 10:30:00 PM 16.74 62.132 0.369 8.2 3.43 8.58
5/27/2021 10:45:00 PM 16.59 61.862 0.369 8.19 3.92 8.59
5/27/2021 11:00:00 PM 16.45 61.61 0.369 8.18 3.99 8.6
5/27/2021 11:15:00 PM 16.32 61.376 0.37 8.17 3.8 8.6
5/27/2021 11:30:00 PM 16.19 61.142 0.37 8.16 3.59 8.61
5/27/2021 11:45:00 PM 16.08 60.944 0.371 8.16 3.53 8.62
5/28/2021 12:00:00 AM 15.97 60.746 0.371 8.15 4.04 8.64
5/28/2021 12:15:00 AM 15.86 60.548 0.371 8.14 4.25 8.65
5/28/2021 12:30:00 AM 15.77 60.386 0.372 8.14 4 8.66
5/28/2021 12:45:00 AM 15.68 60.224 0.372 8.13 4 8.67
5/28/2021 1:00:00 AM 15.59 60.062 0.373 8.12 4.24 8.67
5/28/2021 1:15:00 AM 15.51 59.918 0.373 8.12 3.97 8.69
5/28/2021 1:30:00 AM 15.42 59.756 0.373 8.11 3.85 8.71
5/28/2021 1:45:00 AM 15.34 59.612 0.374 8.11 3.99 8.72
5/28/2021 2:00:00 AM 15.27 59.486 0.374 8.1 3.93 8.73
5/28/2021 2:15:00 AM 15.19 59.342 0.374 8.1 6.47 8.75
5/28/2021 2:30:00 AM 15.12 59.216 0.374 8.1 4 8.75
5/28/2021 2:45:00 AM 15.04 59.072 0.375 8.1 3.92 8.77
5/28/2021 3:00:00 AM 14.97 58.946 0.375 8.09 4 8.79
5/28/2021 3:15:00 AM 14.9 58.82 0.375 8.09 3.59 8.81
5/28/2021 3:30:00 AM 14.83 58.694 0.376 8.09 3.99 8.81
5/28/2021 3:45:00 AM 14.76 58.568 0.376 8.08 4.77 8.83
5/28/2021 4:00:00 AM 14.69 58.442 0.376 8.08 4.07 8.85
5/28/2021 4:15:00 AM 14.63 58.334 0.376 8.08 6.52 8.87
5/28/2021 4:30:00 AM 14.57 58.226 0.376 8.08 3.75 8.88
5/28/2021 4:45:00 AM 14.51 58.118 0.376 8.08 3.88 8.88
5/28/2021 5:00:00 AM 14.44 57.992 0.376 8.08 4.64 8.88
5/28/2021 5:15:00 AM 14.38 57.884 0.377 8.08 4.09 8.92
5/28/2021 5:30:00 AM 14.32 57.776 0.377 8.07 4.06 8.85
5/28/2021 5:45:00 AM 14.27 57.686 0.377 8.07 21.52 8.9
5/28/2021 6:00:00 AM 14.22 57.596 0.377 8.07 13.43 8.96
5/28/2021 6:15:00 AM 14.17 57.506 0.377 8.08 3.59 8.95
5/28/2021 6:30:00 AM 14.13 57.434 0.377 8.08 36.65 9.06
5/28/2021 6:45:00 AM 14.1 57.38 0.377 8.09 3.81 9.11
5/28/2021 7:00:00 AM 14.07 57.326 0.377 8.1 15.08 9.21
5/28/2021 7:15:00 AM 14.04 57.272 0.377 8.11 3.28 9.28
5/28/2021 7:30:00 AM 14 57.2 0.377 8.11 108.43 9.3
5/28/2021 7:45:00 AM 13.97 57.146 0.377 8.12 9.74 9.36
5/28/2021 8:00:00 AM 13.95 57.11 0.377 8.13 3.19 9.41
5/28/2021 8:15:00 AM 13.94 57.092 0.376 8.15 3.73 9.53
5/28/2021 8:30:00 AM 13.95 57.11 0.376 8.17 3.12 9.71
5/28/2021 8:45:00 AM 13.94 57.092 0.376 8.19 2.83 9.82
5/28/2021 9:00:00 AM 13.94 57.092 0.376 8.21 2.91 9.95
5/28/2021 9:15:00 AM 13.95 57.11 0.376 8.23 3.49 10.08
5/28/2021 9:30:00 AM 13.95 57.11 0.375 8.25 2.88 10.15
5/28/2021 9:45:00 AM 13.94 57.092 0.375 8.26 2.9 10.2
5/28/2021 10:00:00 AM 13.95 57.11 0.375 8.29 2.89 10.33